Darstellungsparameter: Aktuell verwendete Einstellungen:
Skalierung der Graphiken ... ?
xyx+y,   Skalierungsfaktor:      Skalierung: Modus: x, Faktor: 1
Darstellungszeitraum ... ?
Vom - - bis: - -   Zeitraum: 24.03.2005 - 23.09.2005
Min/Max/Avg-Anzeige ... ?
Zeige MMA aktuell
Zeige MMA Monat
Zeige MMA alles
Zeige --A aktuell
Zeige --A Monat
Zeige --A alles
Keine MMA-Anzeige
MMA:
Average (ber die Originaldaten)
MMA-Basis: 24.03.2005 - 23.09.2005
Quicknavigation für Darstellung... ?
Tage:      1T, 2T, 3T, 5T -1T -2T -3T -5T +1T +2T +3T +5T
Wochen: 1W, 2W, 3W -1W -2W -3W +1W +2W +3W
Monate: 1M, 3M, 6M -1M -3M -6M +1M +3M +6M
Jahre:    1J, 3J, 5J, 10J -1J -3J -5J -10J +1J +3J +5J +10J
Nutze für die Darstellung ... ?
Originaldaten oder Mittelwerte auf ...
Stundenbasis Tagesbasis Wochenbasis
Monatsbasis Jahresbasis      Datenbasis: Original-Daten
Darstellen als:
Statistik (Auto) Statistik J:M      Darstellung:
Zur Graphik,    zurück zur Übersicht aller Sensoren.
 
Tabellarische Datenbersicht: ?
 
Sensor: Nr:Datum:Temp:Abs-Feuchte:Windchill:Wind:
Aussen-T/F 1 24-03-2005 00:06:03 9.9 C 7.19 g/m*3 9.9 C 0 km/h
2 24-03-2005 00:16:03 9.9 C 7.19 g/m*3 9.9 C 0 km/h
3 24-03-2005 00:26:03 9.5 C 7.01 g/m*3 9.5 C 0 km/h
4 24-03-2005 00:36:03 9.5 C 7.1 g/m*3 9.5 C 0 km/h
5 24-03-2005 00:46:02 9.4 C 7.05 g/m*3 9.4 C 0 km/h
6 24-03-2005 00:56:02 9.3 C 7.01 g/m*3 9.3 C 0 km/h
7 24-03-2005 01:06:02 9.1 C 6.92 g/m*3 9.1 C 0 km/h
8 24-03-2005 01:16:03 9.1 C 7.1 g/m*3 9.1 C 0 km/h
9 24-03-2005 01:26:03 9.1 C 7.1 g/m*3 9.1 C 0 km/h
10 24-03-2005 01:36:02 9 C 7.14 g/m*3 9 C 0 km/h
11 24-03-2005 01:46:02 9 C 7.14 g/m*3 9 C 0 km/h
12 24-03-2005 01:56:02 8.7 C 7.01 g/m*3 8.7 C 0 km/h
13 24-03-2005 02:06:01 8.6 C 7.05 g/m*3 8.6 C 0 km/h
14 24-03-2005 02:16:02 8.5 C 7.09 g/m*3 8.5 C 0 km/h
15 24-03-2005 02:26:02 8.3 C 7 g/m*3 8.3 C 0 km/h
16 24-03-2005 02:36:02 8.2 C 6.95 g/m*3 8.2 C 0 km/h
17 24-03-2005 02:47:04 8.1 C 6.91 g/m*3 8.1 C 0 km/h
18 24-03-2005 02:57:04 8 C 6.94 g/m*3 8 C 0 km/h
19 24-03-2005 03:07:04 7.9 C 6.98 g/m*3 7.9 C 0 km/h
20 24-03-2005 03:17:04 7.7 C 6.89 g/m*3 7.7 C 0 km/h
21 24-03-2005 03:27:04 7.6 C 6.85 g/m*3 7.6 C 0 km/h
22 24-03-2005 03:37:02 7.5 C 6.8 g/m*3 7.5 C 0 km/h
23 24-03-2005 03:47:02 7.5 C 6.88 g/m*3 7.5 C 0 km/h
24 24-03-2005 03:57:02 7.3 C 6.87 g/m*3 7.3 C 0 km/h
25 24-03-2005 04:07:02 7.1 C 6.79 g/m*3 7.1 C 0 km/h
Sensor: Nr:Datum:Temp:Abs-Feuchte:Windchill:Wind:
Aussen-T/F 26 24-03-2005 04:17:02 7 C 6.74 g/m*3 7 C 0 km/h
27 24-03-2005 04:27:02 6.9 C 6.77 g/m*3 6.9 C 0 km/h
28 24-03-2005 04:37:02 6.7 C 6.69 g/m*3 6.7 C 0 km/h
29 24-03-2005 04:47:02 6.7 C 6.69 g/m*3 6.7 C 0 km/h
30 24-03-2005 04:57:02 6.8 C 6.73 g/m*3 6.8 C 0 km/h
31 24-03-2005 05:07:01 6.5 C 6.6 g/m*3 6.5 C 0 km/h
32 24-03-2005 05:17:02 6.5 C 6.6 g/m*3 6.5 C 0 km/h
33 24-03-2005 05:27:02 6.7 C 6.76 g/m*3 6.7 C 0 km/h
34 24-03-2005 05:37:01 6.5 C 6.67 g/m*3 6.5 C 0 km/h
35 24-03-2005 05:47:03 6.4 C 6.63 g/m*3 6.4 C 0 km/h
36 24-03-2005 05:57:03 6.3 C 6.59 g/m*3 6.3 C 0 km/h
37 24-03-2005 06:07:03 6.4 C 6.63 g/m*3 6.4 C 0 km/h
38 24-03-2005 06:17:02 6.4 C 6.71 g/m*3 6.4 C 0 km/h
39 24-03-2005 06:27:02 6.2 C 6.55 g/m*3 6.2 C 0 km/h
40 24-03-2005 06:37:02 6 C 6.46 g/m*3 6 C 0 km/h
41 24-03-2005 06:47:01 6 C 6.46 g/m*3 6 C 0 km/h
42 24-03-2005 06:57:01 6.1 C 6.5 g/m*3 6.1 C 0 km/h
43 24-03-2005 07:07:02 6.2 C 6.55 g/m*3 6.2 C 0 km/h
44 24-03-2005 07:17:01 6.3 C 6.59 g/m*3 6.3 C 0 km/h
45 24-03-2005 07:27:02 6.5 C 6.67 g/m*3 6.5 C 0 km/h
46 24-03-2005 07:37:01 6.9 C 6.85 g/m*3 6.9 C 0 km/h
47 24-03-2005 07:47:01 7.2 C 6.91 g/m*3 7.2 C 0 km/h
48 24-03-2005 07:57:01 7.7 C 7.05 g/m*3 7.7 C 0 km/h
49 24-03-2005 08:07:01 7.8 C 6.94 g/m*3 7.8 C 0 km/h
50 24-03-2005 08:17:01 7.8 C 6.86 g/m*3 7.8 C 0 km/h
Sensor: Nr:Datum:Temp:Abs-Feuchte:Windchill:Wind:
Aussen-T/F 51 24-03-2005 08:27:01 8.1 C 6.82 g/m*3 8.1 C 0 km/h
52 24-03-2005 08:37:01 8.3 C 6.91 g/m*3 8.3 C 0 km/h
53 24-03-2005 08:47:01 8.4 C 6.96 g/m*3 8.4 C 0 km/h
54 24-03-2005 08:57:01 8.5 C 6.92 g/m*3 8.5 C 0 km/h
55 24-03-2005 09:07:02 9.2 C 7.14 g/m*3 9.2 C 0 km/h
56 24-03-2005 09:17:02 9.7 C 7.1 g/m*3 9.7 C 0 km/h
57 24-03-2005 09:27:02 10.1 C 7.19 g/m*3 10.1 C 0 km/h
58 24-03-2005 09:37:02 10.7 C 7.56 g/m*3 10.7 C 0 km/h
59 24-03-2005 09:47:02 11.8 C 7.79 g/m*3 11.8 C 0 km/h
60 24-03-2005 09:57:02 12.8 C 7.95 g/m*3 12.8 C 0 km/h
61 24-03-2005 10:07:02 13.4 C 7.67 g/m*3 13.4 C 0 km/h
62 24-03-2005 10:17:01 13.5 C 7.6 g/m*3 13.5 C 0 km/h
63 24-03-2005 10:27:01 13.9 C 7.67 g/m*3 13.9 C 0 km/h
64 24-03-2005 10:37:02 13.9 C 7.67 g/m*3 13.9 C 0 km/h
65 24-03-2005 10:47:01 14.2 C 7.57 g/m*3 14.2 C 0 km/h
66 24-03-2005 10:57:01 14.8 C 7.6 g/m*3 14.8 C 0 km/h
67 24-03-2005 11:07:01 14.8 C 7.6 g/m*3 14.8 C 0 km/h
68 24-03-2005 11:17:02 15.4 C 7.62 g/m*3 15.4 C 0 km/h
69 24-03-2005 11:27:02 15.7 C 7.63 g/m*3 15.7 C 0 km/h
70 24-03-2005 11:37:02 15.8 C 7.54 g/m*3 15.8 C 0 km/h
71 24-03-2005 11:47:02 16 C 7.36 g/m*3 16 C 0 km/h
72 24-03-2005 11:57:02 16.9 C 7.77 g/m*3 16.9 C 0 km/h
73 24-03-2005 12:07:02 16.9 C 7.62 g/m*3 16.9 C 0 km/h
74 24-03-2005 12:17:02 16.8 C 7.43 g/m*3 16.8 C 0 km/h
75 24-03-2005 12:27:02 17 C 7.38 g/m*3 17 C 0 km/h
Sensor: Nr:Datum:Temp:Abs-Feuchte:Windchill:Wind:
Aussen-T/F 76 24-03-2005 12:37:02 17.2 C 7.47 g/m*3 17.2 C 0 km/h
77 24-03-2005 12:47:01 17.1 C 7.28 g/m*3 17.1 C 0 km/h
78 24-03-2005 12:57:01 17.1 C 7.28 g/m*3 17.1 C 0 km/h
79 24-03-2005 13:07:02 17.2 C 7.32 g/m*3 17.2 C 0 km/h
80 24-03-2005 13:17:02 17.4 C 7.41 g/m*3 17.4 C 0 km/h
81 24-03-2005 13:27:02 17.6 C 7.5 g/m*3 17.6 C 0 km/h
82 24-03-2005 13:37:02 17.6 C 7.5 g/m*3 17.6 C 0 km/h
83 24-03-2005 13:47:02 18.1 C 7.57 g/m*3 18.1 C 0 km/h
84 24-03-2005 13:57:02 18.5 C 7.59 g/m*3 18.5 C 0 km/h
85 24-03-2005 14:07:03 18.5 C 7.44 g/m*3 18.5 C 0 km/h
86 24-03-2005 14:17:02 18.4 C 7.39 g/m*3 18.4 C 0 km/h
87 24-03-2005 14:27:02 18.5 C 7.59 g/m*3 18.5 C 0 km/h
88 24-03-2005 14:37:02 18.5 C 7.44 g/m*3 18.5 C 0 km/h
89 24-03-2005 14:47:01 18.2 C 7.46 g/m*3 18.2 C 0 km/h
90 24-03-2005 14:57:01 17.9 C 7.63 g/m*3 17.9 C 0 km/h
91 24-03-2005 15:07:02 17.5 C 7.6 g/m*3 17.5 C 0 km/h
92 24-03-2005 15:17:02 17.7 C 7.69 g/m*3 17.7 C 0 km/h
93 24-03-2005 15:27:03 17.9 C 7.79 g/m*3 17.9 C 0 km/h
94 24-03-2005 15:37:01 17.9 C 7.79 g/m*3 17.9 C 0 km/h
95 24-03-2005 15:47:01 17.7 C 7.69 g/m*3 17.7 C 0 km/h
96 24-03-2005 15:57:01 17.6 C 7.8 g/m*3 17.6 C 0 km/h
97 24-03-2005 16:07:02 17 C 7.81 g/m*3 17 C 0 km/h
98 24-03-2005 16:17:02 16.6 C 7.77 g/m*3 16.6 C 0 km/h
99 24-03-2005 16:27:02 16.5 C 7.86 g/m*3 16.5 C 0 km/h
100 24-03-2005 16:37:02 16.6 C 7.91 g/m*3 16.6 C 0 km/h
Sensor: Nr:Datum:Temp:Abs-Feuchte:Windchill:Wind:
Aussen-T/F 101 24-03-2005 16:47:01 16.6 C 7.91 g/m*3 16.6 C 0 km/h
102 24-03-2005 16:57:01 16.5 C 8 g/m*3 16.5 C 0 km/h
103 24-03-2005 17:07:01 16.6 C 8.05 g/m*3 16.6 C 0 km/h
104 24-03-2005 17:17:01 16.4 C 8.1 g/m*3 16.4 C 0 km/h
105 24-03-2005 17:27:01 15.9 C 8.26 g/m*3 15.9 C 0 km/h
106 24-03-2005 17:37:01 15.2 C 8.57 g/m*3 15.2 C 0 km/h
107 24-03-2005 17:47:01 14.7 C 8.81 g/m*3 14.7 C 0 km/h
108 24-03-2005 17:57:01 14.2 C 9.04 g/m*3 14.2 C 0 km/h
109 24-03-2005 18:07:02 14.2 C 9.04 g/m*3 14.2 C 0 km/h
110 24-03-2005 18:17:01 14.2 C 8.91 g/m*3 14.2 C 0 km/h
111 24-03-2005 18:27:01 14.3 C 8.97 g/m*3 14.3 C 0 km/h
112 24-03-2005 18:37:01 14.4 C 8.78 g/m*3 14.4 C 0 km/h
113 24-03-2005 18:47:01 14.4 C 8.65 g/m*3 14.4 C 0 km/h
114 24-03-2005 18:57:01 14.2 C 8.67 g/m*3 14.2 C 0 km/h
115 24-03-2005 19:07:04 14.2 C 8.67 g/m*3 14.2 C 0 km/h
116 24-03-2005 19:17:05 14.2 C 8.55 g/m*3 14.2 C 0 km/h
117 24-03-2005 19:27:05 14.2 C 8.67 g/m*3 14.2 C 0 km/h
118 24-03-2005 19:37:02 14.1 C 8.62 g/m*3 14.1 C 0 km/h
119 24-03-2005 19:47:02 14 C 8.56 g/m*3 14 C 0 km/h
120 24-03-2005 19:57:02 13.9 C 8.75 g/m*3 13.9 C 0 km/h
121 24-03-2005 20:07:04 13.7 C 8.64 g/m*3 13.7 C 0 km/h
122 24-03-2005 20:17:02 13.7 C 8.64 g/m*3 13.7 C 0 km/h
123 24-03-2005 20:27:02 13.2 C 8.38 g/m*3 13.2 C 0 km/h
124 24-03-2005 20:37:02 13.1 C 8.44 g/m*3 13.1 C 0 km/h
125 24-03-2005 20:47:01 13.1 C 8.44 g/m*3 13.1 C 0 km/h
Sensor: Nr:Datum:Temp:Abs-Feuchte:Windchill:Wind:
Aussen-T/F 126 24-03-2005 20:57:01 13 C 8.51 g/m*3 13 C 0 km/h
127 24-03-2005 21:07:01 13 C 8.51 g/m*3 13 C 0 km/h
128 24-03-2005 21:17:02 12.8 C 8.51 g/m*3 12.8 C 0 km/h
129 24-03-2005 21:27:02 12.7 C 8.46 g/m*3 12.7 C 0 km/h
130 24-03-2005 21:37:01 12.8 C 8.62 g/m*3 12.8 C 0 km/h
131 24-03-2005 21:47:01 12.9 C 8.57 g/m*3 12.9 C 0 km/h
132 24-03-2005 21:57:01 12.9 C 8.68 g/m*3 12.9 C 0 km/h
133 24-03-2005 22:07:02 12.9 C 8.68 g/m*3 12.9 C 0 km/h
134 24-03-2005 22:17:02 12.9 C 8.68 g/m*3 12.9 C 0 km/h
135 24-03-2005 22:27:02 12.8 C 8.62 g/m*3 12.8 C 0 km/h
136 24-03-2005 22:37:01 12.7 C 8.68 g/m*3 12.7 C 0 km/h
137 24-03-2005 22:47:01 12.7 C 8.91 g/m*3 12.7 C 0 km/h
138 24-03-2005 22:57:01 12.7 C 8.91 g/m*3 12.7 C 0 km/h
139 24-03-2005 23:07:02 12.7 C 8.91 g/m*3 12.7 C 0 km/h
140 24-03-2005 23:17:02 12.6 C 8.85 g/m*3 12.6 C 0 km/h
141 24-03-2005 23:27:02 12.4 C 9.29 g/m*3 12.4 C 0 km/h
142 24-03-2005 23:37:01 12.3 C 9.45 g/m*3 12.3 C 0 km/h
143 24-03-2005 23:47:01 12.1 C 9.44 g/m*3 12.1 C 0 km/h
144 24-03-2005 23:57:01 12.1 C 9.54 g/m*3 12.1 C 0 km/h
145 25-03-2005 00:07:01 12 C 9.59 g/m*3 12 C 0 km/h
146 25-03-2005 00:17:03 11.9 C 9.64 g/m*3 11.9 C 0 km/h
147 25-03-2005 00:27:04 11.9 C 9.64 g/m*3 11.9 C 0 km/h
148 25-03-2005 00:37:02 11.8 C 9.68 g/m*3 11.8 C 0 km/h
149 25-03-2005 00:47:03 11.7 C 9.62 g/m*3 11.7 C 0 km/h
150 25-03-2005 00:57:03 11.7 C 9.62 g/m*3 11.7 C 0 km/h
Sensor: Nr:Datum:Temp:Abs-Feuchte:Windchill:Wind:
Aussen-T/F 151 25-03-2005 01:07:03 11.7 C 9.62 g/m*3 11.7 C 0 km/h
152 25-03-2005 01:17:02 11.7 C 9.62 g/m*3 11.7 C 0 km/h
153 25-03-2005 01:27:02 11.7 C 9.62 g/m*3 11.7 C 0 km/h
154 25-03-2005 01:37:03 11.8 C 9.79 g/m*3 11.8 C 0 km/h
155 25-03-2005 01:47:02 12 C 9.91 g/m*3 12 C 0 km/h
156 25-03-2005 01:57:02 11.7 C 9.73 g/m*3 11.7 C 0 km/h
157 25-03-2005 02:07:02 11.5 C 9.61 g/m*3 11.5 C 0 km/h
158 25-03-2005 02:17:02 11.4 C 9.55 g/m*3 11.4 C 0 km/h
159 25-03-2005 02:27:02 11.2 C 9.43 g/m*3 11.2 C 0 km/h
160 25-03-2005 02:37:02 11.2 C 9.43 g/m*3 11.2 C 0 km/h
161 25-03-2005 02:48:03 11.1 C 9.37 g/m*3 11.1 C 0 km/h
162 25-03-2005 02:58:03 11.2 C 9.53 g/m*3 11.2 C 0 km/h
163 25-03-2005 03:08:04 11.1 C 9.47 g/m*3 11.1 C 0 km/h
164 25-03-2005 03:18:04 11.1 C 9.47 g/m*3 11.1 C 0 km/h
165 25-03-2005 03:28:04 11.1 C 9.47 g/m*3 11.1 C 0 km/h
166 25-03-2005 03:38:03 11 C 9.41 g/m*3 11 C 0 km/h
167 25-03-2005 03:48:03 11 C 9.41 g/m*3 11 C 0 km/h
168 25-03-2005 03:58:03 10.8 C 9.29 g/m*3 10.8 C 0 km/h
169 25-03-2005 04:08:02 10.8 C 9.29 g/m*3 10.8 C 0 km/h
170 25-03-2005 04:18:02 10.7 C 9.23 g/m*3 10.7 C 0 km/h
171 25-03-2005 04:28:02 10.6 C 9.17 g/m*3 10.6 C 0 km/h
172 25-03-2005 04:38:02 10.6 C 9.17 g/m*3 10.6 C 0 km/h
173 25-03-2005 04:48:02 10.5 C 9.12 g/m*3 10.5 C 0 km/h
174 25-03-2005 04:58:02 10.5 C 9.12 g/m*3 10.5 C 0 km/h
175 25-03-2005 05:08:02 10.5 C 9.12 g/m*3 10.5 C 0 km/h
Sensor: Nr:Datum:Temp:Abs-Feuchte:Windchill:Wind:
Aussen-T/F 176 25-03-2005 05:18:02 10.5 C 9.12 g/m*3 10.5 C 0 km/h
177 25-03-2005 05:28:02 10.4 C 9.06 g/m*3 10.4 C 0 km/h
178 25-03-2005 05:38:01 10.4 C 9.06 g/m*3 10.4 C 0 km/h
179 25-03-2005 05:48:01 10.4 C 9.06 g/m*3 10.4 C 0 km/h
180 25-03-2005 05:58:01 10.4 C 9.06 g/m*3 10.4 C 0 km/h
181 25-03-2005 06:08:02 10.4 C 9.06 g/m*3 10.4 C 0 km/h
182 25-03-2005 06:18:02 10.5 C 9.12 g/m*3 10.5 C 0 km/h
183 25-03-2005 06:28:03 10.5 C 9.12 g/m*3 10.5 C 0 km/h
184 25-03-2005 06:38:01 10.5 C 9.12 g/m*3 10.5 C 0 km/h
185 25-03-2005 06:48:01 10.5 C 9.12 g/m*3 10.5 C 0 km/h
186 25-03-2005 06:58:01 10.6 C 9.17 g/m*3 10.6 C 0 km/h
187 25-03-2005 07:08:02 10.7 C 9.23 g/m*3 10.7 C 0 km/h
188 25-03-2005 07:18:02 10.6 C 9.17 g/m*3 10.6 C 0 km/h
189 25-03-2005 07:28:02 10.6 C 9.08 g/m*3 10.6 C 0 km/h
190 25-03-2005 07:38:01 10.7 C 9.04 g/m*3 10.7 C 0 km/h
191 25-03-2005 07:48:01 10.7 C 8.94 g/m*3 10.7 C 0 km/h
192 25-03-2005 07:58:01 10.8 C 8.99 g/m*3 10.8 C 0 km/h
193 25-03-2005 08:08:01 10.9 C 8.95 g/m*3 10.9 C 0 km/h
194 25-03-2005 08:18:01 11.1 C 8.96 g/m*3 11.1 C 0 km/h
195 25-03-2005 08:28:01 11.2 C 9.02 g/m*3 11.2 C 0 km/h
196 25-03-2005 08:38:01 11.3 C 8.98 g/m*3 11.3 C 0 km/h
197 25-03-2005 08:48:02 11.4 C 8.93 g/m*3 11.4 C 0 km/h
198 25-03-2005 08:58:02 11.5 C 8.99 g/m*3 11.5 C 0 km/h
199 25-03-2005 09:08:02 11.7 C 8.89 g/m*3 11.7 C 0 km/h
200 25-03-2005 09:18:02 11.9 C 8.9 g/m*3 11.9 C 0 km/h
Sensor: Nr:Datum:Temp:Abs-Feuchte:Windchill:Wind:
Aussen-T/F 201 25-03-2005 09:28:02 12.2 C 8.85 g/m*3 12.2 C 0 km/h
202 25-03-2005 09:38:02 12.8 C 8.96 g/m*3 12.8 C 0 km/h
203 25-03-2005 09:48:02 13.3 C 8.66 g/m*3 13.3 C 0 km/h
204 25-03-2005 09:58:02 13.5 C 8.54 g/m*3 13.5 C 0 km/h
205 25-03-2005 10:08:02 13.4 C 8.49 g/m*3 13.4 C 0 km/h
206 25-03-2005 10:18:02 13.2 C 8.5 g/m*3 13.2 C 0 km/h
207 25-03-2005 10:28:02 13.5 C 8.42 g/m*3 13.5 C 0 km/h
208 25-03-2005 10:38:03 13.6 C 8.47 g/m*3 13.6 C 0 km/h
209 25-03-2005 10:48:01 13.5 C 8.19 g/m*3 13.5 C 0 km/h
210 25-03-2005 10:58:01 13.7 C 7.82 g/m*3 13.7 C 0 km/h
211 25-03-2005 11:08:02 14 C 7.48 g/m*3 14 C 0 km/h
212 25-03-2005 11:18:02 14 C 7.24 g/m*3 14 C 0 km/h
213 25-03-2005 11:28:02 14.3 C 7.62 g/m*3 14.3 C 0 km/h
214 25-03-2005 11:38:01 14.2 C 7.57 g/m*3 14.2 C 0 km/h
215 25-03-2005 11:48:02 14.1 C 7.28 g/m*3 14.1 C 0 km/h
216 25-03-2005 11:58:02 14.3 C 7.37 g/m*3 14.3 C 0 km/h
217 25-03-2005 12:08:02 14.1 C 7.04 g/m*3 14.1 C 0 km/h
218 25-03-2005 12:18:02 14.3 C 7 g/m*3 14.3 C 0 km/h
219 25-03-2005 12:28:03 14.9 C 7.65 g/m*3 14.9 C 0 km/h
220 25-03-2005 12:38:02 16.8 C 7.72 g/m*3 16.8 C 0 km/h
221 25-03-2005 12:48:02 16.9 C 6.9 g/m*3 16.9 C 0 km/h
222 25-03-2005 12:58:02 16.3 C 6.94 g/m*3 16.3 C 0 km/h
223 25-03-2005 13:08:02 17.1 C 7.28 g/m*3 17.1 C 0 km/h
224 25-03-2005 13:18:02 17.8 C 7.44 g/m*3 17.8 C 0 km/h
225 25-03-2005 13:28:02 17.3 C 7.07 g/m*3 17.3 C 0 km/h
Sensor: Nr:Datum:Temp:Abs-Feuchte:Windchill:Wind:
Aussen-T/F 226 25-03-2005 13:38:01 17 C 7.09 g/m*3 17 C 0 km/h
227 25-03-2005 13:48:01 17.8 C 7.44 g/m*3 17.8 C 0 km/h
228 25-03-2005 13:58:01 18.5 C 7.28 g/m*3 18.5 C 0 km/h
229 25-03-2005 14:08:01 18.1 C 6.64 g/m*3 18.1 C 0 km/h
230 25-03-2005 14:18:01 18 C 6.91 g/m*3 18 C 0 km/h
231 25-03-2005 14:28:01 17.8 C 6.53 g/m*3 17.8 C 0 km/h
232 25-03-2005 14:38:02 18.1 C 6.8 g/m*3 18.1 C 0 km/h
233 25-03-2005 14:48:01 18.2 C 6.53 g/m*3 18.2 C 0 km/h
234 25-03-2005 14:58:01 18.1 C 6.64 g/m*3 18.1 C 0 km/h
235 25-03-2005 15:08:01 18.1 C 6.49 g/m*3 18.1 C 0 km/h
236 25-03-2005 15:18:02 17.7 C 6.49 g/m*3 17.7 C 0 km/h
237 25-03-2005 15:28:02 18.3 C 6.41 g/m*3 18.3 C 0 km/h
238 25-03-2005 15:38:02 17.1 C 6.11 g/m*3 17.1 C 0 km/h
239 25-03-2005 15:48:01 17 C 6.51 g/m*3 17 C 0 km/h
240 25-03-2005 15:58:01 17.8 C 6.53 g/m*3 17.8 C 0 km/h
241 25-03-2005 16:08:02 17.7 C 6.49 g/m*3 17.7 C 0 km/h
242 25-03-2005 16:18:02 18 C 6.45 g/m*3 18 C 0 km/h
243 25-03-2005 16:28:02 18.4 C 6.61 g/m*3 18.4 C 0 km/h
244 25-03-2005 16:38:02 18.5 C 6.65 g/m*3 18.5 C 0 km/h
245 25-03-2005 16:48:02 18.8 C 6.76 g/m*3 18.8 C 0 km/h
246 25-03-2005 16:58:02 18.5 C 6.65 g/m*3 18.5 C 0 km/h
247 25-03-2005 17:08:02 18.2 C 6.37 g/m*3 18.2 C 0 km/h
248 25-03-2005 17:18:02 17.3 C 6.63 g/m*3 17.3 C 0 km/h
249 25-03-2005 17:28:02 16.7 C 7.25 g/m*3 16.7 C 0 km/h
250 25-03-2005 17:38:02 15.8 C 7.54 g/m*3 15.8 C 0 km/h
Sensor: Nr:Datum:Temp:Abs-Feuchte:Windchill:Wind:
Aussen-T/F 251 25-03-2005 17:48:02 15.4 C 7.23 g/m*3 15.4 C 0 km/h
252 25-03-2005 17:58:02 15.1 C 7.61 g/m*3 15.1 C 0 km/h
253 25-03-2005 18:08:03 15 C 7.31 g/m*3 15 C 0 km/h
254 25-03-2005 18:18:02 14.8 C 7.47 g/m*3 14.8 C 0 km/h
255 25-03-2005 18:28:02 14.6 C 7.51 g/m*3 14.6 C 0 km/h
256 25-03-2005 18:38:02 14.4 C 7.42 g/m*3 14.4 C 0 km/h
257 25-03-2005 18:48:01 14.3 C 7.49 g/m*3 14.3 C 0 km/h
258 25-03-2005 18:58:01 14.2 C 7.82 g/m*3 14.2 C 0 km/h
259 25-03-2005 19:08:02 14.1 C 7.52 g/m*3 14.1 C 0 km/h
260 25-03-2005 19:18:02 14 C 7.48 g/m*3 14 C 0 km/h
261 25-03-2005 19:28:02 14 C 7.48 g/m*3 14 C 0 km/h
262 25-03-2005 19:38:02 13.8 C 7.51 g/m*3 13.8 C 0 km/h
263 25-03-2005 19:48:01 13.8 C 7.63 g/m*3 13.8 C 0 km/h
264 25-03-2005 19:58:01 13.8 C 7.74 g/m*3 13.8 C 0 km/h
265 25-03-2005 20:08:01 13.7 C 7.82 g/m*3 13.7 C 0 km/h
266 25-03-2005 20:18:01 13.5 C 7.84 g/m*3 13.5 C 0 km/h
267 25-03-2005 20:28:01 13.2 C 7.69 g/m*3 13.2 C 0 km/h
268 25-03-2005 20:38:02 13 C 7.48 g/m*3 13 C 0 km/h
269 25-03-2005 20:48:02 12.8 C 7.62 g/m*3 12.8 C 0 km/h
270 25-03-2005 20:58:02 12.7 C 7.57 g/m*3 12.7 C 0 km/h
271 25-03-2005 21:08:03 12.7 C 7.68 g/m*3 12.7 C 0 km/h
272 25-03-2005 21:18:02 12.6 C 7.63 g/m*3 12.6 C 0 km/h
273 25-03-2005 21:28:03 12.7 C 7.79 g/m*3 12.7 C 0 km/h
274 25-03-2005 21:38:02 12.6 C 7.74 g/m*3 12.6 C 0 km/h
275 25-03-2005 21:48:01 12.6 C 7.63 g/m*3 12.6 C 0 km/h
Sensor: Nr:Datum:Temp:Abs-Feuchte:Windchill:Wind:
Aussen-T/F 276 25-03-2005 21:58:01 12.5 C 7.7 g/m*3 12.5 C 0 km/h
277 25-03-2005 22:08:01 12.4 C 7.76 g/m*3 12.4 C 0 km/h
278 25-03-2005 22:18:01 11.9 C 7.73 g/m*3 11.9 C 0 km/h
279 25-03-2005 22:28:01 11.4 C 7.6 g/m*3 11.4 C 0 km/h
280 25-03-2005 22:38:02 11.1 C 7.45 g/m*3 11.1 C 0 km/h
281 25-03-2005 22:48:02 10.8 C 7.61 g/m*3 10.8 C 0 km/h
282 25-03-2005 22:58:02 10.7 C 7.56 g/m*3 10.7 C 0 km/h
283 25-03-2005 23:08:03 10.6 C 7.52 g/m*3 10.6 C 0 km/h
284 25-03-2005 23:18:02 10.4 C 7.52 g/m*3 10.4 C 0 km/h
285 25-03-2005 23:28:02 10.2 C 7.42 g/m*3 10.2 C 0 km/h
286 25-03-2005 23:38:02 10 C 7.42 g/m*3 10 C 0 km/h
287 25-03-2005 23:48:01 9.9 C 7.56 g/m*3 9.9 C 0 km/h
288 25-03-2005 23:58:01 9.8 C 7.61 g/m*3 9.8 C 0 km/h
289 26-03-2005 00:08:02 9.7 C 7.56 g/m*3 9.7 C 0 km/h
290 26-03-2005 00:18:02 9.7 C 7.56 g/m*3 9.7 C 0 km/h
291 26-03-2005 00:28:02 9.7 C 7.56 g/m*3 9.7 C 0 km/h
292 26-03-2005 00:38:02 9.6 C 7.51 g/m*3 9.6 C 0 km/h
293 26-03-2005 00:48:02 9.5 C 7.46 g/m*3 9.5 C 0 km/h
294 26-03-2005 00:58:02 9.3 C 7.37 g/m*3 9.3 C 0 km/h
295 26-03-2005 01:08:02 9.2 C 7.41 g/m*3 9.2 C 0 km/h
296 26-03-2005 01:18:02 9 C 7.32 g/m*3 9 C 0 km/h
297 26-03-2005 01:28:02 8.9 C 7.45 g/m*3 8.9 C 0 km/h
298 26-03-2005 01:38:02 8.9 C 7.53 g/m*3 8.9 C 0 km/h
299 26-03-2005 01:48:02 8.6 C 7.39 g/m*3 8.6 C 0 km/h
300 26-03-2005 01:58:02 8.5 C 7.34 g/m*3 8.5 C 0 km/h
Sensor: Nr:Datum:Temp:Abs-Feuchte:Windchill:Wind:
Aussen-T/F 301 26-03-2005 02:08:02 8.4 C 7.3 g/m*3 8.4 C 0 km/h
302 26-03-2005 02:18:03 8 C 7.11 g/m*3 8 C 0 km/h
303 26-03-2005 02:28:03 8 C 7.11 g/m*3 8 C 0 km/h
304 26-03-2005 02:38:02 8 C 7.19 g/m*3 8 C 0 km/h
305 26-03-2005 02:49:03 7.8 C 7.18 g/m*3 7.8 C 0 km/h
306 26-03-2005 02:59:03 7.8 C 7.18 g/m*3 7.8 C 0 km/h
307 26-03-2005 03:09:03 7.6 C 7.09 g/m*3 7.6 C 0 km/h
308 26-03-2005 03:19:03 7.5 C 7.12 g/m*3 7.5 C 0 km/h
309 26-03-2005 03:29:03 7.5 C 7.28 g/m*3 7.5 C 0 km/h
310 26-03-2005 03:39:02 7.5 C 7.28 g/m*3 7.5 C 0 km/h
311 26-03-2005 03:49:02 7.4 C 7.24 g/m*3 7.4 C 0 km/h
312 26-03-2005 03:59:02 7.6 C 7.41 g/m*3 7.6 C 0 km/h
313 26-03-2005 04:09:02 7.5 C 7.36 g/m*3 7.5 C 0 km/h
314 26-03-2005 04:19:02 7.6 C 7.33 g/m*3 7.6 C 0 km/h
315 26-03-2005 04:29:02 7.5 C 7.28 g/m*3 7.5 C 0 km/h
316 26-03-2005 04:39:01 7.3 C 7.19 g/m*3 7.3 C 0 km/h
317 26-03-2005 04:49:02 7.1 C 7.1 g/m*3 7.1 C 0 km/h
318 26-03-2005 04:59:02 7.2 C 7.22 g/m*3 7.2 C 0 km/h
319 26-03-2005 05:09:02 7.3 C 7.27 g/m*3 7.3 C 0 km/h
320 26-03-2005 05:19:02 7.4 C 7.32 g/m*3 7.4 C 0 km/h
321 26-03-2005 05:29:02 7.4 C 7.24 g/m*3 7.4 C 0 km/h
322 26-03-2005 05:39:02 7.4 C 7.24 g/m*3 7.4 C 0 km/h
323 26-03-2005 05:49:02 7.1 C 7.02 g/m*3 7.1 C 0 km/h
324 26-03-2005 05:59:02 6.8 C 6.96 g/m*3 6.8 C 0 km/h
325 26-03-2005 06:09:03 6.8 C 6.96 g/m*3 6.8 C 0 km/h
Sensor: Nr:Datum:Temp:Abs-Feuchte:Windchill:Wind:
Aussen-T/F 326 26-03-2005 06:19:02 6.8 C 6.96 g/m*3 6.8 C 0 km/h
327 26-03-2005 06:29:02 6.7 C 6.91 g/m*3 6.7 C 0 km/h
328 26-03-2005 06:39:02 6.2 C 6.69 g/m*3 6.2 C 0 km/h
329 26-03-2005 06:49:01 6.1 C 6.72 g/m*3 6.1 C 0 km/h
330 26-03-2005 06:59:01 6.3 C 6.88 g/m*3 6.3 C 0 km/h
331 26-03-2005 07:09:02 6.5 C 6.97 g/m*3 6.5 C 0 km/h
332 26-03-2005 07:19:02 6.8 C 7.11 g/m*3 6.8 C 0 km/h
333 26-03-2005 07:29:02 6.8 C 7.11 g/m*3 6.8 C 0 km/h
334 26-03-2005 07:39:02 6.6 C 6.87 g/m*3 6.6 C 0 km/h
335 26-03-2005 07:49:02 6.4 C 6.71 g/m*3 6.4 C 0 km/h
336 26-03-2005 07:59:02 6.4 C 6.71 g/m*3 6.4 C 0 km/h
337 26-03-2005 08:09:01 6.9 C 6.93 g/m*3 6.9 C 0 km/h
338 26-03-2005 08:19:02 7.1 C 6.86 g/m*3 7.1 C 0 km/h
339 26-03-2005 08:29:02 7.3 C 6.87 g/m*3 7.3 C 0 km/h
340 26-03-2005 08:39:02 7.8 C 7.1 g/m*3 7.8 C 0 km/h
341 26-03-2005 08:49:01 8.2 C 7.12 g/m*3 8.2 C 0 km/h
342 26-03-2005 08:59:01 8.3 C 6.91 g/m*3 8.3 C 0 km/h
343 26-03-2005 09:09:02 8.3 C 6.83 g/m*3 8.3 C 0 km/h
344 26-03-2005 09:19:02 8.3 C 6.91 g/m*3 8.3 C 0 km/h
345 26-03-2005 09:29:02 8.2 C 6.87 g/m*3 8.2 C 0 km/h
346 26-03-2005 09:39:01 8.3 C 7 g/m*3 8.3 C 0 km/h
347 26-03-2005 09:49:01 8.4 C 7.13 g/m*3 8.4 C 0 km/h
348 26-03-2005 09:59:01 8.6 C 7.22 g/m*3 8.6 C 0 km/h
349 26-03-2005 10:09:02 8.7 C 7.35 g/m*3 8.7 C 0 km/h
350 26-03-2005 10:19:02 8.9 C 7.45 g/m*3 8.9 C 0 km/h
Sensor: Nr:Datum:Temp:Abs-Feuchte:Windchill:Wind:
Aussen-T/F 351 26-03-2005 10:29:02 9.1 C 7.45 g/m*3 9.1 C 0 km/h
352 26-03-2005 10:41:02 9.7 C 7.65 g/m*3 9.7 C 0 km/h
353 26-03-2005 10:44:02 9.8 C 7.7 g/m*3 9.8 C 0 km/h
354 26-03-2005 10:53:02 10.6 C 7.91 g/m*3 10.6 C 0 km/h
355 26-03-2005 10:56:02 10.9 C 7.96 g/m*3 10.9 C 0 km/h
356 26-03-2005 10:59:02 11.1 C 7.96 g/m*3 11.1 C 0 km/h
357 26-03-2005 11:13:02 12.4 C 8.19 g/m*3 12.4 C 0 km/h
358 26-03-2005 11:25:02 13.3 C 8.2 g/m*3 13.3 C 0 km/h
359 26-03-2005 11:37:02 13.9 C 7.91 g/m*3 13.9 C 0 km/h
360 26-03-2005 11:49:02 14.6 C 7.88 g/m*3 14.6 C 0 km/h
361 26-03-2005 12:01:03 15.4 C 7.23 g/m*3 15.4 C 0 km/h
362 26-03-2005 12:13:03 16.2 C 7.31 g/m*3 16.2 C 0 km/h
363 26-03-2005 12:25:02 17 C 6.66 g/m*3 17 C 0 km/h
364 26-03-2005 12:37:02 17.6 C 7.05 g/m*3 17.6 C 0 km/h
365 26-03-2005 12:49:01 18.1 C 6.8 g/m*3 18.1 C 0 km/h
366 26-03-2005 13:01:02 18.5 C 6.8 g/m*3 18.5 C 0 km/h
367 26-03-2005 13:13:02 19 C 6.52 g/m*3 19 C 0 km/h
368 26-03-2005 13:25:01 18.9 C 6.48 g/m*3 18.9 C 0 km/h
369 26-03-2005 13:37:02 19 C 6.36 g/m*3 19 C 0 km/h
370 26-03-2005 13:49:02 18.9 C 6.32 g/m*3 18.9 C 0 km/h
371 26-03-2005 14:01:03 18.3 C 6.25 g/m*3 18.3 C 0 km/h
372 26-03-2005 14:13:03 19.5 C 6.55 g/m*3 19.5 C 0 km/h
373 26-03-2005 14:25:02 20.6 C 6.62 g/m*3 20.6 C 0 km/h
374 26-03-2005 14:37:02 21.1 C 6.26 g/m*3 21.1 C 0 km/h
375 26-03-2005 14:49:01 20.3 C 6.33 g/m*3 20.3 C 0 km/h
Sensor: Nr:Datum:Temp:Abs-Feuchte:Windchill:Wind:
Aussen-T/F 376 26-03-2005 15:01:02 21 C 6.78 g/m*3 21 C 0 km/h
377 26-03-2005 15:13:02 21.2 C 6.67 g/m*3 21.2 C 0 km/h
378 26-03-2005 15:25:02 21.7 C 6.87 g/m*3 21.7 C 0 km/h
379 26-03-2005 15:37:02 21.6 C 6.83 g/m*3 21.6 C 0 km/h
380 26-03-2005 15:49:02 21.9 C 6.56 g/m*3 21.9 C 0 km/h
381 26-03-2005 16:01:03 21.6 C 6.64 g/m*3 21.6 C 0 km/h
382 26-03-2005 16:13:03 21.1 C 6.63 g/m*3 21.1 C 0 km/h
383 26-03-2005 16:25:03 21.5 C 6.98 g/m*3 21.5 C 0 km/h
384 26-03-2005 16:37:02 20.1 C 6.61 g/m*3 20.1 C 0 km/h
385 26-03-2005 16:49:01 19.3 C 6.63 g/m*3 19.3 C 0 km/h
386 26-03-2005 17:01:02 18.9 C 6.8 g/m*3 18.9 C 0 km/h
387 26-03-2005 17:13:02 18.6 C 6.84 g/m*3 18.6 C 0 km/h
388 26-03-2005 17:25:02 18.1 C 6.64 g/m*3 18.1 C 0 km/h
389 26-03-2005 17:37:02 17.8 C 6.98 g/m*3 17.8 C 0 km/h
390 26-03-2005 17:49:02 17.5 C 6.86 g/m*3 17.5 C 0 km/h
391 26-03-2005 18:01:02 17.2 C 6.74 g/m*3 17.2 C 0 km/h
392 26-03-2005 18:13:02 16.8 C 6.86 g/m*3 16.8 C 0 km/h
393 26-03-2005 18:25:02 16.5 C 7.02 g/m*3 16.5 C 0 km/h
394 26-03-2005 18:37:02 16 C 6.68 g/m*3 16 C 0 km/h
395 26-03-2005 18:49:02 15.7 C 7.09 g/m*3 15.7 C 0 km/h
396 26-03-2005 19:01:02 15.5 C 7.14 g/m*3 15.5 C 0 km/h
397 26-03-2005 19:13:02 15.4 C 6.96 g/m*3 15.4 C 0 km/h
398 26-03-2005 19:25:02 15.3 C 6.79 g/m*3 15.3 C 0 km/h
399 26-03-2005 19:37:02 15.2 C 6.88 g/m*3 15.2 C 0 km/h
400 26-03-2005 19:49:01 15 C 7.05 g/m*3 15 C 0 km/h
Sensor: Nr:Datum:Temp:Abs-Feuchte:Windchill:Wind:
Aussen-T/F 401 26-03-2005 20:01:02 14.9 C 7.26 g/m*3 14.9 C 0 km/h
402 26-03-2005 20:13:02 14.8 C 7.35 g/m*3 14.8 C 0 km/h
403 26-03-2005 20:25:02 14.6 C 7.38 g/m*3 14.6 C 0 km/h
404 26-03-2005 20:37:02 14.6 C 7.51 g/m*3 14.6 C 0 km/h
405 26-03-2005 20:49:02 14.4 C 7.66 g/m*3 14.4 C 0 km/h
406 26-03-2005 21:01:02 14.4 C 7.66 g/m*3 14.4 C 0 km/h
407 26-03-2005 21:13:02 14.4 C 7.79 g/m*3 14.4 C 0 km/h
408 26-03-2005 21:25:02 14.4 C 7.79 g/m*3 14.4 C 0 km/h
409 26-03-2005 21:37:02 14.2 C 8.06 g/m*3 14.2 C 0 km/h
410 26-03-2005 21:49:01 13.8 C 8.46 g/m*3 13.8 C 0 km/h
411 26-03-2005 22:01:06 13.6 C 8.47 g/m*3 13.6 C 0 km/h
412 26-03-2005 22:13:06 13.4 C 8.49 g/m*3 13.4 C 0 km/h
413 26-03-2005 22:25:02 13.1 C 8.56 g/m*3 13.1 C 0 km/h
414 26-03-2005 22:37:09 12.7 C 9.02 g/m*3 12.7 C 0 km/h
415 26-03-2005 22:49:04 12.4 C 9.18 g/m*3 12.4 C 0 km/h
416 26-03-2005 23:01:04 12.3 C 9.45 g/m*3 12.3 C 0 km/h
417 26-03-2005 23:13:04 11.8 C 9.26 g/m*3 11.8 C 0 km/h
418 26-03-2005 23:25:03 11.5 C 9.19 g/m*3 11.5 C 0 km/h
419 26-03-2005 23:37:05 11.6 C 9.35 g/m*3 11.6 C 0 km/h
420 26-03-2005 23:49:04 11.6 C 9.46 g/m*3 11.6 C 0 km/h
421 27-03-2005 00:01:05 11.1 C 9.17 g/m*3 11.1 C 0 km/h
422 27-03-2005 00:13:05 11.3 C 9.38 g/m*3 11.3 C 0 km/h
423 27-03-2005 00:25:06 11.5 C 9.5 g/m*3 11.5 C 0 km/h
424 27-03-2005 00:37:06 11.2 C 9.33 g/m*3 11.2 C 0 km/h
425 27-03-2005 00:49:04 11.2 C 9.33 g/m*3 11.2 C 0 km/h
Sensor: Nr:Datum:Temp:Abs-Feuchte:Windchill:Wind:
Aussen-T/F 426 27-03-2005 01:01:04 11.1 C 9.27 g/m*3 11.1 C 0 km/h
427 27-03-2005 01:13:04 11.2 C 9.43 g/m*3 11.2 C 0 km/h
428 27-03-2005 01:25:03 11.3 C 9.49 g/m*3 11.3 C 0 km/h
429 27-03-2005 01:37:04 11.1 C 9.37 g/m*3 11.1 C 0 km/h
430 27-03-2005 01:49:05 11.2 C 9.43 g/m*3 11.2 C 0 km/h
431 27-03-2005 02:01:03 11 C 9.31 g/m*3 11 C 0 km/h
432 27-03-2005 02:13:03 10.9 C 9.25 g/m*3 10.9 C 0 km/h
433 27-03-2005 02:25:03 10.6 C 9.08 g/m*3 10.6 C 0 km/h
434 27-03-2005 02:37:01 10.6 C 9.08 g/m*3 10.6 C 0 km/h
435 27-03-2005 02:49:01 10.7 C 9.13 g/m*3 10.7 C 0 km/h
436 27-03-2005 04:01:01 10.9 C 9.35 g/m*3 10.9 C 0 km/h
437 27-03-2005 04:13:01 11 C 9.31 g/m*3 11 C 0 km/h
438 27-03-2005 04:25:01 11 C 9.31 g/m*3 11 C 0 km/h
439 27-03-2005 04:37:01 10.8 C 9.19 g/m*3 10.8 C 0 km/h
440 27-03-2005 04:49:02 10.4 C 8.87 g/m*3 10.4 C 0 km/h
441 27-03-2005 05:01:01 10.3 C 8.81 g/m*3 10.3 C 0 km/h
442 27-03-2005 05:13:01 10 C 8.64 g/m*3 10 C 0 km/h
443 27-03-2005 05:25:01 9.8 C 8.54 g/m*3 9.8 C 0 km/h
444 27-03-2005 05:37:02 9.6 C 8.43 g/m*3 9.6 C 0 km/h
445 27-03-2005 05:49:01 9.3 C 8.27 g/m*3 9.3 C 0 km/h
446 27-03-2005 06:01:01 9.2 C 8.3 g/m*3 9.2 C 0 km/h
447 27-03-2005 06:13:01 9.4 C 8.41 g/m*3 9.4 C 0 km/h
448 27-03-2005 06:25:02 9.6 C 8.61 g/m*3 9.6 C 0 km/h
449 27-03-2005 06:37:01 9.9 C 8.78 g/m*3 9.9 C 0 km/h
450 27-03-2005 06:49:01 9.9 C 8.78 g/m*3 9.9 C 0 km/h
Sensor: Nr:Datum:Temp:Abs-Feuchte:Windchill:Wind:
Aussen-T/F 451 27-03-2005 07:01:01 10 C 8.74 g/m*3 10 C 0 km/h
452 27-03-2005 07:13:01 10.1 C 8.79 g/m*3 10.1 C 0 km/h
453 27-03-2005 07:25:01 10.1 C 8.79 g/m*3 10.1 C 0 km/h
454 27-03-2005 07:37:02 10.1 C 8.79 g/m*3 10.1 C 0 km/h
455 27-03-2005 07:49:02 10.2 C 8.85 g/m*3 10.2 C 0 km/h
456 27-03-2005 08:01:01 10.3 C 8.91 g/m*3 10.3 C 0 km/h
457 27-03-2005 08:13:01 10.4 C 8.96 g/m*3 10.4 C 0 km/h
458 27-03-2005 08:25:01 10.9 C 9.25 g/m*3 10.9 C 0 km/h
459 27-03-2005 08:37:02 11.2 C 9.43 g/m*3 11.2 C 0 km/h
460 27-03-2005 08:49:02 11.4 C 9.34 g/m*3 11.4 C 0 km/h
461 27-03-2005 09:01:02 11.5 C 9.3 g/m*3 11.5 C 0 km/h
462 27-03-2005 09:13:02 11.9 C 9.21 g/m*3 11.9 C 0 km/h
463 27-03-2005 09:25:01 12.5 C 9.24 g/m*3 12.5 C 0 km/h
464 27-03-2005 09:37:01 12.4 C 8.85 g/m*3 12.4 C 0 km/h
465 27-03-2005 09:49:01 12.3 C 8.8 g/m*3 12.3 C 0 km/h
466 27-03-2005 10:01:02 12.7 C 8.79 g/m*3 12.7 C 0 km/h
467 27-03-2005 10:13:02 13.2 C 8.73 g/m*3 13.2 C 0 km/h
468 27-03-2005 10:25:02 13.6 C 8.71 g/m*3 13.6 C 0 km/h
469 27-03-2005 10:37:01 13.9 C 8.63 g/m*3 13.9 C 0 km/h
470 27-03-2005 10:49:01 14.2 C 8.55 g/m*3 14.2 C 0 km/h
471 27-03-2005 11:01:47 14.2 C 8.67 g/m*3 14.2 C 0 km/h
472 27-03-2005 11:13:01 15.2 C 8.7 g/m*3 15.2 C 0 km/h
473 27-03-2005 11:25:01 15.3 C 8.49 g/m*3 15.3 C 0 km/h
474 27-03-2005 11:37:01 15.2 C 8.44 g/m*3 15.2 C 0 km/h
475 27-03-2005 11:49:01 14.8 C 8.49 g/m*3 14.8 C 0 km/h
Sensor: Nr:Datum:Temp:Abs-Feuchte:Windchill:Wind:
Aussen-T/F 476 27-03-2005 12:01:02 15.5 C 8.46 g/m*3 15.5 C 0 km/h
477 27-03-2005 12:13:02 16.2 C 8.27 g/m*3 16.2 C 0 km/h
478 27-03-2005 12:25:02 16.5 C 8.28 g/m*3 16.5 C 0 km/h
479 27-03-2005 12:37:02 16.2 C 8.41 g/m*3 16.2 C 0 km/h
480 27-03-2005 12:49:02 16.2 C 8.55 g/m*3 16.2 C 0 km/h
481 27-03-2005 13:01:01 16.6 C 8.33 g/m*3 16.6 C 0 km/h
482 27-03-2005 13:13:01 16.6 C 8.33 g/m*3 16.6 C 0 km/h
483 27-03-2005 13:25:01 17.5 C 8.5 g/m*3 17.5 C 0 km/h
484 27-03-2005 13:37:01 17.4 C 8.3 g/m*3 17.4 C 0 km/h
485 27-03-2005 13:49:01 16.8 C 8.29 g/m*3 16.8 C 0 km/h
486 27-03-2005 14:01:02 16.7 C 8.53 g/m*3 16.7 C 0 km/h
487 27-03-2005 14:13:02 16.5 C 8.28 g/m*3 16.5 C 0 km/h
488 27-03-2005 14:25:02 16.6 C 8.62 g/m*3 16.6 C 0 km/h
489 27-03-2005 14:37:01 16.4 C 8.51 g/m*3 16.4 C 0 km/h
490 27-03-2005 14:49:01 15.5 C 9.39 g/m*3 15.5 C 0 km/h
491 27-03-2005 15:01:01 16.2 C 9.79 g/m*3 16.2 C 0 km/h
492 27-03-2005 15:13:01 17 C 8.97 g/m*3 17 C 0 km/h
493 27-03-2005 15:25:02 17.2 C 8.93 g/m*3 17.2 C 0 km/h
494 27-03-2005 15:37:02 17 C 8.54 g/m*3 17 C 0 km/h
495 27-03-2005 15:49:02 15.1 C 9.16 g/m*3 15.1 C 0 km/h
496 27-03-2005 16:01:02 14.4 C 9.15 g/m*3 14.4 C 0 km/h
497 27-03-2005 16:13:02 15.2 C 10.25 g/m*3 15.2 C 0 km/h
498 27-03-2005 16:25:02 15.7 C 9.77 g/m*3 15.7 C 0 km/h
499 27-03-2005 16:37:01 16.2 C 9.93 g/m*3 16.2 C 0 km/h
500 27-03-2005 16:49:01 15.5 C 10.31 g/m*3 15.5 C 0 km/h
Sensor: Nr:Datum:Temp:Abs-Feuchte:Windchill:Wind:
Aussen-T/F 501 27-03-2005 17:01:01 15.2 C 10.51 g/m*3 15.2 C 0 km/h
502 27-03-2005 17:13:01 15.1 C 10.84 g/m*3 15.1 C 0 km/h
503 27-03-2005 17:25:01 15.2 C 11.03 g/m*3 15.2 C 0 km/h
504 27-03-2005 17:37:01 15.4 C 11.04 g/m*3 15.4 C 0 km/h
505 27-03-2005 17:49:02 15.5 C 11.1 g/m*3 15.5 C 0 km/h
506 27-03-2005 18:01:02 14.8 C 10.89 g/m*3 14.8 C 0 km/h
507 27-03-2005 18:13:02 14.2 C 10.75 g/m*3 14.2 C 0 km/h
508 27-03-2005 18:25:02 13.4 C 10.35 g/m*3 13.4 C 0 km/h
509 27-03-2005 18:37:02 12.9 C 10.26 g/m*3 12.9 C 0 km/h
510 27-03-2005 18:49:02 13.2 C 10.45 g/m*3 13.2 C 0 km/h
511 27-03-2005 19:01:01 13.2 C 10.56 g/m*3 13.2 C 0 km/h
512 27-03-2005 19:13:01 13.2 C 10.56 g/m*3 13.2 C 0 km/h
513 27-03-2005 19:25:02 12.6 C 10.18 g/m*3 12.6 C 0 km/h
514 27-03-2005 19:37:01 12.3 C 9.99 g/m*3 12.3 C 0 km/h
515 27-03-2005 19:49:01 11.8 C 9.68 g/m*3 11.8 C 0 km/h
516 27-03-2005 20:01:01 11.7 C 9.62 g/m*3 11.7 C 0 km/h
517 27-03-2005 20:13:01 11.7 C 9.62 g/m*3 11.7 C 0 km/h
518 27-03-2005 20:25:02 11.5 C 9.61 g/m*3 11.5 C 0 km/h
519 27-03-2005 20:37:01 11.4 C 9.55 g/m*3 11.4 C 0 km/h
520 27-03-2005 20:49:01 11.5 C 9.61 g/m*3 11.5 C 0 km/h
521 27-03-2005 21:01:01 11.4 C 9.65 g/m*3 11.4 C 0 km/h
522 27-03-2005 21:13:01 11.5 C 9.71 g/m*3 11.5 C 0 km/h
523 27-03-2005 21:25:01 11.5 C 9.71 g/m*3 11.5 C 0 km/h
524 27-03-2005 21:37:02 11.1 C 9.47 g/m*3 11.1 C 0 km/h
525 27-03-2005 21:49:02 10.8 C 9.29 g/m*3 10.8 C 0 km/h
Sensor: Nr:Datum:Temp:Abs-Feuchte:Windchill:Wind:
Aussen-T/F 526 27-03-2005 22:01:01 10.8 C 9.29 g/m*3 10.8 C 0 km/h
527 27-03-2005 22:13:01 10.8 C 9.29 g/m*3 10.8 C 0 km/h
528 27-03-2005 22:25:01 10.7 C 9.33 g/m*3 10.7 C 0 km/h
529 27-03-2005 22:37:02 10.7 C 9.33 g/m*3 10.7 C 0 km/h
530 27-03-2005 22:49:02 10.7 C 9.33 g/m*3 10.7 C 0 km/h
531 27-03-2005 23:01:02 10.5 C 9.21 g/m*3 10.5 C 0 km/h
532 27-03-2005 23:13:02 10.5 C 9.12 g/m*3 10.5 C 0 km/h
533 27-03-2005 23:25:01 10.5 C 9.21 g/m*3 10.5 C 0 km/h
534 27-03-2005 23:37:01 10.2 C 8.95 g/m*3 10.2 C 0 km/h
535 27-03-2005 23:49:01 10.2 C 8.95 g/m*3 10.2 C 0 km/h
536 28-03-2005 00:01:01 10.3 C 9.1 g/m*3 10.3 C 0 km/h
537 28-03-2005 00:13:01 10.4 C 9.16 g/m*3 10.4 C 0 km/h
538 28-03-2005 00:25:02 10.5 C 9.21 g/m*3 10.5 C 0 km/h
539 28-03-2005 00:37:02 10.6 C 9.27 g/m*3 10.6 C 0 km/h
540 28-03-2005 00:49:02 10.7 C 9.33 g/m*3 10.7 C 0 km/h
541 28-03-2005 01:01:02 10.8 C 9.39 g/m*3 10.8 C 0 km/h
542 28-03-2005 01:13:02 10.9 C 9.45 g/m*3 10.9 C 0 km/h
543 28-03-2005 01:25:02 11 C 9.51 g/m*3 11 C 0 km/h
544 28-03-2005 01:37:01 10.9 C 9.45 g/m*3 10.9 C 0 km/h
545 28-03-2005 01:49:01 10.9 C 9.45 g/m*3 10.9 C 0 km/h
546 28-03-2005 02:01:01 10.9 C 9.45 g/m*3 10.9 C 0 km/h
547 28-03-2005 02:13:01 11 C 9.51 g/m*3 11 C 0 km/h
548 28-03-2005 02:25:01 10.9 C 9.45 g/m*3 10.9 C 0 km/h
549 28-03-2005 02:37:01 10.8 C 9.39 g/m*3 10.8 C 0 km/h
550 28-03-2005 02:50:07 10.8 C 9.39 g/m*3 10.8 C 0 km/h
Sensor: Nr:Datum:Temp:Abs-Feuchte:Windchill:Wind:
Aussen-T/F 551 28-03-2005 03:02:07 10.7 C 9.33 g/m*3 10.7 C 0 km/h
552 28-03-2005 03:14:07 10.6 C 9.27 g/m*3 10.6 C 0 km/h
553 28-03-2005 03:26:07 10.5 C 9.21 g/m*3 10.5 C 0 km/h
554 28-03-2005 03:38:02 10.4 C 9.16 g/m*3 10.4 C 0 km/h
555 28-03-2005 03:50:02 10.1 C 8.98 g/m*3 10.1 C 0 km/h
556 28-03-2005 04:02:02 9.9 C 8.87 g/m*3 9.9 C 0 km/h
557 28-03-2005 04:14:02 9.8 C 8.81 g/m*3 9.8 C 0 km/h
558 28-03-2005 04:26:03 9.5 C 8.65 g/m*3 9.5 C 0 km/h
559 28-03-2005 04:38:03 9.2 C 8.48 g/m*3 9.2 C 0 km/h
560 28-03-2005 04:50:02 9.1 C 8.43 g/m*3 9.1 C 0 km/h
561 28-03-2005 05:02:02 8.8 C 8.27 g/m*3 8.8 C 0 km/h
562 28-03-2005 05:14:02 8.9 C 8.32 g/m*3 8.9 C 0 km/h
563 28-03-2005 05:26:02 8.9 C 8.32 g/m*3 8.9 C 0 km/h
564 28-03-2005 05:38:02 9 C 8.38 g/m*3 9 C 0 km/h
565 28-03-2005 05:50:01 9.2 C 8.48 g/m*3 9.2 C 0 km/h
566 28-03-2005 06:02:02 9.3 C 8.54 g/m*3 9.3 C 0 km/h
567 28-03-2005 06:14:02 9.1 C 8.43 g/m*3 9.1 C 0 km/h
568 28-03-2005 06:26:02 9.1 C 8.43 g/m*3 9.1 C 0 km/h
569 28-03-2005 06:38:02 9.1 C 8.43 g/m*3 9.1 C 0 km/h
570 28-03-2005 06:50:02 9.1 C 8.43 g/m*3 9.1 C 0 km/h
571 28-03-2005 07:02:02 9.2 C 8.48 g/m*3 9.2 C 0 km/h
572 28-03-2005 07:14:02 9.3 C 8.54 g/m*3 9.3 C 0 km/h
573 28-03-2005 07:26:02 9.2 C 8.48 g/m*3 9.2 C 0 km/h
574 28-03-2005 07:38:02 9.2 C 8.48 g/m*3 9.2 C 0 km/h
575 28-03-2005 07:50:02 9.2 C 8.48 g/m*3 9.2 C 0 km/h
Sensor: Nr:Datum:Temp:Abs-Feuchte:Windchill:Wind:
Aussen-T/F 576 28-03-2005 08:02:01 9.3 C 8.54 g/m*3 9.3 C 0 km/h
577 28-03-2005 08:14:01 9.4 C 8.59 g/m*3 9.4 C 0 km/h
578 28-03-2005 08:26:01 9.5 C 8.65 g/m*3 9.5 C 0 km/h
579 28-03-2005 08:38:01 9.5 C 8.65 g/m*3 9.5 C 0 km/h
580 28-03-2005 08:50:01 9.7 C 8.76 g/m*3 9.7 C 0 km/h
581 28-03-2005 09:02:02 9.9 C 8.87 g/m*3 9.9 C 0 km/h
582 28-03-2005 09:14:02 9.8 C 8.72 g/m*3 9.8 C 0 km/h
583 28-03-2005 09:26:02 10 C 8.64 g/m*3 10 C 0 km/h
584 28-03-2005 09:38:01 10.3 C 8.81 g/m*3 10.3 C 0 km/h
585 28-03-2005 09:50:01 10.5 C 8.83 g/m*3 10.5 C 0 km/h
586 28-03-2005 10:02:02 10.8 C 8.99 g/m*3 10.8 C 0 km/h
587 28-03-2005 10:14:02 11 C 8.91 g/m*3 11 C 0 km/h
588 28-03-2005 10:26:01 11.4 C 9.03 g/m*3 11.4 C 0 km/h
589 28-03-2005 10:38:03 11.7 C 9.1 g/m*3 11.7 C 0 km/h
590 28-03-2005 10:50:02 12.1 C 9.01 g/m*3 12.1 C 0 km/h
591 28-03-2005 11:02:02 12.3 C 8.9 g/m*3 12.3 C 0 km/h
592 28-03-2005 11:14:02 12.6 C 8.85 g/m*3 12.6 C 0 km/h
593 28-03-2005 11:26:03 12.7 C 8.57 g/m*3 12.7 C 0 km/h
594 28-03-2005 11:38:02 13.5 C 8.66 g/m*3 13.5 C 0 km/h
595 28-03-2005 11:50:01 13.7 C 8.53 g/m*3 13.7 C 0 km/h
596 28-03-2005 12:02:02 13.8 C 8.34 g/m*3 13.8 C 0 km/h
597 28-03-2005 12:14:02 14.1 C 8.37 g/m*3 14.1 C 0 km/h
598 28-03-2005 12:26:02 14.2 C 8.3 g/m*3 14.2 C 0 km/h
599 28-03-2005 12:38:02 14.4 C 8.41 g/m*3 14.4 C 0 km/h
600 28-03-2005 12:50:02 14.3 C 8.11 g/m*3 14.3 C 0 km/h
Sensor: Nr:Datum:Temp:Abs-Feuchte:Windchill:Wind:
Aussen-T/F 601 28-03-2005 13:02:02 14.8 C 8.11 g/m*3 14.8 C 0 km/h
602 28-03-2005 13:14:02 15.2 C 8.05 g/m*3 15.2 C 0 km/h
603 28-03-2005 13:26:02 15.3 C 7.97 g/m*3 15.3 C 0 km/h
604 28-03-2005 13:38:02 15.3 C 7.97 g/m*3 15.3 C 0 km/h
605 28-03-2005 13:50:01 15.5 C 8.06 g/m*3 15.5 C 0 km/h
606 28-03-2005 14:02:02 16 C 7.9 g/m*3 16 C 0 km/h
607 28-03-2005 14:14:02 15.6 C 7.58 g/m*3 15.6 C 0 km/h
608 28-03-2005 14:26:02 15.8 C 7.81 g/m*3 15.8 C 0 km/h
609 28-03-2005 14:38:02 16 C 7.9 g/m*3 16 C 0 km/h
610 28-03-2005 14:50:02 16.1 C 7.81 g/m*3 16.1 C 0 km/h
611 28-03-2005 15:02:02 17 C 7.38 g/m*3 17 C 0 km/h
612 28-03-2005 15:14:02 17.3 C 7.22 g/m*3 17.3 C 0 km/h
613 28-03-2005 15:26:02 17.4 C 7.26 g/m*3 17.4 C 0 km/h
614 28-03-2005 15:38:02 17.5 C 7.16 g/m*3 17.5 C 0 km/h
615 28-03-2005 15:50:02 18.1 C 7.26 g/m*3 18.1 C 0 km/h
616 28-03-2005 16:02:03 18.2 C 7.15 g/m*3 18.2 C 0 km/h
617 28-03-2005 16:14:03 18.1 C 7.11 g/m*3 18.1 C 0 km/h
618 28-03-2005 16:26:02 18.4 C 7.08 g/m*3 18.4 C 0 km/h
619 28-03-2005 16:38:02 17.8 C 7.13 g/m*3 17.8 C 0 km/h
620 28-03-2005 16:50:01 17.2 C 7.18 g/m*3 17.2 C 0 km/h
621 28-03-2005 17:02:02 16.8 C 7.58 g/m*3 16.8 C 0 km/h
622 28-03-2005 17:14:02 16.5 C 7.44 g/m*3 16.5 C 0 km/h
623 28-03-2005 17:26:02 16.3 C 7.63 g/m*3 16.3 C 0 km/h
624 28-03-2005 17:38:01 16.1 C 7.54 g/m*3 16.1 C 0 km/h
625 28-03-2005 17:50:01 16 C 7.77 g/m*3 16 C 0 km/h
Sensor: Nr:Datum:Temp:Abs-Feuchte:Windchill:Wind:
Aussen-T/F 626 28-03-2005 18:02:02 15.9 C 7.85 g/m*3 15.9 C 0 km/h
627 28-03-2005 18:14:02 16 C 7.22 g/m*3 16 C 0 km/h
628 28-03-2005 18:26:02 15.6 C 7.45 g/m*3 15.6 C 0 km/h
629 28-03-2005 18:38:02 15.4 C 7.49 g/m*3 15.4 C 0 km/h
630 28-03-2005 18:50:02 15.5 C 7.8 g/m*3 15.5 C 0 km/h
631 28-03-2005 19:02:02 15.2 C 7.66 g/m*3 15.2 C 0 km/h
632 28-03-2005 19:14:02 14.8 C 7.6 g/m*3 14.8 C 0 km/h
633 28-03-2005 19:26:02 14.4 C 7.42 g/m*3 14.4 C 0 km/h
634 28-03-2005 19:38:01 14.3 C 7.49 g/m*3 14.3 C 0 km/h
635 28-03-2005 19:50:02 14.2 C 7.57 g/m*3 14.2 C 0 km/h
636 28-03-2005 20:02:02 14.1 C 7.52 g/m*3 14.1 C 0 km/h
637 28-03-2005 20:14:02 13.1 C 8.79 g/m*3 13.1 C 0 km/h
638 28-03-2005 20:26:02 12.1 C 9.01 g/m*3 12.1 C 0 km/h
639 28-03-2005 20:38:04 11.8 C 9.16 g/m*3 11.8 C 0 km/h
640 28-03-2005 20:50:03 11.7 C 9.2 g/m*3 11.7 C 0 km/h
641 28-03-2005 21:02:03 11.2 C 8.92 g/m*3 11.2 C 0 km/h
642 28-03-2005 21:14:03 11.2 C 8.92 g/m*3 11.2 C 0 km/h
643 28-03-2005 21:26:03 11.3 C 8.98 g/m*3 11.3 C 0 km/h
644 28-03-2005 21:38:02 11.3 C 8.87 g/m*3 11.3 C 0 km/h
645 28-03-2005 21:50:02 11.3 C 8.77 g/m*3 11.3 C 0 km/h
646 28-03-2005 22:02:03 11.3 C 8.57 g/m*3 11.3 C 0 km/h
647 28-03-2005 22:14:03 11.4 C 8.62 g/m*3 11.4 C 0 km/h
648 28-03-2005 22:26:02 11.4 C 8.52 g/m*3 11.4 C 0 km/h
649 28-03-2005 22:38:03 11.4 C 8.52 g/m*3 11.4 C 0 km/h
650 28-03-2005 22:50:02 11.5 C 8.57 g/m*3 11.5 C 0 km/h
Sensor: Nr:Datum:Temp:Abs-Feuchte:Windchill:Wind:
Aussen-T/F 651 28-03-2005 23:02:03 11.4 C 8.52 g/m*3 11.4 C 0 km/h
652 28-03-2005 23:14:03 11.4 C 8.42 g/m*3 11.4 C 0 km/h
653 28-03-2005 23:26:02 11.3 C 8.36 g/m*3 11.3 C 0 km/h
654 28-03-2005 23:38:02 11.3 C 8.36 g/m*3 11.3 C 0 km/h
655 28-03-2005 23:50:01 11.2 C 8.31 g/m*3 11.2 C 0 km/h
656 29-03-2005 00:02:01 11.2 C 8.31 g/m*3 11.2 C 0 km/h
657 29-03-2005 00:14:01 11.1 C 8.26 g/m*3 11.1 C 0 km/h
658 29-03-2005 00:26:02 11 C 8.11 g/m*3 11 C 0 km/h
659 29-03-2005 00:38:02 10.8 C 8.11 g/m*3 10.8 C 0 km/h
660 29-03-2005 00:50:02 10.7 C 8.15 g/m*3 10.7 C 0 km/h
661 29-03-2005 01:02:01 10.4 C 8 g/m*3 10.4 C 0 km/h
662 29-03-2005 01:14:01 10.1 C 7.85 g/m*3 10.1 C 0 km/h
663 29-03-2005 01:26:02 9.8 C 7.89 g/m*3 9.8 C 0 km/h
664 29-03-2005 01:38:02 9.7 C 7.93 g/m*3 9.7 C 0 km/h
665 29-03-2005 01:50:02 9.6 C 7.97 g/m*3 9.6 C 0 km/h
666 29-03-2005 02:02:01 9.9 C 8.22 g/m*3 9.9 C 0 km/h
667 29-03-2005 02:14:01 9.6 C 7.97 g/m*3 9.6 C 0 km/h
668 29-03-2005 02:26:02 9.6 C 8.06 g/m*3 9.6 C 0 km/h
669 29-03-2005 02:38:01 9.8 C 8.26 g/m*3 9.8 C 0 km/h
670 29-03-2005 02:50:01 10 C 8.08 g/m*3 10 C 0 km/h
671 29-03-2005 03:02:01 10 C 7.99 g/m*3 10 C 0 km/h
672 29-03-2005 03:14:01 9.7 C 7.84 g/m*3 9.7 C 0 km/h
673 29-03-2005 03:26:02 9.2 C 7.68 g/m*3 9.2 C 0 km/h
674 29-03-2005 03:38:02 9 C 7.58 g/m*3 9 C 0 km/h
675 29-03-2005 03:50:02 8.8 C 7.66 g/m*3 8.8 C 0 km/h
Sensor: Nr:Datum:Temp:Abs-Feuchte:Windchill:Wind:
Aussen-T/F 676 29-03-2005 04:02:01 8.7 C 7.7 g/m*3 8.7 C 0 km/h
677 29-03-2005 04:14:01 8.8 C 7.83 g/m*3 8.8 C 0 km/h
678 29-03-2005 04:26:01 8.9 C 7.97 g/m*3 8.9 C 0 km/h
679 29-03-2005 04:38:02 9 C 7.93 g/m*3 9 C 0 km/h
680 29-03-2005 04:50:02 9 C 7.93 g/m*3 9 C 0 km/h
681 29-03-2005 05:02:01 9.1 C 7.99 g/m*3 9.1 C 0 km/h
682 29-03-2005 05:14:01 9.1 C 7.9 g/m*3 9.1 C 0 km/h
683 29-03-2005 05:26:01 9.1 C 7.9 g/m*3 9.1 C 0 km/h
684 29-03-2005 05:38:01 9.1 C 7.9 g/m*3 9.1 C 0 km/h
685 29-03-2005 05:50:02 9 C 7.85 g/m*3 9 C 0 km/h
686 29-03-2005 06:02:02 9.1 C 7.9 g/m*3 9.1 C 0 km/h
687 29-03-2005 06:14:02 9 C 7.85 g/m*3 9 C 0 km/h
688 29-03-2005 06:26:01 9 C 7.85 g/m*3 9 C 0 km/h
689 29-03-2005 06:38:01 9 C 7.85 g/m*3 9 C 0 km/h
690 29-03-2005 06:50:02 9.1 C 7.81 g/m*3 9.1 C 0 km/h
691 29-03-2005 07:02:01 9 C 7.85 g/m*3 9 C 0 km/h
692 29-03-2005 07:14:01 9.1 C 7.9 g/m*3 9.1 C 0 km/h
693 29-03-2005 07:26:01 9.1 C 7.9 g/m*3 9.1 C 0 km/h
694 29-03-2005 07:38:02 9.1 C 7.9 g/m*3 9.1 C 0 km/h
695 29-03-2005 07:50:02 9.1 C 7.9 g/m*3 9.1 C 0 km/h
696 29-03-2005 08:02:01 9.2 C 7.95 g/m*3 9.2 C 0 km/h
697 29-03-2005 08:14:01 9.4 C 8.05 g/m*3 9.4 C 0 km/h
698 29-03-2005 08:26:01 9.6 C 8.06 g/m*3 9.6 C 0 km/h
699 29-03-2005 08:38:02 9.7 C 8.11 g/m*3 9.7 C 0 km/h
700 29-03-2005 08:50:02 10 C 8.08 g/m*3 10 C 0 km/h
Sensor: Nr:Datum:Temp:Abs-Feuchte:Windchill:Wind:
Aussen-T/F 701 29-03-2005 09:02:02 10.1 C 7.94 g/m*3 10.1 C 0 km/h
702 29-03-2005 09:14:02 10.2 C 7.9 g/m*3 10.2 C 0 km/h
703 29-03-2005 09:26:02 10.3 C 7.85 g/m*3 10.3 C 0 km/h
704 29-03-2005 09:38:01 10.8 C 8.11 g/m*3 10.8 C 0 km/h
705 29-03-2005 09:50:01 11.2 C 8.01 g/m*3 11.2 C 0 km/h
706 29-03-2005 10:02:01 11.3 C 8.06 g/m*3 11.3 C 0 km/h
707 29-03-2005 10:14:01 11.7 C 8.16 g/m*3 11.7 C 0 km/h
708 29-03-2005 10:26:01 12.2 C 8.2 g/m*3 12.2 C 0 km/h
709 29-03-2005 10:38:02 12.3 C 8.14 g/m*3 12.3 C 0 km/h
710 29-03-2005 10:50:02 12.5 C 8.14 g/m*3 12.5 C 0 km/h
711 29-03-2005 11:02:01 13.1 C 8.33 g/m*3 13.1 C 0 km/h
712 29-03-2005 11:14:01 13.3 C 8.2 g/m*3 13.3 C 0 km/h
713 29-03-2005 11:26:01 13.4 C 8.25 g/m*3 13.4 C 0 km/h
714 29-03-2005 11:38:01 13.7 C 8.29 g/m*3 13.7 C 0 km/h
715 29-03-2005 11:50:01 14.1 C 8.25 g/m*3 14.1 C 0 km/h
716 29-03-2005 12:02:02 14.2 C 8.06 g/m*3 14.2 C 0 km/h
717 29-03-2005 12:14:02 14 C 7.96 g/m*3 14 C 0 km/h
718 29-03-2005 12:26:02 14.1 C 8.01 g/m*3 14.1 C 0 km/h
719 29-03-2005 12:38:01 14.6 C 8.01 g/m*3 14.6 C 0 km/h
720 29-03-2005 12:50:02 15.3 C 7.97 g/m*3 15.3 C 0 km/h
721 29-03-2005 13:02:01 15.5 C 8.2 g/m*3 15.5 C 0 km/h
722 29-03-2005 13:14:01 16 C 8.31 g/m*3 16 C 0 km/h
723 29-03-2005 13:26:01 16.9 C 8.34 g/m*3 16.9 C 0 km/h
724 29-03-2005 13:38:02 17.2 C 8.05 g/m*3 17.2 C 0 km/h
725 29-03-2005 13:50:01 16.5 C 7.86 g/m*3 16.5 C 0 km/h
Sensor: Nr:Datum:Temp:Abs-Feuchte:Windchill:Wind:
Aussen-T/F 726 29-03-2005 14:02:02 16.7 C 8.1 g/m*3 16.7 C 0 km/h
727 29-03-2005 14:14:02 17.6 C 8.1 g/m*3 17.6 C 0 km/h
728 29-03-2005 14:26:02 17.7 C 7.85 g/m*3 17.7 C 0 km/h
729 29-03-2005 14:38:01 17.5 C 7.9 g/m*3 17.5 C 0 km/h
730 29-03-2005 14:50:01 17.6 C 7.8 g/m*3 17.6 C 0 km/h
731 29-03-2005 15:02:01 17.2 C 7.47 g/m*3 17.2 C 0 km/h
732 29-03-2005 15:14:01 17.2 C 8.2 g/m*3 17.2 C 0 km/h
733 29-03-2005 15:26:01 17.7 C 7.54 g/m*3 17.7 C 0 km/h
734 29-03-2005 15:38:02 18.1 C 7.57 g/m*3 18.1 C 0 km/h
735 29-03-2005 15:50:02 18.1 C 7.11 g/m*3 18.1 C 0 km/h
736 29-03-2005 16:02:01 18.4 C 7.08 g/m*3 18.4 C 0 km/h
737 29-03-2005 16:14:01 18.2 C 6.99 g/m*3 18.2 C 0 km/h
738 29-03-2005 16:26:01 18.4 C 7.08 g/m*3 18.4 C 0 km/h
739 29-03-2005 16:38:01 18.6 C 7 g/m*3 18.6 C 0 km/h
740 29-03-2005 16:50:01 18.7 C 7.04 g/m*3 18.7 C 0 km/h
741 29-03-2005 17:02:04 18.6 C 7 g/m*3 18.6 C 0 km/h
742 29-03-2005 17:14:05 18.5 C 6.8 g/m*3 18.5 C 0 km/h
743 29-03-2005 17:26:02 18.5 C 6.96 g/m*3 18.5 C 0 km/h
744 29-03-2005 17:38:01 18.8 C 6.76 g/m*3 18.8 C 0 km/h
745 29-03-2005 17:50:01 19.5 C 6.88 g/m*3 19.5 C 0 km/h
746 29-03-2005 18:02:01 20.4 C 6.72 g/m*3 20.4 C 0 km/h
747 29-03-2005 18:14:01 20 C 6.22 g/m*3 20 C 0 km/h
748 29-03-2005 18:26:02 19.2 C 6.6 g/m*3 19.2 C 0 km/h
749 29-03-2005 18:38:01 18.7 C 6.72 g/m*3 18.7 C 0 km/h
750 29-03-2005 18:50:02 18.2 C 6.37 g/m*3 18.2 C 0 km/h
Sensor: Nr:Datum:Temp:Abs-Feuchte:Windchill:Wind:
Aussen-T/F 751 29-03-2005 19:02:01 17.9 C 7.33 g/m*3 17.9 C 0 km/h
752 29-03-2005 19:14:01 17.2 C 7.61 g/m*3 17.2 C 0 km/h
753 29-03-2005 19:26:01 16.7 C 7.82 g/m*3 16.7 C 0 km/h
754 29-03-2005 19:38:01 16.3 C 7.49 g/m*3 16.3 C 0 km/h
755 29-03-2005 19:50:01 16 C 7.9 g/m*3 16 C 0 km/h
756 29-03-2005 20:02:01 15.5 C 8.06 g/m*3 15.5 C 0 km/h
757 29-03-2005 20:14:01 15.1 C 7.22 g/m*3 15.1 C 0 km/h
758 29-03-2005 20:26:01 14.8 C 7.6 g/m*3 14.8 C 0 km/h
759 29-03-2005 20:38:02 14.1 C 7.77 g/m*3 14.1 C 0 km/h
760 29-03-2005 20:50:02 14.1 C 7.89 g/m*3 14.1 C 0 km/h
761 29-03-2005 21:02:01 14.2 C 8.18 g/m*3 14.2 C 0 km/h
762 29-03-2005 21:14:01 13.2 C 8.84 g/m*3 13.2 C 0 km/h
763 29-03-2005 21:26:01 12.5 C 9.24 g/m*3 12.5 C 0 km/h
764 29-03-2005 21:38:02 12.4 C 9.4 g/m*3 12.4 C 0 km/h
765 29-03-2005 21:50:01 12.2 C 9.39 g/m*3 12.2 C 0 km/h
766 29-03-2005 22:02:02 12 C 9.27 g/m*3 12 C 0 km/h
767 29-03-2005 22:14:02 12 C 9.27 g/m*3 12 C 0 km/h
768 29-03-2005 22:26:02 12.2 C 9.28 g/m*3 12.2 C 0 km/h
769 29-03-2005 22:38:01 12.2 C 9.06 g/m*3 12.2 C 0 km/h
770 29-03-2005 22:50:01 12.4 C 8.96 g/m*3 12.4 C 0 km/h
771 29-03-2005 23:02:01 12.4 C 8.96 g/m*3 12.4 C 0 km/h
772 29-03-2005 23:14:01 12.5 C 9.02 g/m*3 12.5 C 0 km/h
773 29-03-2005 23:26:01 12.4 C 8.85 g/m*3 12.4 C 0 km/h
774 29-03-2005 23:38:01 12.4 C 8.63 g/m*3 12.4 C 0 km/h
775 29-03-2005 23:50:01 12.4 C 8.74 g/m*3 12.4 C 0 km/h
Sensor: Nr:Datum:Temp:Abs-Feuchte:Windchill:Wind:
Aussen-T/F 776 30-03-2005 00:02:02 12.4 C 8.74 g/m*3 12.4 C 0 km/h
777 30-03-2005 00:14:02 12.2 C 8.74 g/m*3 12.2 C 0 km/h
778 30-03-2005 00:26:02 12.1 C 8.58 g/m*3 12.1 C 0 km/h
779 30-03-2005 00:38:02 11.9 C 8.58 g/m*3 11.9 C 0 km/h
780 30-03-2005 00:50:02 11.8 C 8.53 g/m*3 11.8 C 0 km/h
781 30-03-2005 01:02:02 11.7 C 8.47 g/m*3 11.7 C 0 km/h
782 30-03-2005 01:14:02 11.6 C 8.32 g/m*3 11.6 C 0 km/h
783 30-03-2005 01:26:02 11.5 C 8.26 g/m*3 11.5 C 0 km/h
784 30-03-2005 01:38:01 11.3 C 8.06 g/m*3 11.3 C 0 km/h
785 30-03-2005 01:50:02 11.2 C 8.11 g/m*3 11.2 C 0 km/h
786 30-03-2005 02:02:01 11.1 C 8.16 g/m*3 11.1 C 0 km/h
787 30-03-2005 02:14:01 11.1 C 8.16 g/m*3 11.1 C 0 km/h
788 30-03-2005 02:26:02 11.2 C 8.11 g/m*3 11.2 C 0 km/h
789 30-03-2005 02:38:02 11.1 C 8.06 g/m*3 11.1 C 0 km/h
790 30-03-2005 02:51:04 11.2 C 8.11 g/m*3 11.2 C 0 km/h
791 30-03-2005 03:03:04 11.2 C 8.11 g/m*3 11.2 C 0 km/h
792 30-03-2005 03:15:04 11.2 C 8.11 g/m*3 11.2 C 0 km/h
793 30-03-2005 03:27:04 11.1 C 8.06 g/m*3 11.1 C 0 km/h
794 30-03-2005 03:39:03 11.1 C 8.06 g/m*3 11.1 C 0 km/h
795 30-03-2005 03:51:03 11 C 8.01 g/m*3 11 C 0 km/h
796 30-03-2005 04:03:03 11 C 8.01 g/m*3 11 C 0 km/h
797 30-03-2005 04:15:02 11 C 8.01 g/m*3 11 C 0 km/h
798 30-03-2005 04:27:02 10.9 C 7.96 g/m*3 10.9 C 0 km/h
799 30-03-2005 04:39:02 10.8 C 7.91 g/m*3 10.8 C 0 km/h
800 30-03-2005 04:51:03 10.8 C 8.01 g/m*3 10.8 C 0 km/h
Sensor: Nr:Datum:Temp:Abs-Feuchte:Windchill:Wind:
Aussen-T/F 801 30-03-2005 05:03:03 10.7 C 7.96 g/m*3 10.7 C 0 km/h
802 30-03-2005 05:15:02 10.6 C 7.91 g/m*3 10.6 C 0 km/h
803 30-03-2005 05:27:02 10.5 C 7.86 g/m*3 10.5 C 0 km/h
804 30-03-2005 05:39:02 10.3 C 7.95 g/m*3 10.3 C 0 km/h
805 30-03-2005 05:51:01 10.1 C 7.94 g/m*3 10.1 C 0 km/h
806 30-03-2005 06:03:02 10.1 C 8.04 g/m*3 10.1 C 0 km/h
807 30-03-2005 06:15:02 10.2 C 8.09 g/m*3 10.2 C 0 km/h
808 30-03-2005 06:27:02 10.3 C 8.04 g/m*3 10.3 C 0 km/h
809 30-03-2005 06:39:02 10.2 C 7.99 g/m*3 10.2 C 0 km/h
810 30-03-2005 06:51:44 10.1 C 7.94 g/m*3 10.1 C 0 km/h
811 30-03-2005 07:03:02 10 C 7.99 g/m*3 10 C 0 km/h
812 30-03-2005 07:15:02 9.8 C 8.07 g/m*3 9.8 C 0 km/h
813 30-03-2005 07:27:02 9.8 C 8.16 g/m*3 9.8 C 0 km/h
814 30-03-2005 07:39:01 9.9 C 8.31 g/m*3 9.9 C 0 km/h
815 30-03-2005 07:51:02 9.8 C 8.26 g/m*3 9.8 C 0 km/h
816 30-03-2005 08:03:02 9.9 C 8.31 g/m*3 9.9 C 0 km/h
817 30-03-2005 08:15:01 10 C 8.27 g/m*3 10 C 0 km/h
818 30-03-2005 08:27:01 10 C 8.27 g/m*3 10 C 0 km/h
819 30-03-2005 08:39:02 10.2 C 8.37 g/m*3 10.2 C 0 km/h
820 30-03-2005 08:51:01 10.6 C 8.49 g/m*3 10.6 C 0 km/h
821 30-03-2005 09:03:02 11 C 8.41 g/m*3 11 C 0 km/h
822 30-03-2005 09:15:02 11.1 C 8.16 g/m*3 11.1 C 0 km/h
823 30-03-2005 09:27:02 11.3 C 8.16 g/m*3 11.3 C 0 km/h
824 30-03-2005 09:39:02 11.4 C 8.11 g/m*3 11.4 C 0 km/h
825 30-03-2005 09:51:02 11.4 C 8.01 g/m*3 11.4 C 0 km/h
Sensor: Nr:Datum:Temp:Abs-Feuchte:Windchill:Wind:
Aussen-T/F 826 30-03-2005 10:03:02 11.5 C 7.95 g/m*3 11.5 C 0 km/h
827 30-03-2005 10:15:02 11.6 C 8 g/m*3 11.6 C 0 km/h
828 30-03-2005 10:27:02 11.8 C 8 g/m*3 11.8 C 0 km/h
829 30-03-2005 10:39:02 11.8 C 8 g/m*3 11.8 C 0 km/h
830 30-03-2005 10:51:02 11.9 C 8.15 g/m*3 11.9 C 0 km/h
831 30-03-2005 11:03:02 11.9 C 8.05 g/m*3 11.9 C 0 km/h
832 30-03-2005 11:15:02 11.8 C 8 g/m*3 11.8 C 0 km/h
833 30-03-2005 11:27:02 11.8 C 8.31 g/m*3 11.8 C 0 km/h
834 30-03-2005 11:39:02 11.9 C 8.26 g/m*3 11.9 C 0 km/h
835 30-03-2005 11:51:01 12.1 C 7.94 g/m*3 12.1 C 0 km/h
836 30-03-2005 12:03:01 12.2 C 7.99 g/m*3 12.2 C 0 km/h
837 30-03-2005 12:15:01 12.2 C 8.09 g/m*3 12.2 C 0 km/h
838 30-03-2005 12:27:01 12.4 C 8.19 g/m*3 12.4 C 0 km/h
839 30-03-2005 12:39:01 12.2 C 8.09 g/m*3 12.2 C 0 km/h
840 30-03-2005 12:51:02 11.7 C 8.47 g/m*3 11.7 C 0 km/h
841 30-03-2005 13:03:03 11.8 C 8.74 g/m*3 11.8 C 0 km/h
842 30-03-2005 13:15:03 11.8 C 8.84 g/m*3 11.8 C 0 km/h
843 30-03-2005 13:27:03 11.7 C 8.68 g/m*3 11.7 C 0 km/h
844 30-03-2005 13:39:03 11.7 C 8.79 g/m*3 11.7 C 0 km/h
845 30-03-2005 13:51:02 11.8 C 8.95 g/m*3 11.8 C 0 km/h
846 30-03-2005 14:03:03 12.1 C 9.12 g/m*3 12.1 C 0 km/h
847 30-03-2005 14:15:02 12.4 C 9.4 g/m*3 12.4 C 0 km/h
848 30-03-2005 14:27:02 12.5 C 9.46 g/m*3 12.5 C 0 km/h
849 30-03-2005 14:39:02 12.7 C 9.57 g/m*3 12.7 C 0 km/h
850 30-03-2005 14:51:01 12.5 C 9.35 g/m*3 12.5 C 0 km/h
Sensor: Nr:Datum:Temp:Abs-Feuchte:Windchill:Wind:
Aussen-T/F 851 30-03-2005 15:03:02 12.8 C 9.74 g/m*3 12.8 C 0 km/h
852 30-03-2005 15:15:02 12.7 C 9.57 g/m*3 12.7 C 0 km/h
853 30-03-2005 15:27:02 13.1 C 9.7 g/m*3 13.1 C 0 km/h
854 30-03-2005 15:39:02 13.2 C 9.64 g/m*3 13.2 C 0 km/h
855 30-03-2005 15:51:02 13 C 9.64 g/m*3 13 C 0 km/h
856 30-03-2005 16:03:03 12.7 C 9.68 g/m*3 12.7 C 0 km/h
857 30-03-2005 16:15:23 12.3 C 9.56 g/m*3 12.3 C 0 km/h
858 30-03-2005 16:27:03 12.2 C 9.6 g/m*3 12.2 C 0 km/h
859 30-03-2005 16:39:02 12.2 C 9.71 g/m*3 12.2 C 0 km/h
860 30-03-2005 16:51:29 12.3 C 9.77 g/m*3 12.3 C 0 km/h
861 30-03-2005 17:03:17 12.4 C 9.94 g/m*3 12.4 C 0 km/h
862 30-03-2005 17:15:02 12.4 C 9.94 g/m*3 12.4 C 0 km/h
863 30-03-2005 17:27:02 12.4 C 9.94 g/m*3 12.4 C 0 km/h
864 30-03-2005 17:39:01 12.4 C 10.05 g/m*3 12.4 C 0 km/h
865 30-03-2005 17:51:02 12.5 C 10.11 g/m*3 12.5 C 0 km/h
866 30-03-2005 18:03:03 12.5 C 10.11 g/m*3 12.5 C 0 km/h
867 30-03-2005 18:15:02 12.5 C 10.11 g/m*3 12.5 C 0 km/h
868 30-03-2005 18:27:02 12.5 C 10.11 g/m*3 12.5 C 0 km/h
869 30-03-2005 18:39:02 12.4 C 10.05 g/m*3 12.4 C 0 km/h
870 30-03-2005 18:51:01 12.5 C 10.22 g/m*3 12.5 C 0 km/h
871 30-03-2005 19:03:02 12.2 C 10.04 g/m*3 12.2 C 0 km/h
872 30-03-2005 19:15:02 12.1 C 9.97 g/m*3 12.1 C 0 km/h
873 30-03-2005 19:27:02 12.1 C 9.97 g/m*3 12.1 C 0 km/h
874 30-03-2005 19:39:01 12 C 9.91 g/m*3 12 C 0 km/h
875 30-03-2005 19:51:01 11.8 C 9.79 g/m*3 11.8 C 0 km/h
Sensor: Nr:Datum:Temp:Abs-Feuchte:Windchill:Wind:
Aussen-T/F 876 30-03-2005 20:03:02 11.6 C 9.67 g/m*3 11.6 C 0 km/h
877 30-03-2005 20:15:02 11.5 C 9.71 g/m*3 11.5 C 0 km/h
878 30-03-2005 20:27:02 11.4 C 9.65 g/m*3 11.4 C 0 km/h
879 30-03-2005 20:39:02 11.3 C 9.59 g/m*3 11.3 C 0 km/h
880 30-03-2005 20:51:02 11.3 C 9.59 g/m*3 11.3 C 0 km/h
881 30-03-2005 21:03:03 11.2 C 9.53 g/m*3 11.2 C 0 km/h
882 30-03-2005 21:15:02 11.2 C 9.53 g/m*3 11.2 C 0 km/h
883 30-03-2005 21:27:02 11.1 C 9.47 g/m*3 11.1 C 0 km/h
884 30-03-2005 21:39:02 11 C 9.41 g/m*3 11 C 0 km/h
885 30-03-2005 21:51:02 11 C 9.41 g/m*3 11 C 0 km/h
886 30-03-2005 22:03:03 11.1 C 9.47 g/m*3 11.1 C 0 km/h
887 30-03-2005 22:15:03 11.1 C 9.47 g/m*3 11.1 C 0 km/h
888 30-03-2005 22:27:03 11.1 C 9.57 g/m*3 11.1 C 0 km/h
889 30-03-2005 22:39:02 11.1 C 9.57 g/m*3 11.1 C 0 km/h
890 30-03-2005 22:51:01 10.9 C 9.45 g/m*3 10.9 C 0 km/h
891 30-03-2005 23:03:02 10.9 C 9.45 g/m*3 10.9 C 0 km/h
892 30-03-2005 23:15:02 10.9 C 9.45 g/m*3 10.9 C 0 km/h
893 30-03-2005 23:27:02 10.8 C 9.39 g/m*3 10.8 C 0 km/h
894 30-03-2005 23:39:01 10.5 C 9.21 g/m*3 10.5 C 0 km/h
895 30-03-2005 23:51:01 10.3 C 9.1 g/m*3 10.3 C 0 km/h
896 31-03-2005 00:03:02 10.1 C 8.98 g/m*3 10.1 C 0 km/h
897 31-03-2005 00:15:02 10.1 C 8.98 g/m*3 10.1 C 0 km/h
898 31-03-2005 00:27:02 10.1 C 8.98 g/m*3 10.1 C 0 km/h
899 31-03-2005 00:39:02 10.1 C 8.98 g/m*3 10.1 C 0 km/h
900 31-03-2005 00:51:02 10.2 C 9.04 g/m*3 10.2 C 0 km/h
Sensor: Nr:Datum:Temp:Abs-Feuchte:Windchill:Wind:
Aussen-T/F 901 31-03-2005 01:03:02 10.3 C 9.1 g/m*3 10.3 C 0 km/h
902 31-03-2005 01:15:02 10.3 C 9.1 g/m*3 10.3 C 0 km/h
903 31-03-2005 01:27:02 10.1 C 8.98 g/m*3 10.1 C 0 km/h
904 31-03-2005 01:39:02 10 C 8.93 g/m*3 10 C 0 km/h
905 31-03-2005 01:51:03 10 C 8.93 g/m*3 10 C 0 km/h
906 31-03-2005 02:03:02 10 C 8.93 g/m*3 10 C 0 km/h
907 31-03-2005 02:15:03 10 C 8.93 g/m*3 10 C 0 km/h
908 31-03-2005 02:27:03 10 C 8.93 g/m*3 10 C 0 km/h
909 31-03-2005 02:39:03 10 C 8.93 g/m*3 10 C 0 km/h
910 31-03-2005 02:52:04 9.8 C 8.81 g/m*3 9.8 C 0 km/h
911 31-03-2005 03:04:04 9.7 C 8.76 g/m*3 9.7 C 0 km/h
912 31-03-2005 03:16:04 9.6 C 8.7 g/m*3 9.6 C 0 km/h
913 31-03-2005 03:28:05 9.5 C 8.65 g/m*3 9.5 C 0 km/h
914 31-03-2005 03:40:02 9.1 C 8.43 g/m*3 9.1 C 0 km/h
915 31-03-2005 03:52:02 8.9 C 8.32 g/m*3 8.9 C 0 km/h
916 31-03-2005 04:04:03 8.5 C 8.11 g/m*3 8.5 C 0 km/h
917 31-03-2005 04:16:02 8.3 C 8.01 g/m*3 8.3 C 0 km/h
918 31-03-2005 04:28:02 8.3 C 8.01 g/m*3 8.3 C 0 km/h
919 31-03-2005 04:40:02 8.2 C 7.96 g/m*3 8.2 C 0 km/h
920 31-03-2005 04:52:03 8.2 C 7.96 g/m*3 8.2 C 0 km/h
921 31-03-2005 05:04:03 8.1 C 7.9 g/m*3 8.1 C 0 km/h
922 31-03-2005 05:16:03 7.9 C 7.8 g/m*3 7.9 C 0 km/h
923 31-03-2005 05:28:03 7.9 C 7.8 g/m*3 7.9 C 0 km/h
924 31-03-2005 05:40:03 7.9 C 7.8 g/m*3 7.9 C 0 km/h
925 31-03-2005 05:52:01 7.9 C 7.8 g/m*3 7.9 C 0 km/h
Sensor: Nr:Datum:Temp:Abs-Feuchte:Windchill:Wind:
Aussen-T/F 926 31-03-2005 06:04:02 8 C 7.85 g/m*3 8 C 0 km/h
927 31-03-2005 06:16:02 8 C 7.77 g/m*3 8 C 0 km/h
928 31-03-2005 06:28:02 8 C 7.69 g/m*3 8 C 0 km/h
929 31-03-2005 06:40:01 8.1 C 7.66 g/m*3 8.1 C 0 km/h
930 31-03-2005 06:52:01 8 C 7.44 g/m*3 8 C 0 km/h
931 31-03-2005 07:04:02 8.1 C 7.32 g/m*3 8.1 C 0 km/h
932 31-03-2005 07:16:02 8 C 7.19 g/m*3 8 C 0 km/h
933 31-03-2005 07:28:02 8 C 7.03 g/m*3 8 C 0 km/h
934 31-03-2005 07:40:02 8 C 7.03 g/m*3 8 C 0 km/h
935 31-03-2005 07:52:02 7.9 C 7.06 g/m*3 7.9 C 0 km/h
936 31-03-2005 08:04:02 8.1 C 6.99 g/m*3 8.1 C 0 km/h
937 31-03-2005 08:16:02 8.2 C 6.36 g/m*3 8.2 C 0 km/h
938 31-03-2005 08:28:02 8.2 C 6.28 g/m*3 8.2 C 0 km/h
939 31-03-2005 08:40:02 8.3 C 6.15 g/m*3 8.3 C 0 km/h
940 31-03-2005 08:52:01 8.4 C 6.11 g/m*3 8.4 C 0 km/h
941 31-03-2005 09:04:02 8.8 C 6.27 g/m*3 8.8 C 0 km/h
942 31-03-2005 09:16:02 8.9 C 6.31 g/m*3 8.9 C 0 km/h
943 31-03-2005 09:28:02 9 C 6.08 g/m*3 9 C 0 km/h
944 31-03-2005 09:40:02 9.1 C 6.12 g/m*3 9.1 C 0 km/h
945 31-03-2005 09:52:02 9.1 C 5.77 g/m*3 9.1 C 0 km/h
946 31-03-2005 10:04:01 9.7 C 5.72 g/m*3 9.7 C 0 km/h
947 31-03-2005 10:16:02 10.2 C 5.71 g/m*3 10.2 C 0 km/h
948 31-03-2005 10:28:02 10.7 C 5.8 g/m*3 10.7 C 0 km/h
949 31-03-2005 10:40:02 11.2 C 5.78 g/m*3 11.2 C 0 km/h
950 31-03-2005 10:52:01 11.2 C 5.78 g/m*3 11.2 C 0 km/h
Sensor: Nr:Datum:Temp:Abs-Feuchte:Windchill:Wind:
Aussen-T/F 951 31-03-2005 11:04:02 11 C 5.61 g/m*3 11 C 0 km/h
952 31-03-2005 11:16:01 11.3 C 5.51 g/m*3 11.3 C 0 km/h
953 31-03-2005 11:28:01 11.8 C 5.89 g/m*3 11.8 C 0 km/h
954 31-03-2005 11:40:01 11.7 C 5.54 g/m*3 11.7 C 0 km/h
955 31-03-2005 11:52:01 11.6 C 5.72 g/m*3 11.6 C 0 km/h
956 31-03-2005 12:04:02 11.7 C 5.65 g/m*3 11.7 C 0 km/h
957 31-03-2005 12:16:02 11.7 C 5.75 g/m*3 11.7 C 0 km/h
958 31-03-2005 12:28:02 12.1 C 5.68 g/m*3 12.1 C 0 km/h
959 31-03-2005 12:40:02 12.4 C 5.68 g/m*3 12.4 C 0 km/h
960 31-03-2005 12:52:02 12.6 C 5.64 g/m*3 12.6 C 0 km/h
961 31-03-2005 13:04:03 13 C 5.44 g/m*3 13 C 0 km/h
962 31-03-2005 13:16:03 13.4 C 5.35 g/m*3 13.4 C 0 km/h
963 31-03-2005 13:28:03 13.7 C 5.45 g/m*3 13.7 C 0 km/h
964 31-03-2005 13:40:02 13.5 C 5.26 g/m*3 13.5 C 0 km/h
965 31-03-2005 13:52:01 13.7 C 5.45 g/m*3 13.7 C 0 km/h
966 31-03-2005 14:04:02 14.1 C 5.58 g/m*3 14.1 C 0 km/h
967 31-03-2005 14:16:02 14.1 C 5.46 g/m*3 14.1 C 0 km/h
968 31-03-2005 14:28:02 14.4 C 5.69 g/m*3 14.4 C 0 km/h
969 31-03-2005 14:40:02 14.8 C 5.7 g/m*3 14.8 C 0 km/h
970 31-03-2005 14:52:01 14.8 C 5.57 g/m*3 14.8 C 0 km/h
971 31-03-2005 15:04:02 14.9 C 5.74 g/m*3 14.9 C 0 km/h
972 31-03-2005 15:16:01 14.8 C 5.7 g/m*3 14.8 C 0 km/h
973 31-03-2005 15:28:01 14.6 C 5.76 g/m*3 14.6 C 0 km/h
974 31-03-2005 15:40:02 15.3 C 5.62 g/m*3 15.3 C 0 km/h
975 31-03-2005 15:52:01 15.2 C 5.71 g/m*3 15.2 C 0 km/h
Sensor: Nr:Datum:Temp:Abs-Feuchte:Windchill:Wind:
Aussen-T/F 976 31-03-2005 16:04:02 15.4 C 5.91 g/m*3 15.4 C 0 km/h
977 31-03-2005 16:16:02 16.8 C 6.43 g/m*3 16.8 C 0 km/h
978 31-03-2005 16:28:02 16.6 C 5.79 g/m*3 16.6 C 0 km/h
979 31-03-2005 16:40:01 17.6 C 6 g/m*3 17.6 C 0 km/h
980 31-03-2005 16:52:01 18 C 5.84 g/m*3 18 C 0 km/h
981 31-03-2005 17:04:02 17.7 C 6.04 g/m*3 17.7 C 0 km/h
982 31-03-2005 17:16:01 17.4 C 5.93 g/m*3 17.4 C 0 km/h
983 31-03-2005 17:28:01 17.5 C 5.81 g/m*3 17.5 C 0 km/h
984 31-03-2005 17:40:02 17.2 C 6 g/m*3 17.2 C 0 km/h
985 31-03-2005 17:52:01 16.4 C 5.86 g/m*3 16.4 C 0 km/h
986 31-03-2005 18:04:02 16.6 C 6.36 g/m*3 16.6 C 0 km/h
987 31-03-2005 18:16:02 16.4 C 6 g/m*3 16.4 C 0 km/h
988 31-03-2005 18:28:02 16.1 C 6.31 g/m*3 16.1 C 0 km/h
989 31-03-2005 18:40:02 15.8 C 6.87 g/m*3 15.8 C 0 km/h
990 31-03-2005 18:52:02 15.6 C 7.58 g/m*3 15.6 C 0 km/h
991 31-03-2005 19:04:02 15.3 C 7.18 g/m*3 15.3 C 0 km/h
992 31-03-2005 19:16:02 15.1 C 7.22 g/m*3 15.1 C 0 km/h
993 31-03-2005 19:28:02 14.6 C 7.38 g/m*3 14.6 C 0 km/h
994 31-03-2005 19:40:02 14.2 C 7.2 g/m*3 14.2 C 0 km/h
995 31-03-2005 19:52:01 13.6 C 7.3 g/m*3 13.6 C 0 km/h
996 31-03-2005 20:04:02 12.9 C 7.33 g/m*3 12.9 C 0 km/h
997 31-03-2005 20:16:01 12.4 C 7.43 g/m*3 12.4 C 0 km/h
998 31-03-2005 20:28:01 12 C 7.35 g/m*3 12 C 0 km/h
999 31-03-2005 20:40:02 11.7 C 7.32 g/m*3 11.7 C 0 km/h
1000 31-03-2005 20:52:01 11.4 C 7.39 g/m*3 11.4 C 0 km/h
Sensor: Nr:Datum:Temp:Abs-Feuchte:Windchill:Wind:
Aussen-T/F 1001 31-03-2005 21:04:02 11.2 C 7.4 g/m*3 11.2 C 0 km/h
1002 31-03-2005 21:16:02 11 C 7.41 g/m*3 11 C 0 km/h
1003 31-03-2005 21:28:02 10.7 C 7.37 g/m*3 10.7 C 0 km/h
1004 31-03-2005 21:40:01 10.5 C 7.27 g/m*3 10.5 C 0 km/h
1005 31-03-2005 21:52:01 10.2 C 7.23 g/m*3 10.2 C 0 km/h
1006 31-03-2005 22:04:02 10 C 7.24 g/m*3 10 C 0 km/h
1007 31-03-2005 22:16:01 9.8 C 7.33 g/m*3 9.8 C 0 km/h
1008 31-03-2005 22:28:01 9.7 C 6.82 g/m*3 9.7 C 0 km/h
1009 31-03-2005 22:40:02 9.5 C 6.46 g/m*3 9.5 C 0 km/h
1010 31-03-2005 22:52:02 9.7 C 5.53 g/m*3 9.7 C 0 km/h
1011 31-03-2005 23:04:02 10 C 5.07 g/m*3 10 C 0 km/h
1012 31-03-2005 23:16:02 10.1 C 4.73 g/m*3 10.1 C 0 km/h
1013 31-03-2005 23:28:02 9.8 C 4.64 g/m*3 9.8 C 0 km/h
1014 31-03-2005 23:40:02 9.8 C 4.45 g/m*3 9.8 C 0 km/h
1015 31-03-2005 23:52:02 10 C 4.6 g/m*3 10 C 0 km/h
1016 01-04-2005 00:04:02 9.4 C 4.7 g/m*3 9.4 C 0 km/h
1017 01-04-2005 00:16:03 9 C 4.41 g/m*3 9 C 0 km/h
1018 01-04-2005 00:28:03 8.7 C 4.5 g/m*3 8.7 C 0 km/h
1019 01-04-2005 00:40:03 8.7 C 4.24 g/m*3 8.7 C 0 km/h
1020 01-04-2005 00:52:02 8.4 C 4.33 g/m*3 8.4 C 0 km/h
1021 01-04-2005 01:04:02 8 C 4.55 g/m*3 8 C 0 km/h
1022 01-04-2005 01:16:02 7.7 C 4.54 g/m*3 7.7 C 0 km/h
1023 01-04-2005 01:28:02 7.5 C 4.48 g/m*3 7.5 C 0 km/h
1024 01-04-2005 01:40:02 7.4 C 4.45 g/m*3 7.4 C 0 km/h
1025 01-04-2005 01:52:02 7.2 C 4.47 g/m*3 7.2 C 0 km/h
Sensor: Nr:Datum:Temp:Abs-Feuchte:Windchill:Wind:
Aussen-T/F 1026 01-04-2005 02:04:02 6.8 C 4.51 g/m*3 6.8 C 0 km/h
1027 01-04-2005 02:16:02 6.6 C 4.38 g/m*3 6.6 C 0 km/h
1028 01-04-2005 02:28:02 6.5 C 4.5 g/m*3 6.5 C 0 km/h
1029 01-04-2005 02:40:02 6.3 C 4.29 g/m*3 6.3 C 0 km/h
1030 01-04-2005 02:53:03 6.1 C 4.24 g/m*3 6.1 C 0 km/h
1031 01-04-2005 03:05:03 6 C 4.21 g/m*3 6 C 0 km/h
1032 01-04-2005 03:17:04 5.8 C 4.3 g/m*3 5.8 C 0 km/h
1033 01-04-2005 03:29:04 5.7 C 4.27 g/m*3 5.7 C 0 km/h
1034 01-04-2005 03:41:02 5.6 C 4.24 g/m*3 5.6 C 0 km/h
1035 01-04-2005 03:53:02 5.3 C 4.23 g/m*3 5.3 C 0 km/h
1036 01-04-2005 04:05:02 5.1 C 4.31 g/m*3 5.1 C 0 km/h
1037 01-04-2005 04:17:03 5 C 4.35 g/m*3 5 C 0 km/h
1038 01-04-2005 04:29:03 4.9 C 4.39 g/m*3 4.9 C 0 km/h
1039 01-04-2005 04:41:03 4.7 C 4.33 g/m*3 4.7 C 0 km/h
1040 01-04-2005 04:53:03 4.4 C 4.37 g/m*3 4.4 C 0 km/h
1041 01-04-2005 05:05:03 4.3 C 4.48 g/m*3 4.3 C 0 km/h
1042 01-04-2005 05:17:02 4.1 C 4.22 g/m*3 4.1 C 0 km/h
1043 01-04-2005 05:29:02 4 C 4.32 g/m*3 4 C 0 km/h
1044 01-04-2005 05:41:02 3.8 C 4.39 g/m*3 3.8 C 0 km/h
1045 01-04-2005 05:53:02 3.5 C 4.37 g/m*3 3.5 C 0 km/h
1046 01-04-2005 06:05:02 3.3 C 4.43 g/m*3 3.3 C 0 km/h
1047 01-04-2005 06:17:01 3.2 C 4.34 g/m*3 3.2 C 0 km/h
1048 01-04-2005 06:29:02 3.2 C 4.34 g/m*3 3.2 C 0 km/h
1049 01-04-2005 06:41:02 2.9 C 4.25 g/m*3 2.9 C 0 km/h
1050 01-04-2005 06:53:02 2.5 C 4.14 g/m*3 2.5 C 0 km/h
Sensor: Nr:Datum:Temp:Abs-Feuchte:Windchill:Wind:
Aussen-T/F 1051 01-04-2005 07:05:02 2.7 C 4.37 g/m*3 2.7 C 0 km/h
1052 01-04-2005 07:17:02 2.6 C 4.4 g/m*3 2.6 C 0 km/h
1053 01-04-2005 07:29:02 2.5 C 4.37 g/m*3 2.5 C 0 km/h
1054 01-04-2005 07:41:02 2.5 C 4.31 g/m*3 2.5 C 0 km/h
1055 01-04-2005 07:53:01 2.6 C 4.46 g/m*3 2.6 C 0 km/h
1056 01-04-2005 08:05:02 2.6 C 4.51 g/m*3 2.6 C 0 km/h
1057 01-04-2005 08:17:01 2.6 C 4.46 g/m*3 2.6 C 0 km/h
1058 01-04-2005 08:29:01 2.8 C 4.58 g/m*3 2.8 C 0 km/h
1059 01-04-2005 08:41:01 2.8 C 4.58 g/m*3 2.8 C 0 km/h
1060 01-04-2005 08:53:02 3 C 4.64 g/m*3 3 C 0 km/h
1061 01-04-2005 09:05:02 3.2 C 4.7 g/m*3 3.2 C 0 km/h
1062 01-04-2005 09:17:02 3.6 C 4.77 g/m*3 3.6 C 0 km/h
1063 01-04-2005 09:29:02 3.9 C 4.74 g/m*3 3.9 C 0 km/h
1064 01-04-2005 09:41:02 4.5 C 4.73 g/m*3 4.5 C 0 km/h
1065 01-04-2005 09:53:01 4.9 C 4.79 g/m*3 4.9 C 0 km/h
1066 01-04-2005 10:05:01 5.8 C 4.66 g/m*3 5.8 C 0 km/h
1067 01-04-2005 10:17:01 6.4 C 4.77 g/m*3 6.4 C 0 km/h
1068 01-04-2005 10:29:01 7.2 C 4.47 g/m*3 7.2 C 0 km/h
1069 01-04-2005 10:41:01 7.9 C 4.11 g/m*3 7.9 C 0 km/h
1070 01-04-2005 10:53:01 8.4 C 3.82 g/m*3 8.4 C 0 km/h
1071 01-04-2005 11:05:01 9.1 C 3.82 g/m*3 9.1 C 0 km/h
1072 01-04-2005 11:17:02 9.6 C 3.94 g/m*3 9.6 C 0 km/h
1073 01-04-2005 11:29:02 10.1 C 3.78 g/m*3 10.1 C 0 km/h
1074 01-04-2005 11:41:01 10.7 C 3.83 g/m*3 10.7 C 0 km/h
1075 01-04-2005 11:53:01 11.2 C 3.95 g/m*3 11.2 C 0 km/h
Sensor: Nr:Datum:Temp:Abs-Feuchte:Windchill:Wind:
Aussen-T/F 1076 01-04-2005 12:05:02 11.7 C 3.87 g/m*3 11.7 C 0 km/h
1077 01-04-2005 12:17:01 11.9 C 3.81 g/m*3 11.9 C 0 km/h
1078 01-04-2005 12:29:01 12.4 C 3.82 g/m*3 12.4 C 0 km/h
1079 01-04-2005 12:41:01 12.5 C 3.63 g/m*3 12.5 C 0 km/h
1080 01-04-2005 12:53:01 13.1 C 3.88 g/m*3 13.1 C 0 km/h
1081 01-04-2005 13:05:02 13.7 C 3.67 g/m*3 13.7 C 0 km/h
1082 01-04-2005 13:17:02 14.1 C 3.28 g/m*3 14.1 C 0 km/h
1083 01-04-2005 13:29:02 14.7 C 3.4 g/m*3 14.7 C 0 km/h
1084 01-04-2005 13:41:01 15.4 C 3.15 g/m*3 15.4 C 0 km/h
1085 01-04-2005 13:53:01 16 C 2.72 g/m*3 16 C 0 km/h
1086 01-04-2005 14:05:02 16.4 C 2.79 g/m*3 16.4 C 0 km/h
1087 01-04-2005 14:17:02 17 C 2.89 g/m*3 17 C 0 km/h
1088 01-04-2005 14:29:02 17.4 C 2.96 g/m*3 17.4 C 0 km/h
1089 01-04-2005 14:41:02 17.8 C 3.04 g/m*3 17.8 C 0 km/h
1090 01-04-2005 14:53:02 18.1 C 3.09 g/m*3 18.1 C 0 km/h
1091 01-04-2005 15:05:03 18.7 C 3.2 g/m*3 18.7 C 0 km/h
1092 01-04-2005 15:17:02 19.4 C 3.34 g/m*3 19.4 C 0 km/h
1093 01-04-2005 15:29:02 19.2 C 3.3 g/m*3 19.2 C 0 km/h
1094 01-04-2005 15:41:03 19.3 C 3.32 g/m*3 19.3 C 0 km/h
1095 01-04-2005 15:53:01 20 C 3.46 g/m*3 20 C 0 km/h
1096 01-04-2005 16:05:02 20.4 C 3.54 g/m*3 20.4 C 0 km/h
1097 01-04-2005 16:17:01 20.2 C 3.5 g/m*3 20.2 C 0 km/h
1098 01-04-2005 16:29:01 20.2 C 3.5 g/m*3 20.2 C 0 km/h
1099 01-04-2005 16:41:02 20.8 C 3.62 g/m*3 20.8 C 0 km/h
1100 01-04-2005 16:53:02 20.5 C 3.56 g/m*3 20.5 C 0 km/h
Sensor: Nr:Datum:Temp:Abs-Feuchte:Windchill:Wind:
Aussen-T/F 1101 01-04-2005 17:05:02 20.2 C 3.5 g/m*3 20.2 C 0 km/h
1102 01-04-2005 17:17:03 20.6 C 3.58 g/m*3 20.6 C 0 km/h
1103 01-04-2005 17:29:03 20.6 C 3.58 g/m*3 20.6 C 0 km/h
1104 01-04-2005 17:41:02 20.4 C 3.54 g/m*3 20.4 C 0 km/h
1105 01-04-2005 17:53:03 19.9 C 3.44 g/m*3 19.9 C 0 km/h
1106 01-04-2005 18:05:03 19.8 C 3.42 g/m*3 19.8 C 0 km/h
1107 01-04-2005 18:17:02 19.6 C 3.38 g/m*3 19.6 C 0 km/h
1108 01-04-2005 18:29:02 19.5 C 3.36 g/m*3 19.5 C 0 km/h
1109 01-04-2005 18:41:02 19.4 C 3.34 g/m*3 19.4 C 0 km/h
1110 01-04-2005 18:53:02 19.1 C 3.28 g/m*3 19.1 C 0 km/h
1111 01-04-2005 19:05:03 18.7 C 3.2 g/m*3 18.7 C 0 km/h
1112 01-04-2005 19:17:02 18.3 C 3.13 g/m*3 18.3 C 0 km/h
1113 01-04-2005 19:29:02 17.7 C 3.17 g/m*3 17.7 C 0 km/h
1114 01-04-2005 19:41:02 16.6 C 3.67 g/m*3 16.6 C 0 km/h
1115 01-04-2005 19:53:01 15.3 C 3.79 g/m*3 15.3 C 0 km/h
1116 01-04-2005 20:05:02 14.2 C 3.79 g/m*3 14.2 C 0 km/h
1117 01-04-2005 20:17:01 13.5 C 4.21 g/m*3 13.5 C 0 km/h
1118 01-04-2005 20:29:01 12.8 C 4.14 g/m*3 12.8 C 0 km/h
1119 01-04-2005 20:41:01 12.4 C 4.26 g/m*3 12.4 C 0 km/h
1120 01-04-2005 20:53:01 12 C 4.26 g/m*3 12 C 0 km/h
1121 01-04-2005 21:05:02 11.5 C 4.23 g/m*3 11.5 C 0 km/h
1122 01-04-2005 21:17:01 11.1 C 4.13 g/m*3 11.1 C 0 km/h
1123 01-04-2005 21:29:01 10.8 C 4.15 g/m*3 10.8 C 0 km/h
1124 01-04-2005 21:41:02 10.7 C 4.13 g/m*3 10.7 C 0 km/h
1125 01-04-2005 21:53:02 10.3 C 4.31 g/m*3 10.3 C 0 km/h
Sensor: Nr:Datum:Temp:Abs-Feuchte:Windchill:Wind:
Aussen-T/F 1126 01-04-2005 22:05:02 10.1 C 4.16 g/m*3 10.1 C 0 km/h
1127 01-04-2005 22:17:03 9.9 C 4.29 g/m*3 9.9 C 0 km/h
1128 01-04-2005 22:29:03 9.5 C 4.37 g/m*3 9.5 C 0 km/h
1129 01-04-2005 22:41:03 9.3 C 4.4 g/m*3 9.3 C 0 km/h
1130 01-04-2005 22:53:02 9 C 4.5 g/m*3 9 C 0 km/h
1131 01-04-2005 23:05:02 8.6 C 4.47 g/m*3 8.6 C 0 km/h
1132 01-04-2005 23:17:03 8.4 C 4.41 g/m*3 8.4 C 0 km/h
1133 01-04-2005 23:29:03 8 C 4.46 g/m*3 8 C 0 km/h
1134 01-04-2005 23:41:02 8.1 C 4.08 g/m*3 8.1 C 0 km/h
1135 01-04-2005 23:53:02 8.3 C 4.05 g/m*3 8.3 C 0 km/h
1136 02-04-2005 00:05:02 8.3 C 4.13 g/m*3 8.3 C 0 km/h
1137 02-04-2005 00:17:03 7.9 C 4.44 g/m*3 7.9 C 0 km/h
1138 02-04-2005 00:29:03 7.8 C 4.41 g/m*3 7.8 C 0 km/h
1139 02-04-2005 00:41:02 7.6 C 4.19 g/m*3 7.6 C 0 km/h
1140 02-04-2005 00:53:02 7.6 C 4.43 g/m*3 7.6 C 0 km/h
1141 02-04-2005 01:05:03 7.4 C 4.21 g/m*3 7.4 C 0 km/h
1142 02-04-2005 01:17:03 7.2 C 4.24 g/m*3 7.2 C 0 km/h
1143 02-04-2005 01:29:03 6.9 C 4.16 g/m*3 6.9 C 0 km/h
1144 02-04-2005 01:41:02 6.7 C 4.26 g/m*3 6.7 C 0 km/h
1145 02-04-2005 01:53:02 6.5 C 4.12 g/m*3 6.5 C 0 km/h
1146 02-04-2005 02:05:02 6.3 C 4.22 g/m*3 6.3 C 0 km/h
1147 02-04-2005 02:17:02 6 C 4.14 g/m*3 6 C 0 km/h
1148 02-04-2005 02:29:02 5.8 C 4.3 g/m*3 5.8 C 0 km/h
1149 02-04-2005 02:41:02 5.6 C 4.24 g/m*3 5.6 C 0 km/h
1150 02-04-2005 02:54:04 5.5 C 4.35 g/m*3 5.5 C 0 km/h
Sensor: Nr:Datum:Temp:Abs-Feuchte:Windchill:Wind:
Aussen-T/F 1151 02-04-2005 03:06:04 5 C 4.14 g/m*3 5 C 0 km/h
1152 02-04-2005 03:18:04 4.8 C 4.22 g/m*3 4.8 C 0 km/h
1153 02-04-2005 03:30:04 4.7 C 4.26 g/m*3 4.7 C 0 km/h
1154 02-04-2005 03:42:02 4.5 C 4.27 g/m*3 4.5 C 0 km/h
1155 02-04-2005 03:54:02 4.2 C 4.25 g/m*3 4.2 C 0 km/h
1156 02-04-2005 04:06:02 4 C 4.2 g/m*3 4 C 0 km/h
1157 02-04-2005 04:18:02 3.8 C 4.08 g/m*3 3.8 C 0 km/h
1158 02-04-2005 04:30:02 3.9 C 4.17 g/m*3 3.9 C 0 km/h
1159 02-04-2005 04:42:02 3.6 C 4.21 g/m*3 3.6 C 0 km/h
1160 02-04-2005 04:54:02 3.5 C 4.12 g/m*3 3.5 C 0 km/h
1161 02-04-2005 05:06:02 3.3 C 4.06 g/m*3 3.3 C 0 km/h
1162 02-04-2005 05:18:03 3.1 C 4.13 g/m*3 3.1 C 0 km/h
1163 02-04-2005 05:30:03 3 C 4.1 g/m*3 3 C 0 km/h
1164 02-04-2005 05:42:02 3 C 4.16 g/m*3 3 C 0 km/h
1165 02-04-2005 05:54:02 2.4 C 4.05 g/m*3 2.4 C 0 km/h
1166 02-04-2005 06:06:02 2.2 C 4 g/m*3 2.2 C 0 km/h
1167 02-04-2005 06:18:02 2 C 4.06 g/m*3 2 C 0 km/h
1168 02-04-2005 06:30:02 1.8 C 4.06 g/m*3 1.8 C 0 km/h
1169 02-04-2005 06:42:01 1.7 C 4.14 g/m*3 1.7 C 0 km/h
1170 02-04-2005 06:54:01 1.6 C 4.16 g/m*3 1.6 C 0 km/h
1171 02-04-2005 07:06:01 1.4 C 4.05 g/m*3 1.4 C 0 km/h
1172 02-04-2005 07:18:01 1.5 C 4.19 g/m*3 1.5 C 0 km/h
1173 02-04-2005 07:30:01 1.5 C 4.24 g/m*3 1.5 C 0 km/h
1174 02-04-2005 07:42:02 1.5 C 4.24 g/m*3 1.5 C 0 km/h
1175 02-04-2005 07:54:02 1.6 C 4.27 g/m*3 1.6 C 0 km/h
Sensor: Nr:Datum:Temp:Abs-Feuchte:Windchill:Wind:
Aussen-T/F 1176 02-04-2005 08:06:02 1.5 C 4.3 g/m*3 1.5 C 0 km/h
1177 02-04-2005 08:18:02 1.5 C 4.3 g/m*3 1.5 C 0 km/h
1178 02-04-2005 08:30:02 1.5 C 4.3 g/m*3 1.5 C 0 km/h
1179 02-04-2005 08:42:02 1.7 C 4.36 g/m*3 1.7 C 0 km/h
1180 02-04-2005 08:54:02 1.9 C 4.42 g/m*3 1.9 C 0 km/h
1181 02-04-2005 09:06:02 2.4 C 4.51 g/m*3 2.4 C 0 km/h
1182 02-04-2005 09:18:02 2.7 C 4.54 g/m*3 2.7 C 0 km/h
1183 02-04-2005 09:30:02 3.1 C 4.55 g/m*3 3.1 C 0 km/h
1184 02-04-2005 09:42:02 3.7 C 4.67 g/m*3 3.7 C 0 km/h
1185 02-04-2005 09:54:01 4.7 C 4.73 g/m*3 4.7 C 0 km/h
1186 02-04-2005 10:06:02 5.9 C 4.25 g/m*3 5.9 C 0 km/h
1187 02-04-2005 10:18:02 7.3 C 3.95 g/m*3 7.3 C 0 km/h
1188 02-04-2005 10:30:02 8 C 3.8 g/m*3 8 C 0 km/h
1189 02-04-2005 10:42:02 8.6 C 3.78 g/m*3 8.6 C 0 km/h
1190 02-04-2005 10:54:01 9.2 C 3.75 g/m*3 9.2 C 0 km/h
1191 02-04-2005 11:06:02 9.6 C 3.85 g/m*3 9.6 C 0 km/h
1192 02-04-2005 11:18:01 10.2 C 3.81 g/m*3 10.2 C 0 km/h
1193 02-04-2005 11:30:01 10.6 C 4 g/m*3 10.6 C 0 km/h
1194 02-04-2005 11:42:02 11.4 C 3.9 g/m*3 11.4 C 0 km/h
1195 02-04-2005 11:54:02 11.8 C 3.89 g/m*3 11.8 C 0 km/h
1196 02-04-2005 12:06:01 12.6 C 3.98 g/m*3 12.6 C 0 km/h
1197 02-04-2005 12:18:02 13 C 3.97 g/m*3 13 C 0 km/h
1198 02-04-2005 12:30:02 13.2 C 3.79 g/m*3 13.2 C 0 km/h
1199 02-04-2005 12:42:02 13.8 C 4.05 g/m*3 13.8 C 0 km/h
1200 02-04-2005 12:54:02 14.6 C 3.88 g/m*3 14.6 C 0 km/h
Sensor: Nr:Datum:Temp:Abs-Feuchte:Windchill:Wind:
Aussen-T/F 1201 02-04-2005 13:06:02 15.1 C 3.87 g/m*3 15.1 C 0 km/h
1202 02-04-2005 13:18:02 15.4 C 3.81 g/m*3 15.4 C 0 km/h
1203 02-04-2005 13:30:02 15.8 C 3.77 g/m*3 15.8 C 0 km/h
1204 02-04-2005 13:42:01 16.4 C 3.77 g/m*3 16.4 C 0 km/h
1205 02-04-2005 13:54:02 17.1 C 4.08 g/m*3 17.1 C 0 km/h
1206 02-04-2005 14:06:01 17.7 C 3.92 g/m*3 17.7 C 0 km/h
1207 02-04-2005 14:18:02 18.3 C 3.91 g/m*3 18.3 C 0 km/h
1208 02-04-2005 14:30:02 18.6 C 3.82 g/m*3 18.6 C 0 km/h
1209 02-04-2005 14:42:02 19.2 C 3.46 g/m*3 19.2 C 0 km/h
1210 02-04-2005 14:54:08 19.9 C 4.3 g/m*3 19.9 C 0 km/h
1211 02-04-2005 15:06:06 20 C 4.32 g/m*3 20 C 0 km/h
1212 02-04-2005 15:18:06 20 C 3.8 g/m*3 20 C 0 km/h
1213 02-04-2005 15:30:06 20.4 C 4.25 g/m*3 20.4 C 0 km/h
1214 02-04-2005 15:42:07 20.9 C 3.64 g/m*3 20.9 C 0 km/h
1215 02-04-2005 15:54:02 20.9 C 3.64 g/m*3 20.9 C 0 km/h
1216 02-04-2005 16:06:02 21.6 C 3.79 g/m*3 21.6 C 0 km/h
1217 02-04-2005 16:18:02 21.7 C 3.82 g/m*3 21.7 C 0 km/h
1218 02-04-2005 16:30:02 22 C 3.88 g/m*3 22 C 0 km/h
1219 02-04-2005 16:42:02 21.4 C 3.75 g/m*3 21.4 C 0 km/h
1220 02-04-2005 16:54:02 22.1 C 3.9 g/m*3 22.1 C 0 km/h
1221 02-04-2005 17:06:02 22.4 C 3.97 g/m*3 22.4 C 0 km/h
1222 02-04-2005 17:18:02 22.3 C 3.95 g/m*3 22.3 C 0 km/h
1223 02-04-2005 17:30:02 21.5 C 3.77 g/m*3 21.5 C 0 km/h
1224 02-04-2005 17:42:01 21.2 C 3.71 g/m*3 21.2 C 0 km/h
1225 02-04-2005 17:54:02 21.1 C 3.69 g/m*3 21.1 C 0 km/h
Sensor: Nr:Datum:Temp:Abs-Feuchte:Windchill:Wind:
Aussen-T/F 1226 02-04-2005 18:06:02 21.3 C 3.73 g/m*3 21.3 C 0 km/h
1227 02-04-2005 18:18:02 21.4 C 3.75 g/m*3 21.4 C 0 km/h
1228 02-04-2005 18:30:02 21.1 C 3.69 g/m*3 21.1 C 0 km/h
1229 02-04-2005 18:42:01 20.7 C 3.6 g/m*3 20.7 C 0 km/h
1230 02-04-2005 18:54:02 21.4 C 3.75 g/m*3 21.4 C 0 km/h
1231 02-04-2005 19:06:02 20.8 C 3.62 g/m*3 20.8 C 0 km/h
1232 02-04-2005 19:18:02 20.3 C 3.52 g/m*3 20.3 C 0 km/h
1233 02-04-2005 19:30:02 19.5 C 4.03 g/m*3 19.5 C 0 km/h
1234 02-04-2005 19:42:02 18.1 C 4.33 g/m*3 18.1 C 0 km/h
1235 02-04-2005 19:54:02 16.6 C 4.38 g/m*3 16.6 C 0 km/h
1236 02-04-2005 20:06:02 15.4 C 4.47 g/m*3 15.4 C 0 km/h
1237 02-04-2005 20:18:02 14.6 C 4.38 g/m*3 14.6 C 0 km/h
1238 02-04-2005 20:30:02 14.1 C 4.49 g/m*3 14.1 C 0 km/h
1239 02-04-2005 20:42:02 13.6 C 4.71 g/m*3 13.6 C 0 km/h
1240 02-04-2005 20:54:01 13.3 C 4.74 g/m*3 13.3 C 0 km/h
1241 02-04-2005 21:06:02 13 C 4.65 g/m*3 13 C 0 km/h
1242 02-04-2005 21:18:02 12.7 C 4.9 g/m*3 12.7 C 0 km/h
1243 02-04-2005 21:30:02 12.2 C 4.96 g/m*3 12.2 C 0 km/h
1244 02-04-2005 21:42:01 12.1 C 4.93 g/m*3 12.1 C 0 km/h
1245 02-04-2005 21:54:02 11.9 C 4.98 g/m*3 11.9 C 0 km/h
1246 02-04-2005 22:06:01 11.8 C 4.95 g/m*3 11.8 C 0 km/h
1247 02-04-2005 22:18:02 11.6 C 4.68 g/m*3 11.6 C 0 km/h
1248 02-04-2005 22:30:02 11.4 C 4.72 g/m*3 11.4 C 0 km/h
1249 02-04-2005 22:42:02 11.2 C 4.66 g/m*3 11.2 C 0 km/h
1250 02-04-2005 22:54:02 11 C 4.7 g/m*3 11 C 0 km/h
Sensor: Nr:Datum:Temp:Abs-Feuchte:Windchill:Wind:
Aussen-T/F 1251 02-04-2005 23:06:03 10.8 C 4.65 g/m*3 10.8 C 0 km/h
1252 02-04-2005 23:18:02 10.7 C 4.42 g/m*3 10.7 C 0 km/h
1253 02-04-2005 23:30:02 10.7 C 4.32 g/m*3 10.7 C 0 km/h
1254 02-04-2005 23:42:02 10.6 C 4.2 g/m*3 10.6 C 0 km/h
1255 02-04-2005 23:54:01 10.5 C 4.36 g/m*3 10.5 C 0 km/h
1256 03-04-2005 00:06:01 10.5 C 4.07 g/m*3 10.5 C 0 km/h
1257 03-04-2005 00:18:02 10.4 C 3.95 g/m*3 10.4 C 0 km/h
1258 03-04-2005 00:30:02 10.1 C 4.26 g/m*3 10.1 C 0 km/h
1259 03-04-2005 00:42:02 9.5 C 4.46 g/m*3 9.5 C 0 km/h
1260 03-04-2005 00:54:02 9.1 C 4.7 g/m*3 9.1 C 0 km/h
1261 03-04-2005 01:06:03 8.9 C 4.91 g/m*3 8.9 C 0 km/h
1262 03-04-2005 01:18:02 8.7 C 4.76 g/m*3 8.7 C 0 km/h
1263 03-04-2005 01:30:02 8.4 C 4.84 g/m*3 8.4 C 0 km/h
1264 03-04-2005 01:42:02 7.8 C 4.98 g/m*3 7.8 C 0 km/h
1265 03-04-2005 01:54:03 7.5 C 5.04 g/m*3 7.5 C 0 km/h
1266 03-04-2005 02:06:02 7.7 C 4.62 g/m*3 7.7 C 0 km/h
1267 03-04-2005 02:18:02 7.6 C 5.08 g/m*3 7.6 C 0 km/h
1268 03-04-2005 02:30:03 7.3 C 4.9 g/m*3 7.3 C 0 km/h
1269 03-04-2005 02:42:03 7 C 5.04 g/m*3 7 C 0 km/h
1270 03-04-2005 02:55:04 6.8 C 4.89 g/m*3 6.8 C 0 km/h
1271 03-04-2005 03:07:04 6.6 C 4.91 g/m*3 6.6 C 0 km/h
1272 03-04-2005 03:19:04 6.4 C 5.07 g/m*3 6.4 C 0 km/h
1273 03-04-2005 03:31:02 6 C 4.72 g/m*3 6 C 0 km/h
1274 03-04-2005 03:43:03 6 C 4.79 g/m*3 6 C 0 km/h
1275 03-04-2005 03:55:03 5.8 C 4.58 g/m*3 5.8 C 0 km/h
Sensor: Nr:Datum:Temp:Abs-Feuchte:Windchill:Wind:
Aussen-T/F 1276 03-04-2005 04:07:01 5.8 C 4.73 g/m*3 5.8 C 0 km/h
1277 03-04-2005 04:19:02 5.7 C 4.63 g/m*3 5.7 C 0 km/h
1278 03-04-2005 04:31:02 5.6 C 4.52 g/m*3 5.6 C 0 km/h
1279 03-04-2005 04:43:02 5.4 C 4.54 g/m*3 5.4 C 0 km/h
1280 03-04-2005 04:55:03 5.2 C 4.41 g/m*3 5.2 C 0 km/h
1281 03-04-2005 05:07:02 5 C 4.48 g/m*3 5 C 0 km/h
1282 03-04-2005 05:19:02 5 C 4.62 g/m*3 5 C 0 km/h
1283 03-04-2005 05:31:03 4.8 C 4.76 g/m*3 4.8 C 0 km/h
1284 03-04-2005 05:43:03 4.7 C 4.73 g/m*3 4.7 C 0 km/h
1285 03-04-2005 05:55:02 4.4 C 4.57 g/m*3 4.4 C 0 km/h
1286 03-04-2005 06:07:02 4.2 C 4.57 g/m*3 4.2 C 0 km/h
1287 03-04-2005 06:19:02 4.3 C 4.74 g/m*3 4.3 C 0 km/h
1288 03-04-2005 06:31:02 4.2 C 4.83 g/m*3 4.2 C 0 km/h
1289 03-04-2005 06:43:02 4 C 4.7 g/m*3 4 C 0 km/h
1290 03-04-2005 06:55:02 3.8 C 4.77 g/m*3 3.8 C 0 km/h
1291 03-04-2005 07:07:02 3.7 C 4.74 g/m*3 3.7 C 0 km/h
1292 03-04-2005 07:19:02 3.6 C 4.7 g/m*3 3.6 C 0 km/h
1293 03-04-2005 07:31:02 3.6 C 4.77 g/m*3 3.6 C 0 km/h
1294 03-04-2005 07:43:03 3.6 C 4.89 g/m*3 3.6 C 0 km/h
1295 03-04-2005 07:55:01 3.7 C 4.86 g/m*3 3.7 C 0 km/h
1296 03-04-2005 08:07:01 3.8 C 4.83 g/m*3 3.8 C 0 km/h
1297 03-04-2005 08:19:01 3.9 C 4.86 g/m*3 3.9 C 0 km/h
1298 03-04-2005 08:31:02 4.1 C 4.86 g/m*3 4.1 C 0 km/h
1299 03-04-2005 08:43:02 4.2 C 4.9 g/m*3 4.2 C 0 km/h
1300 03-04-2005 08:55:02 4.4 C 4.96 g/m*3 4.4 C 0 km/h
Sensor: Nr:Datum:Temp:Abs-Feuchte:Windchill:Wind:
Aussen-T/F 1301 03-04-2005 09:07:02 4.7 C 5.06 g/m*3 4.7 C 0 km/h
1302 03-04-2005 09:19:03 5.1 C 4.99 g/m*3 5.1 C 0 km/h
1303 03-04-2005 09:31:02 5.6 C 5.09 g/m*3 5.6 C 0 km/h
1304 03-04-2005 09:43:02 6.1 C 5.11 g/m*3 6.1 C 0 km/h
1305 03-04-2005 09:55:02 6.8 C 5.05 g/m*3 6.8 C 0 km/h
1306 03-04-2005 10:07:02 7.3 C 5.06 g/m*3 7.3 C 0 km/h
1307 03-04-2005 10:19:02 7.9 C 5.09 g/m*3 7.9 C 0 km/h
1308 03-04-2005 10:31:02 8.8 C 5.22 g/m*3 8.8 C 0 km/h
1309 03-04-2005 10:43:02 9.5 C 5.28 g/m*3 9.5 C 0 km/h
1310 03-04-2005 10:55:01 10.5 C 5.24 g/m*3 10.5 C 0 km/h
1311 03-04-2005 11:07:01 11.6 C 5.09 g/m*3 11.6 C 0 km/h
1312 03-04-2005 11:19:02 12.2 C 4.96 g/m*3 12.2 C 0 km/h
1313 03-04-2005 11:31:01 13 C 4.65 g/m*3 13 C 0 km/h
1314 03-04-2005 11:43:01 14 C 4.7 g/m*3 14 C 0 km/h
1315 03-04-2005 11:55:02 14.5 C 4.48 g/m*3 14.5 C 0 km/h
1316 03-04-2005 12:07:02 15.5 C 4.49 g/m*3 15.5 C 0 km/h
1317 03-04-2005 12:19:02 15.9 C 4.2 g/m*3 15.9 C 0 km/h
1318 03-04-2005 12:31:02 16.2 C 4.14 g/m*3 16.2 C 0 km/h
1319 03-04-2005 12:43:02 16.7 C 3.98 g/m*3 16.7 C 0 km/h
1320 03-04-2005 12:55:02 17 C 4.05 g/m*3 17 C 0 km/h
1321 03-04-2005 13:07:02 17.4 C 4.15 g/m*3 17.4 C 0 km/h
1322 03-04-2005 13:19:02 18 C 3.99 g/m*3 18 C 0 km/h
1323 03-04-2005 13:31:02 18.9 C 4.21 g/m*3 18.9 C 0 km/h
1324 03-04-2005 13:43:02 19.1 C 4.1 g/m*3 19.1 C 0 km/h
1325 03-04-2005 13:55:02 19.5 C 4.2 g/m*3 19.5 C 0 km/h
Sensor: Nr:Datum:Temp:Abs-Feuchte:Windchill:Wind:
Aussen-T/F 1326 03-04-2005 14:07:03 20.4 C 3.89 g/m*3 20.4 C 0 km/h
1327 03-04-2005 14:19:02 21.2 C 4.08 g/m*3 21.2 C 0 km/h
1328 03-04-2005 14:31:02 21.5 C 3.77 g/m*3 21.5 C 0 km/h
1329 03-04-2005 14:43:02 21.4 C 3.94 g/m*3 21.4 C 0 km/h
1330 03-04-2005 14:55:02 21.9 C 3.86 g/m*3 21.9 C 0 km/h
1331 03-04-2005 15:07:01 22 C 3.88 g/m*3 22 C 0 km/h
1332 03-04-2005 15:19:02 22.9 C 4.09 g/m*3 22.9 C 0 km/h
1333 03-04-2005 15:31:01 22.7 C 4.04 g/m*3 22.7 C 0 km/h
1334 03-04-2005 15:43:01 23.7 C 4.28 g/m*3 23.7 C 0 km/h
1335 03-04-2005 15:55:02 24.2 C 4.4 g/m*3 24.2 C 0 km/h
1336 03-04-2005 16:07:01 23.7 C 4.28 g/m*3 23.7 C 0 km/h
1337 03-04-2005 16:19:02 22 C 3.88 g/m*3 22 C 0 km/h
1338 03-04-2005 16:31:02 21.8 C 4.8 g/m*3 21.8 C 0 km/h
1339 03-04-2005 16:43:02 22.2 C 4.52 g/m*3 22.2 C 0 km/h
1340 03-04-2005 16:55:02 23.4 C 4.21 g/m*3 23.4 C 0 km/h
1341 03-04-2005 17:07:03 23.7 C 4.28 g/m*3 23.7 C 0 km/h
1342 03-04-2005 17:19:02 23.8 C 4.3 g/m*3 23.8 C 0 km/h
1343 03-04-2005 17:31:02 24.7 C 4.53 g/m*3 24.7 C 0 km/h
1344 03-04-2005 17:43:02 24.7 C 4.53 g/m*3 24.7 C 0 km/h
1345 03-04-2005 17:55:02 24.2 C 4.4 g/m*3 24.2 C 0 km/h
1346 03-04-2005 18:07:02 22.9 C 4.29 g/m*3 22.9 C 0 km/h
1347 03-04-2005 18:19:02 21.8 C 4.8 g/m*3 21.8 C 0 km/h
1348 03-04-2005 18:31:02 20.4 C 5.31 g/m*3 20.4 C 0 km/h
1349 03-04-2005 18:43:02 19.3 C 5.47 g/m*3 19.3 C 0 km/h
1350 03-04-2005 18:55:03 18.7 C 5.6 g/m*3 18.7 C 0 km/h
Sensor: Nr:Datum:Temp:Abs-Feuchte:Windchill:Wind:
Aussen-T/F 1351 03-04-2005 19:07:02 18.5 C 5.54 g/m*3 18.5 C 0 km/h
1352 03-04-2005 19:19:02 18.1 C 5.56 g/m*3 18.1 C 0 km/h
1353 03-04-2005 19:31:02 17.9 C 5.5 g/m*3 17.9 C 0 km/h
1354 03-04-2005 19:43:02 17.6 C 5.4 g/m*3 17.6 C 0 km/h
1355 03-04-2005 19:55:01 17.2 C 5.27 g/m*3 17.2 C 0 km/h
1356 03-04-2005 20:07:02 16.8 C 5.15 g/m*3 16.8 C 0 km/h
1357 03-04-2005 20:19:02 16.2 C 5.38 g/m*3 16.2 C 0 km/h
1358 03-04-2005 20:31:02 15.9 C 5.28 g/m*3 15.9 C 0 km/h
1359 03-04-2005 20:43:02 15.8 C 5.12 g/m*3 15.8 C 0 km/h
1360 03-04-2005 20:55:02 15.7 C 5.08 g/m*3 15.7 C 0 km/h
1361 03-04-2005 21:07:02 15.5 C 4.89 g/m*3 15.5 C 0 km/h
1362 03-04-2005 21:19:02 15.3 C 5.09 g/m*3 15.3 C 0 km/h
1363 03-04-2005 21:31:02 14.8 C 5.19 g/m*3 14.8 C 0 km/h
1364 03-04-2005 21:43:02 14.6 C 5.01 g/m*3 14.6 C 0 km/h
1365 03-04-2005 21:55:01 14.2 C 4.88 g/m*3 14.2 C 0 km/h
1366 03-04-2005 22:07:02 14.4 C 4.94 g/m*3 14.4 C 0 km/h
1367 03-04-2005 22:19:02 14.3 C 5.04 g/m*3 14.3 C 0 km/h
1368 03-04-2005 22:31:01 13.9 C 5.15 g/m*3 13.9 C 0 km/h
1369 03-04-2005 22:43:01 13.3 C 5.31 g/m*3 13.3 C 0 km/h
1370 03-04-2005 22:55:01 12.9 C 5.64 g/m*3 12.9 C 0 km/h
1371 03-04-2005 23:07:02 12.6 C 5.64 g/m*3 12.6 C 0 km/h
1372 03-04-2005 23:19:01 12.4 C 5.79 g/m*3 12.4 C 0 km/h
1373 03-04-2005 23:31:02 12.1 C 5.9 g/m*3 12.1 C 0 km/h
1374 03-04-2005 23:43:02 12 C 5.97 g/m*3 12 C 0 km/h
1375 03-04-2005 23:55:01 11.8 C 6.1 g/m*3 11.8 C 0 km/h
Sensor: Nr:Datum:Temp:Abs-Feuchte:Windchill:Wind:
Aussen-T/F 1376 04-04-2005 00:07:01 11.5 C 5.99 g/m*3 11.5 C 0 km/h
1377 04-04-2005 00:19:03 11.4 C 5.65 g/m*3 11.4 C 0 km/h
1378 04-04-2005 00:31:01 11.1 C 5.74 g/m*3 11.1 C 0 km/h
1379 04-04-2005 00:43:01 11 C 5.71 g/m*3 11 C 0 km/h
1380 04-04-2005 00:55:02 10.7 C 5.89 g/m*3 10.7 C 0 km/h
1381 04-04-2005 01:07:01 10.4 C 5.78 g/m*3 10.4 C 0 km/h
1382 04-04-2005 01:19:02 10.2 C 5.8 g/m*3 10.2 C 0 km/h
1383 04-04-2005 01:31:02 10.1 C 5.67 g/m*3 10.1 C 0 km/h
1384 04-04-2005 01:43:02 9.9 C 5.7 g/m*3 9.9 C 0 km/h
1385 04-04-2005 01:55:02 9.5 C 5.64 g/m*3 9.5 C 0 km/h
1386 04-04-2005 02:07:02 9.4 C 5.7 g/m*3 9.4 C 0 km/h
1387 04-04-2005 02:19:02 9 C 5.64 g/m*3 9 C 0 km/h
1388 04-04-2005 02:31:02 8.9 C 5.69 g/m*3 8.9 C 0 km/h
1389 04-04-2005 02:43:02 8.8 C 5.74 g/m*3 8.8 C 0 km/h
1390 04-04-2005 02:55:02 8.7 C 5.71 g/m*3 8.7 C 0 km/h
1391 04-04-2005 03:07:02 8.5 C 5.72 g/m*3 8.5 C 0 km/h
1392 04-04-2005 03:19:02 8.3 C 5.73 g/m*3 8.3 C 0 km/h
1393 04-04-2005 03:31:01 8 C 5.62 g/m*3 8 C 0 km/h
1394 04-04-2005 03:43:01 7.9 C 5.83 g/m*3 7.9 C 0 km/h
1395 04-04-2005 03:55:02 7.8 C 5.79 g/m*3 7.8 C 0 km/h
1396 04-04-2005 04:07:02 7.8 C 5.88 g/m*3 7.8 C 0 km/h
1397 04-04-2005 04:19:02 7.7 C 5.84 g/m*3 7.7 C 0 km/h
1398 04-04-2005 04:31:01 7.6 C 5.72 g/m*3 7.6 C 0 km/h
1399 04-04-2005 04:43:01 7.6 C 5.96 g/m*3 7.6 C 0 km/h
1400 04-04-2005 04:55:02 7.3 C 5.77 g/m*3 7.3 C 0 km/h
Sensor: Nr:Datum:Temp:Abs-Feuchte:Windchill:Wind:
Aussen-T/F 1401 04-04-2005 05:07:01 7.1 C 5.69 g/m*3 7.1 C 0 km/h
1402 04-04-2005 05:19:02 6.8 C 5.66 g/m*3 6.8 C 0 km/h
1403 04-04-2005 05:31:01 6.7 C 5.7 g/m*3 6.7 C 0 km/h
1404 04-04-2005 05:43:01 6.5 C 5.62 g/m*3 6.5 C 0 km/h
1405 04-04-2005 05:55:02 6.4 C 5.66 g/m*3 6.4 C 0 km/h
1406 04-04-2005 06:07:01 6.2 C 5.66 g/m*3 6.2 C 0 km/h
1407 04-04-2005 06:19:01 6.2 C 5.74 g/m*3 6.2 C 0 km/h
1408 04-04-2005 06:31:02 6 C 5.59 g/m*3 6 C 0 km/h
1409 04-04-2005 06:43:02 5.9 C 5.7 g/m*3 5.9 C 0 km/h
1410 04-04-2005 06:55:01 5.7 C 5.62 g/m*3 5.7 C 0 km/h
1411 04-04-2005 07:07:02 5.6 C 5.59 g/m*3 5.6 C 0 km/h
1412 04-04-2005 07:19:01 5.6 C 5.66 g/m*3 5.6 C 0 km/h
1413 04-04-2005 07:31:02 5.7 C 5.76 g/m*3 5.7 C 0 km/h
1414 04-04-2005 07:43:02 5.6 C 5.8 g/m*3 5.6 C 0 km/h
1415 04-04-2005 07:55:01 5.7 C 5.84 g/m*3 5.7 C 0 km/h
1416 04-04-2005 08:07:02 5.9 C 5.84 g/m*3 5.9 C 0 km/h
1417 04-04-2005 08:19:01 6 C 5.81 g/m*3 6 C 0 km/h
1418 04-04-2005 08:31:01 6.2 C 5.81 g/m*3 6.2 C 0 km/h
1419 04-04-2005 08:43:01 6.4 C 5.81 g/m*3 6.4 C 0 km/h
1420 04-04-2005 08:55:01 6.7 C 5.93 g/m*3 6.7 C 0 km/h
1421 04-04-2005 09:07:01 7 C 5.97 g/m*3 7 C 0 km/h
1422 04-04-2005 09:19:01 7.4 C 6.04 g/m*3 7.4 C 0 km/h
1423 04-04-2005 09:31:01 7.6 C 6.04 g/m*3 7.6 C 0 km/h
1424 04-04-2005 09:43:01 8 C 5.95 g/m*3 8 C 0 km/h
1425 04-04-2005 09:55:02 8.5 C 6.06 g/m*3 8.5 C 0 km/h
Sensor: Nr:Datum:Temp:Abs-Feuchte:Windchill:Wind:
Aussen-T/F 1426 04-04-2005 10:07:01 9.3 C 6.02 g/m*3 9.3 C 0 km/h
1427 04-04-2005 10:19:01 9.9 C 6.07 g/m*3 9.9 C 0 km/h
1428 04-04-2005 10:31:02 10.7 C 6.19 g/m*3 10.7 C 0 km/h
1429 04-04-2005 10:43:02 11.2 C 6.08 g/m*3 11.2 C 0 km/h
1430 04-04-2005 10:55:01 11.8 C 6.21 g/m*3 11.8 C 0 km/h
1431 04-04-2005 11:07:02 12.5 C 6.16 g/m*3 12.5 C 0 km/h
1432 04-04-2005 11:19:01 13.2 C 6.2 g/m*3 13.2 C 0 km/h
1433 04-04-2005 11:31:02 13.8 C 5.84 g/m*3 13.8 C 0 km/h
1434 04-04-2005 11:43:02 14.4 C 5.56 g/m*3 14.4 C 0 km/h
1435 04-04-2005 11:55:02 15.1 C 5.55 g/m*3 15.1 C 0 km/h
1436 04-04-2005 12:07:01 15.9 C 5.82 g/m*3 15.9 C 0 km/h
1437 04-04-2005 12:19:02 16.5 C 5.62 g/m*3 16.5 C 0 km/h
1438 04-04-2005 12:31:01 17 C 5.64 g/m*3 17 C 0 km/h
1439 04-04-2005 12:43:02 17.8 C 5.77 g/m*3 17.8 C 0 km/h
1440 04-04-2005 12:55:02 18.4 C 5.19 g/m*3 18.4 C 0 km/h
1441 04-04-2005 13:07:01 18.6 C 5.09 g/m*3 18.6 C 0 km/h
1442 04-04-2005 13:19:01 18.6 C 4.93 g/m*3 18.6 C 0 km/h
1443 04-04-2005 13:31:02 19.5 C 4.7 g/m*3 19.5 C 0 km/h
1444 04-04-2005 13:43:02 19.9 C 4.47 g/m*3 19.9 C 0 km/h
1445 04-04-2005 13:55:01 20 C 4.15 g/m*3 20 C 0 km/h
1446 04-04-2005 14:07:01 19.7 C 3.74 g/m*3 19.7 C 0 km/h
1447 04-04-2005 14:19:02 19.4 C 4.17 g/m*3 19.4 C 0 km/h
1448 04-04-2005 14:31:01 19.5 C 4.2 g/m*3 19.5 C 0 km/h
1449 04-04-2005 14:43:01 20.2 C 4.2 g/m*3 20.2 C 0 km/h
1450 04-04-2005 14:55:01 20.7 C 3.78 g/m*3 20.7 C 0 km/h
Sensor: Nr:Datum:Temp:Abs-Feuchte:Windchill:Wind:
Aussen-T/F 1451 04-04-2005 15:07:02 20.5 C 3.91 g/m*3 20.5 C 0 km/h
1452 04-04-2005 15:19:02 21 C 3.85 g/m*3 21 C 0 km/h
1453 04-04-2005 15:31:02 21 C 3.66 g/m*3 21 C 0 km/h
1454 04-04-2005 15:43:02 20.9 C 3.64 g/m*3 20.9 C 0 km/h
1455 04-04-2005 15:55:01 22 C 3.88 g/m*3 22 C 0 km/h
1456 04-04-2005 16:07:02 21.8 C 3.84 g/m*3 21.8 C 0 km/h
1457 04-04-2005 16:19:02 22.2 C 3.93 g/m*3 22.2 C 0 km/h
1458 04-04-2005 16:31:01 21.8 C 3.84 g/m*3 21.8 C 0 km/h
1459 04-04-2005 16:43:01 22.1 C 3.9 g/m*3 22.1 C 0 km/h
1460 04-04-2005 16:55:01 22 C 3.88 g/m*3 22 C 0 km/h
1461 04-04-2005 17:07:02 22 C 3.88 g/m*3 22 C 0 km/h
1462 04-04-2005 17:19:01 22 C 3.88 g/m*3 22 C 0 km/h
1463 04-04-2005 17:31:01 22.2 C 3.93 g/m*3 22.2 C 0 km/h
1464 04-04-2005 17:43:01 22.2 C 3.93 g/m*3 22.2 C 0 km/h
1465 04-04-2005 17:55:02 21.6 C 3.79 g/m*3 21.6 C 0 km/h
1466 04-04-2005 18:07:01 22 C 3.88 g/m*3 22 C 0 km/h
1467 04-04-2005 18:19:01 21.7 C 3.82 g/m*3 21.7 C 0 km/h
1468 04-04-2005 18:31:02 21 C 3.66 g/m*3 21 C 0 km/h
1469 04-04-2005 18:43:02 20.9 C 3.64 g/m*3 20.9 C 0 km/h
1470 04-04-2005 18:55:01 20.4 C 3.71 g/m*3 20.4 C 0 km/h
1471 04-04-2005 19:07:02 20.3 C 4.22 g/m*3 20.3 C 0 km/h
1472 04-04-2005 19:19:02 20 C 3.8 g/m*3 20 C 0 km/h
1473 04-04-2005 19:31:01 20 C 3.8 g/m*3 20 C 0 km/h
1474 04-04-2005 19:43:01 19.2 C 4.12 g/m*3 19.2 C 0 km/h
1475 04-04-2005 19:55:01 18.5 C 4.59 g/m*3 18.5 C 0 km/h
Sensor: Nr:Datum:Temp:Abs-Feuchte:Windchill:Wind:
Aussen-T/F 1476 04-04-2005 20:07:02 17.6 C 4.65 g/m*3 17.6 C 0 km/h
1477 04-04-2005 20:19:02 16.8 C 4.86 g/m*3 16.8 C 0 km/h
1478 04-04-2005 20:31:02 16.2 C 4.83 g/m*3 16.2 C 0 km/h
1479 04-04-2005 20:43:02 15.7 C 4.95 g/m*3 15.7 C 0 km/h
1480 04-04-2005 20:55:02 15.3 C 4.96 g/m*3 15.3 C 0 km/h
1481 04-04-2005 21:07:02 15 C 5.13 g/m*3 15 C 0 km/h
1482 04-04-2005 21:19:01 14.8 C 5.19 g/m*3 14.8 C 0 km/h
1483 04-04-2005 21:31:01 14.4 C 5.19 g/m*3 14.4 C 0 km/h
1484 04-04-2005 21:43:01 14.1 C 5.34 g/m*3 14.1 C 0 km/h
1485 04-04-2005 21:55:01 13.7 C 5.45 g/m*3 13.7 C 0 km/h
1486 04-04-2005 22:07:01 13.4 C 5.23 g/m*3 13.4 C 0 km/h
1487 04-04-2005 22:19:02 13.1 C 5.36 g/m*3 13.1 C 0 km/h
1488 04-04-2005 22:31:02 12.8 C 5.6 g/m*3 12.8 C 0 km/h
1489 04-04-2005 22:43:02 12.6 C 5.53 g/m*3 12.6 C 0 km/h
1490 04-04-2005 22:55:02 12.7 C 5.68 g/m*3 12.7 C 0 km/h
1491 04-04-2005 23:07:01 12.4 C 5.68 g/m*3 12.4 C 0 km/h
1492 04-04-2005 23:19:01 12.1 C 5.58 g/m*3 12.1 C 0 km/h
1493 04-04-2005 23:31:01 12 C 5.65 g/m*3 12 C 0 km/h
1494 04-04-2005 23:43:01 12.3 C 5.65 g/m*3 12.3 C 0 km/h
1495 04-04-2005 23:55:01 12 C 5.65 g/m*3 12 C 0 km/h
1496 05-04-2005 00:07:01 12.2 C 5.61 g/m*3 12.2 C 0 km/h
1497 05-04-2005 00:19:02 12.4 C 5.46 g/m*3 12.4 C 0 km/h
1498 05-04-2005 00:31:01 12.6 C 5.53 g/m*3 12.6 C 0 km/h
1499 05-04-2005 00:43:01 12.4 C 5.57 g/m*3 12.4 C 0 km/h
1500 05-04-2005 00:55:02 12.2 C 5.5 g/m*3 12.2 C 0 km/h
Sensor: Nr:Datum:Temp:Abs-Feuchte:Windchill:Wind:
Aussen-T/F 1501 05-04-2005 01:07:01 12.1 C 5.47 g/m*3 12.1 C 0 km/h
1502 05-04-2005 01:19:02 12.3 C 5.65 g/m*3 12.3 C 0 km/h
1503 05-04-2005 01:31:01 12.2 C 5.94 g/m*3 12.2 C 0 km/h
1504 05-04-2005 01:43:01 11.8 C 6 g/m*3 11.8 C 0 km/h
1505 05-04-2005 01:55:02 11.7 C 5.96 g/m*3 11.7 C 0 km/h
1506 05-04-2005 02:07:02 11.5 C 6.09 g/m*3 11.5 C 0 km/h
1507 05-04-2005 02:19:01 11.4 C 6.06 g/m*3 11.4 C 0 km/h
1508 05-04-2005 02:31:01 11.4 C 6.16 g/m*3 11.4 C 0 km/h
1509 05-04-2005 02:43:01 11.2 C 6.08 g/m*3 11.2 C 0 km/h
1510 05-04-2005 02:56:04 11.4 C 6.16 g/m*3 11.4 C 0 km/h
1511 05-04-2005 03:08:04 11.5 C 5.99 g/m*3 11.5 C 0 km/h
1512 05-04-2005 03:20:04 11.2 C 5.98 g/m*3 11.2 C 0 km/h
1513 05-04-2005 03:32:03 11.3 C 6.02 g/m*3 11.3 C 0 km/h
1514 05-04-2005 03:44:03 11.2 C 5.98 g/m*3 11.2 C 0 km/h
1515 05-04-2005 03:56:03 11.2 C 6.08 g/m*3 11.2 C 0 km/h
1516 05-04-2005 04:08:02 11.1 C 6.14 g/m*3 11.1 C 0 km/h
1517 05-04-2005 04:20:02 11 C 6.21 g/m*3 11 C 0 km/h
1518 05-04-2005 04:32:03 11.2 C 6.18 g/m*3 11.2 C 0 km/h
1519 05-04-2005 04:44:03 11.2 C 6.28 g/m*3 11.2 C 0 km/h
1520 05-04-2005 04:56:02 11.2 C 6.18 g/m*3 11.2 C 0 km/h
1521 05-04-2005 05:08:02 11.4 C 6.26 g/m*3 11.4 C 0 km/h
1522 05-04-2005 05:20:02 11.4 C 6.26 g/m*3 11.4 C 0 km/h
1523 05-04-2005 05:32:02 11.5 C 6.3 g/m*3 11.5 C 0 km/h
1524 05-04-2005 05:44:02 11.8 C 6.42 g/m*3 11.8 C 0 km/h
1525 05-04-2005 05:56:02 11.8 C 6.31 g/m*3 11.8 C 0 km/h
Sensor: Nr:Datum:Temp:Abs-Feuchte:Windchill:Wind:
Aussen-T/F 1526 05-04-2005 06:08:01 11.7 C 6.38 g/m*3 11.7 C 0 km/h
1527 05-04-2005 06:20:01 11.5 C 6.71 g/m*3 11.5 C 0 km/h
1528 05-04-2005 06:32:02 10.6 C 7.32 g/m*3 10.6 C 0 km/h
1529 05-04-2005 06:44:02 9.8 C 7.7 g/m*3 9.8 C 0 km/h
1530 05-04-2005 06:56:02 9.4 C 7.69 g/m*3 9.4 C 0 km/h
1531 05-04-2005 07:08:02 9 C 7.41 g/m*3 9 C 0 km/h
1532 05-04-2005 07:20:02 8.9 C 7.62 g/m*3 8.9 C 0 km/h
1533 05-04-2005 07:32:02 8.8 C 7.66 g/m*3 8.8 C 0 km/h
1534 05-04-2005 07:44:02 8.7 C 7.7 g/m*3 8.7 C 0 km/h
1535 05-04-2005 07:56:02 8.5 C 7.6 g/m*3 8.5 C 0 km/h
1536 05-04-2005 08:08:02 8.5 C 7.68 g/m*3 8.5 C 0 km/h
1537 05-04-2005 08:20:02 8.4 C 7.72 g/m*3 8.4 C 0 km/h
1538 05-04-2005 08:32:02 8.3 C 7.75 g/m*3 8.3 C 0 km/h
1539 05-04-2005 08:44:02 8.1 C 7.66 g/m*3 8.1 C 0 km/h
1540 05-04-2005 08:56:01 8.1 C 7.66 g/m*3 8.1 C 0 km/h
1541 05-04-2005 09:08:01 8 C 7.69 g/m*3 8 C 0 km/h
1542 05-04-2005 09:20:02 7.9 C 7.72 g/m*3 7.9 C 0 km/h
1543 05-04-2005 09:32:01 8.1 C 7.74 g/m*3 8.1 C 0 km/h
1544 05-04-2005 09:44:02 8.2 C 7.87 g/m*3 8.2 C 0 km/h
1545 05-04-2005 09:56:02 8 C 7.69 g/m*3 8 C 0 km/h
1546 05-04-2005 10:08:01 8.1 C 7.66 g/m*3 8.1 C 0 km/h
1547 05-04-2005 10:20:02 8.2 C 7.54 g/m*3 8.2 C 0 km/h
1548 05-04-2005 10:32:02 8.4 C 7.63 g/m*3 8.4 C 0 km/h
1549 05-04-2005 10:44:02 8.5 C 7.68 g/m*3 8.5 C 0 km/h
1550 05-04-2005 10:56:02 9 C 7.85 g/m*3 9 C 0 km/h
Sensor: Nr:Datum:Temp:Abs-Feuchte:Windchill:Wind:
Aussen-T/F 1551 05-04-2005 11:08:02 9.6 C 8.06 g/m*3 9.6 C 0 km/h
1552 05-04-2005 11:20:03 9.2 C 7.32 g/m*3 9.2 C 0 km/h
1553 05-04-2005 11:32:02 9.5 C 7.19 g/m*3 9.5 C 0 km/h
1554 05-04-2005 11:44:02 10.6 C 7.12 g/m*3 10.6 C 0 km/h
1555 05-04-2005 11:56:02 10.7 C 6.97 g/m*3 10.7 C 0 km/h
1556 05-04-2005 12:08:01 10.8 C 6.72 g/m*3 10.8 C 0 km/h
1557 05-04-2005 12:20:02 11 C 6.71 g/m*3 11 C 0 km/h
1558 05-04-2005 12:32:02 11.1 C 6.45 g/m*3 11.1 C 0 km/h
1559 05-04-2005 12:44:02 11.6 C 6.44 g/m*3 11.6 C 0 km/h
1560 05-04-2005 12:56:02 12.1 C 6.43 g/m*3 12.1 C 0 km/h
1561 05-04-2005 13:08:02 12.4 C 6.12 g/m*3 12.4 C 0 km/h
1562 05-04-2005 13:20:02 12.7 C 6.12 g/m*3 12.7 C 0 km/h
1563 05-04-2005 13:32:02 13.1 C 6.16 g/m*3 13.1 C 0 km/h
1564 05-04-2005 13:44:02 13.1 C 5.59 g/m*3 13.1 C 0 km/h
1565 05-04-2005 13:56:01 13.7 C 5.68 g/m*3 13.7 C 0 km/h
1566 05-04-2005 14:08:01 13.9 C 5.75 g/m*3 13.9 C 0 km/h
1567 05-04-2005 14:20:02 13.6 C 5.41 g/m*3 13.6 C 0 km/h
1568 05-04-2005 14:32:01 13.3 C 5.43 g/m*3 13.3 C 0 km/h
1569 05-04-2005 14:44:02 14.9 C 5.23 g/m*3 14.9 C 0 km/h
1570 05-04-2005 14:56:02 14.4 C 5.19 g/m*3 14.4 C 0 km/h
1571 05-04-2005 15:08:03 14.6 C 5.38 g/m*3 14.6 C 0 km/h
1572 05-04-2005 15:20:03 15 C 4.87 g/m*3 15 C 0 km/h
1573 05-04-2005 15:32:02 15.9 C 4.74 g/m*3 15.9 C 0 km/h
1574 05-04-2005 15:44:02 16.3 C 4.44 g/m*3 16.3 C 0 km/h
1575 05-04-2005 15:56:02 16.4 C 4.61 g/m*3 16.4 C 0 km/h
Sensor: Nr:Datum:Temp:Abs-Feuchte:Windchill:Wind:
Aussen-T/F 1576 05-04-2005 16:08:02 15.5 C 4.49 g/m*3 15.5 C 0 km/h
1577 05-04-2005 16:20:02 15.3 C 4.7 g/m*3 15.3 C 0 km/h
1578 05-04-2005 16:32:02 14.7 C 4.91 g/m*3 14.7 C 0 km/h
1579 05-04-2005 16:44:02 14.5 C 4.73 g/m*3 14.5 C 0 km/h
1580 05-04-2005 16:56:02 14.9 C 4.97 g/m*3 14.9 C 0 km/h
1581 05-04-2005 17:08:03 15 C 5.13 g/m*3 15 C 0 km/h
1582 05-04-2005 17:20:02 14.8 C 5.32 g/m*3 14.8 C 0 km/h
1583 05-04-2005 17:32:03 14.8 C 5.57 g/m*3 14.8 C 0 km/h
1584 05-04-2005 17:44:03 15.6 C 5.45 g/m*3 15.6 C 0 km/h
1585 05-04-2005 17:56:02 16.2 C 4.96 g/m*3 16.2 C 0 km/h
1586 05-04-2005 18:08:02 16.7 C 5.4 g/m*3 16.7 C 0 km/h
1587 05-04-2005 18:20:02 17.2 C 5.13 g/m*3 17.2 C 0 km/h
1588 05-04-2005 18:32:02 17 C 5.21 g/m*3 17 C 0 km/h
1589 05-04-2005 18:44:02 16.6 C 5.09 g/m*3 16.6 C 0 km/h
1590 05-04-2005 18:56:02 15.6 C 5.05 g/m*3 15.6 C 0 km/h
1591 05-04-2005 19:08:01 15.2 C 5.45 g/m*3 15.2 C 0 km/h
1592 05-04-2005 19:20:02 14.9 C 6.25 g/m*3 14.9 C 0 km/h
1593 05-04-2005 19:32:02 14.2 C 6.35 g/m*3 14.2 C 0 km/h
1594 05-04-2005 19:44:02 13.5 C 6.2 g/m*3 13.5 C 0 km/h
1595 05-04-2005 19:56:02 12.9 C 6.31 g/m*3 12.9 C 0 km/h
1596 05-04-2005 20:08:02 12.3 C 5.86 g/m*3 12.3 C 0 km/h
1597 05-04-2005 20:20:02 11.8 C 5.89 g/m*3 11.8 C 0 km/h
1598 05-04-2005 20:32:02 11.2 C 5.98 g/m*3 11.2 C 0 km/h
1599 05-04-2005 20:44:02 10.8 C 6.03 g/m*3 10.8 C 0 km/h
1600 05-04-2005 20:56:02 10.6 C 6.15 g/m*3 10.6 C 0 km/h
Sensor: Nr:Datum:Temp:Abs-Feuchte:Windchill:Wind:
Aussen-T/F 1601 05-04-2005 21:08:02 10.3 C 6.13 g/m*3 10.3 C 0 km/h
1602 05-04-2005 21:20:02 10 C 6.11 g/m*3 10 C 0 km/h
1603 05-04-2005 21:32:01 10 C 6.2 g/m*3 10 C 0 km/h
1604 05-04-2005 21:44:01 9.7 C 6.08 g/m*3 9.7 C 0 km/h
1605 05-04-2005 21:56:02 9.6 C 6.23 g/m*3 9.6 C 0 km/h
1606 05-04-2005 22:08:01 9.4 C 6.15 g/m*3 9.4 C 0 km/h
1607 05-04-2005 22:20:02 9.2 C 6.07 g/m*3 9.2 C 0 km/h
1608 05-04-2005 22:32:02 8.9 C 6.04 g/m*3 8.9 C 0 km/h
1609 05-04-2005 22:44:02 8.7 C 6.05 g/m*3 8.7 C 0 km/h
1610 05-04-2005 22:56:02 8.6 C 6.1 g/m*3 8.6 C 0 km/h
1611 05-04-2005 23:08:02 8.6 C 6.1 g/m*3 8.6 C 0 km/h
1612 05-04-2005 23:20:02 8.4 C 6.02 g/m*3 8.4 C 0 km/h
1613 05-04-2005 23:32:02 8.3 C 6.07 g/m*3 8.3 C 0 km/h
1614 05-04-2005 23:44:02 8.3 C 6.07 g/m*3 8.3 C 0 km/h
1615 05-04-2005 23:56:01 8.2 C 6.03 g/m*3 8.2 C 0 km/h
1616 06-04-2005 00:08:01 8.1 C 5.99 g/m*3 8.1 C 0 km/h
1617 06-04-2005 00:20:02 8.1 C 6.07 g/m*3 8.1 C 0 km/h
1618 06-04-2005 00:32:01 7.9 C 6.08 g/m*3 7.9 C 0 km/h
1619 06-04-2005 00:44:01 7.8 C 6.04 g/m*3 7.8 C 0 km/h
1620 06-04-2005 00:56:02 7.7 C 6.08 g/m*3 7.7 C 0 km/h
1621 06-04-2005 01:08:01 7.6 C 6.04 g/m*3 7.6 C 0 km/h
1622 06-04-2005 01:20:02 7.5 C 6 g/m*3 7.5 C 0 km/h
1623 06-04-2005 01:32:02 7.5 C 6 g/m*3 7.5 C 0 km/h
1624 06-04-2005 01:44:02 7.3 C 5.93 g/m*3 7.3 C 0 km/h
1625 06-04-2005 01:56:02 7.2 C 6.04 g/m*3 7.2 C 0 km/h
Sensor: Nr:Datum:Temp:Abs-Feuchte:Windchill:Wind:
Aussen-T/F 1626 06-04-2005 02:08:02 7.1 C 6.08 g/m*3 7.1 C 0 km/h
1627 06-04-2005 02:20:02 7 C 6.04 g/m*3 7 C 0 km/h
1628 06-04-2005 02:32:03 6.6 C 6.04 g/m*3 6.6 C 0 km/h
1629 06-04-2005 02:44:03 6.3 C 6 g/m*3 6.3 C 0 km/h
1630 06-04-2005 02:57:03 6.2 C 5.96 g/m*3 6.2 C 0 km/h
1631 06-04-2005 03:09:03 6 C 5.88 g/m*3 6 C 0 km/h
1632 06-04-2005 03:21:03 5.8 C 5.8 g/m*3 5.8 C 0 km/h
1633 06-04-2005 03:33:02 5.6 C 5.8 g/m*3 5.6 C 0 km/h
1634 06-04-2005 03:45:02 5.4 C 5.72 g/m*3 5.4 C 0 km/h
1635 06-04-2005 03:57:02 5.3 C 5.68 g/m*3 5.3 C 0 km/h
1636 06-04-2005 04:09:02 5 C 5.64 g/m*3 5 C 0 km/h
1637 06-04-2005 04:21:03 4.9 C 5.67 g/m*3 4.9 C 0 km/h
1638 06-04-2005 04:33:02 4.8 C 5.7 g/m*3 4.8 C 0 km/h
1639 06-04-2005 04:45:02 4.7 C 5.66 g/m*3 4.7 C 0 km/h
1640 06-04-2005 04:57:02 4.6 C 5.62 g/m*3 4.6 C 0 km/h
1641 06-04-2005 05:09:02 4.5 C 5.65 g/m*3 4.5 C 0 km/h
1642 06-04-2005 05:21:02 4.6 C 5.76 g/m*3 4.6 C 0 km/h
1643 06-04-2005 05:33:02 4.6 C 5.69 g/m*3 4.6 C 0 km/h
1644 06-04-2005 05:45:02 4.4 C 5.62 g/m*3 4.4 C 0 km/h
1645 06-04-2005 05:57:02 4.4 C 5.62 g/m*3 4.4 C 0 km/h
1646 06-04-2005 06:09:01 4.3 C 5.58 g/m*3 4.3 C 0 km/h
1647 06-04-2005 06:21:02 4.2 C 5.54 g/m*3 4.2 C 0 km/h
1648 06-04-2005 06:33:02 4.1 C 5.5 g/m*3 4.1 C 0 km/h
1649 06-04-2005 06:45:02 3.8 C 5.46 g/m*3 3.8 C 0 km/h
1650 06-04-2005 06:57:02 3.7 C 5.48 g/m*3 3.7 C 0 km/h
Sensor: Nr:Datum:Temp:Abs-Feuchte:Windchill:Wind:
Aussen-T/F 1651 06-04-2005 07:09:02 3.6 C 5.45 g/m*3 3.6 C 0 km/h
1652 06-04-2005 07:21:02 3.6 C 5.51 g/m*3 3.6 C 0 km/h
1653 06-04-2005 07:33:02 3.6 C 5.51 g/m*3 3.6 C 0 km/h
1654 06-04-2005 07:45:02 3.6 C 5.51 g/m*3 3.6 C 0 km/h
1655 06-04-2005 07:57:02 3.8 C 5.52 g/m*3 3.8 C 0 km/h
1656 06-04-2005 08:09:02 3.9 C 5.56 g/m*3 3.9 C 0 km/h
1657 06-04-2005 08:21:02 3.8 C 5.52 g/m*3 3.8 C 0 km/h
1658 06-04-2005 08:33:01 4 C 5.59 g/m*3 4 C 0 km/h
1659 06-04-2005 08:45:02 4.3 C 5.71 g/m*3 4.3 C 0 km/h
1660 06-04-2005 08:57:02 4.6 C 5.82 g/m*3 4.6 C 0 km/h
1661 06-04-2005 09:09:02 5.7 C 5.91 g/m*3 5.7 C 0 km/h
1662 06-04-2005 09:21:01 6.3 C 5.85 g/m*3 6.3 C 0 km/h
1663 06-04-2005 09:33:01 6.6 C 5.89 g/m*3 6.6 C 0 km/h
1664 06-04-2005 09:45:02 7.5 C 6.08 g/m*3 7.5 C 0 km/h
1665 06-04-2005 09:57:02 8.1 C 5.99 g/m*3 8.1 C 0 km/h
1666 06-04-2005 10:09:02 9.1 C 6.21 g/m*3 9.1 C 0 km/h
1667 06-04-2005 10:21:02 9.6 C 5.95 g/m*3 9.6 C 0 km/h
1668 06-04-2005 10:33:02 9.5 C 5.92 g/m*3 9.5 C 0 km/h
1669 06-04-2005 10:45:01 9.7 C 5.99 g/m*3 9.7 C 0 km/h
1670 06-04-2005 10:57:01 10.2 C 6 g/m*3 10.2 C 0 km/h
1671 06-04-2005 11:09:01 10.7 C 6.19 g/m*3 10.7 C 0 km/h
1672 06-04-2005 11:21:01 11.1 C 6.14 g/m*3 11.1 C 0 km/h
1673 06-04-2005 11:33:01 11.7 C 6.28 g/m*3 11.7 C 0 km/h
1674 06-04-2005 11:45:01 12.2 C 5.72 g/m*3 12.2 C 0 km/h
1675 06-04-2005 11:57:01 12.8 C 5.49 g/m*3 12.8 C 0 km/h
Sensor: Nr:Datum:Temp:Abs-Feuchte:Windchill:Wind:
Aussen-T/F 1676 06-04-2005 12:09:02 13.5 C 4.68 g/m*3 13.5 C 0 km/h
1677 06-04-2005 12:21:01 14.2 C 4.88 g/m*3 14.2 C 0 km/h
1678 06-04-2005 12:33:01 14.4 C 5.07 g/m*3 14.4 C 0 km/h
1679 06-04-2005 12:45:01 14.2 C 4.88 g/m*3 14.2 C 0 km/h
1680 06-04-2005 12:57:01 13.7 C 5.09 g/m*3 13.7 C 0 km/h
1681 06-04-2005 13:09:01 13.8 C 5.24 g/m*3 13.8 C 0 km/h
1682 06-04-2005 13:21:02 15 C 5.13 g/m*3 15 C 0 km/h
1683 06-04-2005 13:33:01 14.8 C 5.07 g/m*3 14.8 C 0 km/h
1684 06-04-2005 13:45:02 15.4 C 4.73 g/m*3 15.4 C 0 km/h
1685 06-04-2005 13:57:02 15.8 C 4.71 g/m*3 15.8 C 0 km/h
1686 06-04-2005 14:09:02 15.8 C 4.58 g/m*3 15.8 C 0 km/h
1687 06-04-2005 14:21:01 16.1 C 4.66 g/m*3 16.1 C 0 km/h
1688 06-04-2005 14:33:02 16.4 C 4.61 g/m*3 16.4 C 0 km/h
1689 06-04-2005 14:45:01 16 C 4.63 g/m*3 16 C 0 km/h
1690 06-04-2005 14:57:01 15.5 C 4.49 g/m*3 15.5 C 0 km/h
1691 06-04-2005 15:09:01 15.9 C 4.74 g/m*3 15.9 C 0 km/h
1692 06-04-2005 15:21:02 15.6 C 4.65 g/m*3 15.6 C 0 km/h
1693 06-04-2005 15:33:01 16.2 C 4.41 g/m*3 16.2 C 0 km/h
1694 06-04-2005 15:45:02 15.8 C 4.71 g/m*3 15.8 C 0 km/h
1695 06-04-2005 15:57:02 16.3 C 4.86 g/m*3 16.3 C 0 km/h
1696 06-04-2005 16:09:01 15.8 C 4.98 g/m*3 15.8 C 0 km/h
1697 06-04-2005 16:21:02 16 C 5.04 g/m*3 16 C 0 km/h
1698 06-04-2005 16:33:02 15.6 C 5.19 g/m*3 15.6 C 0 km/h
1699 06-04-2005 16:45:02 15.6 C 5.32 g/m*3 15.6 C 0 km/h
1700 06-04-2005 16:57:02 15.4 C 5.26 g/m*3 15.4 C 0 km/h
Sensor: Nr:Datum:Temp:Abs-Feuchte:Windchill:Wind:
Aussen-T/F 1701 06-04-2005 17:09:02 15.4 C 5.39 g/m*3 15.4 C 0 km/h
1702 06-04-2005 17:21:02 15.3 C 5.48 g/m*3 15.3 C 0 km/h
1703 06-04-2005 17:33:02 15.1 C 5.55 g/m*3 15.1 C 0 km/h
1704 06-04-2005 17:45:01 14.3 C 6.14 g/m*3 14.3 C 0 km/h
1705 06-04-2005 17:57:01 14.2 C 6.47 g/m*3 14.2 C 0 km/h
1706 06-04-2005 18:09:01 14 C 6.75 g/m*3 14 C 0 km/h
1707 06-04-2005 18:21:02 14.4 C 6.8 g/m*3 14.4 C 0 km/h
1708 06-04-2005 18:33:01 14.5 C 6.34 g/m*3 14.5 C 0 km/h
1709 06-04-2005 18:45:02 14.4 C 6.3 g/m*3 14.4 C 0 km/h
1710 06-04-2005 18:57:02 14.2 C 6.35 g/m*3 14.2 C 0 km/h
1711 06-04-2005 19:09:02 14 C 6.39 g/m*3 14 C 0 km/h
1712 06-04-2005 19:21:02 13.8 C 6.55 g/m*3 13.8 C 0 km/h
1713 06-04-2005 19:33:03 13.7 C 6.51 g/m*3 13.7 C 0 km/h
1714 06-04-2005 19:45:03 13.5 C 6.55 g/m*3 13.5 C 0 km/h
1715 06-04-2005 19:57:03 13.3 C 6.7 g/m*3 13.3 C 0 km/h
1716 06-04-2005 20:09:03 13.2 C 6.77 g/m*3 13.2 C 0 km/h
1717 06-04-2005 20:21:02 13.1 C 6.85 g/m*3 13.1 C 0 km/h
1718 06-04-2005 20:33:03 13.1 C 6.85 g/m*3 13.1 C 0 km/h
1719 06-04-2005 20:45:02 13.1 C 6.73 g/m*3 13.1 C 0 km/h
1720 06-04-2005 20:57:02 13.2 C 6.77 g/m*3 13.2 C 0 km/h
1721 06-04-2005 21:09:03 13.2 C 6.66 g/m*3 13.2 C 0 km/h
1722 06-04-2005 21:21:03 13.2 C 6.77 g/m*3 13.2 C 0 km/h
1723 06-04-2005 21:33:02 13.3 C 6.82 g/m*3 13.3 C 0 km/h
1724 06-04-2005 21:45:01 13.3 C 6.93 g/m*3 13.3 C 0 km/h
1725 06-04-2005 21:57:01 13.3 C 7.05 g/m*3 13.3 C 0 km/h
Sensor: Nr:Datum:Temp:Abs-Feuchte:Windchill:Wind:
Aussen-T/F 1726 06-04-2005 22:09:01 13.3 C 7.05 g/m*3 13.3 C 0 km/h
1727 06-04-2005 22:21:02 13.2 C 7 g/m*3 13.2 C 0 km/h
1728 06-04-2005 22:33:01 13.3 C 7.05 g/m*3 13.3 C 0 km/h
1729 06-04-2005 22:45:02 13.3 C 7.39 g/m*3 13.3 C 0 km/h
1730 06-04-2005 22:57:02 13.1 C 7.65 g/m*3 13.1 C 0 km/h
1731 06-04-2005 23:09:02 13.1 C 7.53 g/m*3 13.1 C 0 km/h
1732 06-04-2005 23:21:03 13.4 C 7.56 g/m*3 13.4 C 0 km/h
1733 06-04-2005 23:33:02 13.4 C 7.56 g/m*3 13.4 C 0 km/h
1734 06-04-2005 23:45:01 13.3 C 7.63 g/m*3 13.3 C 0 km/h
1735 06-04-2005 23:57:01 13.2 C 7.58 g/m*3 13.2 C 0 km/h
1736 07-04-2005 00:09:02 13.2 C 7.69 g/m*3 13.2 C 0 km/h
1737 07-04-2005 00:21:02 13.1 C 7.65 g/m*3 13.1 C 0 km/h
1738 07-04-2005 00:33:02 13.1 C 7.53 g/m*3 13.1 C 0 km/h
1739 07-04-2005 00:45:02 13.1 C 7.53 g/m*3 13.1 C 0 km/h
1740 07-04-2005 00:57:02 13.1 C 7.42 g/m*3 13.1 C 0 km/h
1741 07-04-2005 01:09:02 12.9 C 7.55 g/m*3 12.9 C 0 km/h
1742 07-04-2005 01:21:02 12.6 C 7.52 g/m*3 12.6 C 0 km/h
1743 07-04-2005 01:33:01 12.3 C 7.71 g/m*3 12.3 C 0 km/h
1744 07-04-2005 01:45:03 12 C 7.89 g/m*3 12 C 0 km/h
1745 07-04-2005 01:57:03 11.7 C 8.26 g/m*3 11.7 C 0 km/h
1746 07-04-2005 02:09:02 11.3 C 8.57 g/m*3 11.3 C 0 km/h
1747 07-04-2005 02:21:03 11.2 C 8.82 g/m*3 11.2 C 0 km/h
1748 07-04-2005 02:33:02 11.2 C 8.92 g/m*3 11.2 C 0 km/h
1749 07-04-2005 02:46:03 11.1 C 8.96 g/m*3 11.1 C 0 km/h
1750 07-04-2005 02:58:03 11.2 C 9.12 g/m*3 11.2 C 0 km/h
Sensor: Nr:Datum:Temp:Abs-Feuchte:Windchill:Wind:
Aussen-T/F 1751 07-04-2005 03:10:03 11.1 C 8.96 g/m*3 11.1 C 0 km/h
1752 07-04-2005 03:22:03 11 C 8.91 g/m*3 11 C 0 km/h
1753 07-04-2005 03:34:02 11 C 8.91 g/m*3 11 C 0 km/h
1754 07-04-2005 03:46:02 10.9 C 8.85 g/m*3 10.9 C 0 km/h
1755 07-04-2005 03:58:02 10.8 C 8.8 g/m*3 10.8 C 0 km/h
1756 07-04-2005 04:10:02 10.8 C 8.8 g/m*3 10.8 C 0 km/h
1757 07-04-2005 04:22:02 10.7 C 8.64 g/m*3 10.7 C 0 km/h
1758 07-04-2005 04:34:02 10.7 C 8.64 g/m*3 10.7 C 0 km/h
1759 07-04-2005 04:46:02 10.8 C 8.6 g/m*3 10.8 C 0 km/h
1760 07-04-2005 04:58:02 10.7 C 8.55 g/m*3 10.7 C 0 km/h
1761 07-04-2005 05:10:02 10.7 C 8.64 g/m*3 10.7 C 0 km/h
1762 07-04-2005 05:22:02 10.8 C 8.6 g/m*3 10.8 C 0 km/h
1763 07-04-2005 05:34:02 11.2 C 8.51 g/m*3 11.2 C 0 km/h
1764 07-04-2005 05:46:01 11.5 C 8.37 g/m*3 11.5 C 0 km/h
1765 07-04-2005 05:58:01 11.5 C 8.47 g/m*3 11.5 C 0 km/h
1766 07-04-2005 06:10:02 11.5 C 8.37 g/m*3 11.5 C 0 km/h
1767 07-04-2005 06:22:02 11.8 C 8.31 g/m*3 11.8 C 0 km/h
1768 07-04-2005 06:34:01 11.8 C 8.31 g/m*3 11.8 C 0 km/h
1769 07-04-2005 06:46:03 11.6 C 8.32 g/m*3 11.6 C 0 km/h
1770 07-04-2005 06:58:03 11.6 C 8.42 g/m*3 11.6 C 0 km/h
1771 07-04-2005 07:10:02 11.7 C 8.37 g/m*3 11.7 C 0 km/h
1772 07-04-2005 07:22:02 11.5 C 8.47 g/m*3 11.5 C 0 km/h
1773 07-04-2005 07:34:02 11.2 C 8.31 g/m*3 11.2 C 0 km/h
1774 07-04-2005 07:46:02 10.9 C 8.06 g/m*3 10.9 C 0 km/h
1775 07-04-2005 07:58:02 10.7 C 7.66 g/m*3 10.7 C 0 km/h
Sensor: Nr:Datum:Temp:Abs-Feuchte:Windchill:Wind:
Aussen-T/F 1776 07-04-2005 08:10:02 10.1 C 7.56 g/m*3 10.1 C 0 km/h
1777 07-04-2005 08:22:02 10 C 7.61 g/m*3 10 C 0 km/h
1778 07-04-2005 08:34:03 10.2 C 7.52 g/m*3 10.2 C 0 km/h
1779 07-04-2005 08:46:02 10.4 C 7.23 g/m*3 10.4 C 0 km/h
1780 07-04-2005 08:58:02 10.6 C 7.32 g/m*3 10.6 C 0 km/h
1781 07-04-2005 09:10:02 10.8 C 7.31 g/m*3 10.8 C 0 km/h
1782 07-04-2005 09:22:02 11.1 C 7.35 g/m*3 11.1 C 0 km/h
1783 07-04-2005 09:34:02 11.2 C 7.2 g/m*3 11.2 C 0 km/h
1784 07-04-2005 09:46:01 11.3 C 7.24 g/m*3 11.3 C 0 km/h
1785 07-04-2005 09:58:01 11.7 C 7.32 g/m*3 11.7 C 0 km/h
1786 07-04-2005 10:10:01 11.9 C 7.31 g/m*3 11.9 C 0 km/h
1787 07-04-2005 10:22:01 11.5 C 7.13 g/m*3 11.5 C 0 km/h
1788 07-04-2005 10:34:03 11.2 C 6.59 g/m*3 11.2 C 0 km/h
1789 07-04-2005 10:46:02 11.4 C 6.16 g/m*3 11.4 C 0 km/h
1790 07-04-2005 10:58:02 11.5 C 5.68 g/m*3 11.5 C 0 km/h
1791 07-04-2005 11:10:01 11.7 C 5.44 g/m*3 11.7 C 0 km/h
1792 07-04-2005 11:22:01 11.9 C 5.4 g/m*3 11.9 C 0 km/h
1793 07-04-2005 11:34:02 11.8 C 5.26 g/m*3 11.8 C 0 km/h
1794 07-04-2005 11:46:02 11.8 C 5.05 g/m*3 11.8 C 0 km/h
1795 07-04-2005 11:58:02 12.2 C 4.75 g/m*3 12.2 C 0 km/h
1796 07-04-2005 12:10:03 12 C 4.58 g/m*3 12 C 0 km/h
1797 07-04-2005 12:22:02 12.1 C 4.29 g/m*3 12.1 C 0 km/h
1798 07-04-2005 12:34:02 12.3 C 4.78 g/m*3 12.3 C 0 km/h
1799 07-04-2005 12:46:02 12.7 C 4.68 g/m*3 12.7 C 0 km/h
1800 07-04-2005 12:58:02 13 C 4.42 g/m*3 13 C 0 km/h
Sensor: Nr:Datum:Temp:Abs-Feuchte:Windchill:Wind:
Aussen-T/F 1801 07-04-2005 13:10:02 13.5 C 4.33 g/m*3 13.5 C 0 km/h
1802 07-04-2005 13:22:03 13.6 C 4.24 g/m*3 13.6 C 0 km/h
1803 07-04-2005 13:34:02 13.8 C 4.17 g/m*3 13.8 C 0 km/h
1804 07-04-2005 13:46:02 14 C 4.22 g/m*3 14 C 0 km/h
1805 07-04-2005 13:58:03 14.4 C 4.33 g/m*3 14.4 C 0 km/h
1806 07-04-2005 14:10:02 14.7 C 4.28 g/m*3 14.7 C 0 km/h
1807 07-04-2005 14:22:01 14.4 C 4.33 g/m*3 14.4 C 0 km/h
1808 07-04-2005 14:34:02 15 C 4.23 g/m*3 15 C 0 km/h
1809 07-04-2005 14:46:01 15.1 C 4.13 g/m*3 15.1 C 0 km/h
1810 07-04-2005 14:58:01 15.6 C 4.12 g/m*3 15.6 C 0 km/h
1811 07-04-2005 15:10:01 15.5 C 4.1 g/m*3 15.5 C 0 km/h
1812 07-04-2005 15:22:02 15.6 C 3.99 g/m*3 15.6 C 0 km/h
1813 07-04-2005 15:34:01 14.8 C 4.18 g/m*3 14.8 C 0 km/h
1814 07-04-2005 15:46:02 15.4 C 4.07 g/m*3 15.4 C 0 km/h
1815 07-04-2005 15:58:02 14.7 C 4.28 g/m*3 14.7 C 0 km/h
1816 07-04-2005 16:10:02 15.1 C 4.26 g/m*3 15.1 C 0 km/h
1817 07-04-2005 16:22:01 15.3 C 4.05 g/m*3 15.3 C 0 km/h
1818 07-04-2005 16:34:02 15 C 3.98 g/m*3 15 C 0 km/h
1819 07-04-2005 16:46:02 15 C 3.85 g/m*3 15 C 0 km/h
1820 07-04-2005 16:58:02 15.2 C 4.02 g/m*3 15.2 C 0 km/h
1821 07-04-2005 17:10:01 14.7 C 4.03 g/m*3 14.7 C 0 km/h
1822 07-04-2005 17:22:02 14.4 C 4.33 g/m*3 14.4 C 0 km/h
1823 07-04-2005 17:34:01 14.5 C 4.35 g/m*3 14.5 C 0 km/h
1824 07-04-2005 17:46:02 14.1 C 4.25 g/m*3 14.1 C 0 km/h
1825 07-04-2005 17:58:02 14.4 C 4.33 g/m*3 14.4 C 0 km/h
Sensor: Nr:Datum:Temp:Abs-Feuchte:Windchill:Wind:
Aussen-T/F 1826 07-04-2005 18:10:02 14.8 C 4.56 g/m*3 14.8 C 0 km/h
1827 07-04-2005 18:22:02 14.4 C 4.08 g/m*3 14.4 C 0 km/h
1828 07-04-2005 18:34:02 14.2 C 4.15 g/m*3 14.2 C 0 km/h
1829 07-04-2005 18:46:01 14.2 C 4.27 g/m*3 14.2 C 0 km/h
1830 07-04-2005 18:58:01 14.1 C 4.25 g/m*3 14.1 C 0 km/h
1831 07-04-2005 19:10:01 13.7 C 4.38 g/m*3 13.7 C 0 km/h
1832 07-04-2005 19:22:02 13.1 C 4.45 g/m*3 13.1 C 0 km/h
1833 07-04-2005 19:34:01 13.2 C 4.59 g/m*3 13.2 C 0 km/h
1834 07-04-2005 19:46:02 12.9 C 4.62 g/m*3 12.9 C 0 km/h
1835 07-04-2005 19:58:02 12.5 C 4.73 g/m*3 12.5 C 0 km/h
1836 07-04-2005 20:10:02 12.2 C 4.75 g/m*3 12.2 C 0 km/h
1837 07-04-2005 20:22:02 11.7 C 5.23 g/m*3 11.7 C 0 km/h
1838 07-04-2005 20:34:02 11.2 C 5.17 g/m*3 11.2 C 0 km/h
1839 07-04-2005 20:46:02 10.7 C 5.3 g/m*3 10.7 C 0 km/h
1840 07-04-2005 20:58:02 10.5 C 5.24 g/m*3 10.5 C 0 km/h
1841 07-04-2005 21:10:02 10.3 C 5.27 g/m*3 10.3 C 0 km/h
1842 07-04-2005 21:22:02 10 C 5.26 g/m*3 10 C 0 km/h
1843 07-04-2005 21:34:02 10 C 5.07 g/m*3 10 C 0 km/h
1844 07-04-2005 21:46:02 9.7 C 5.44 g/m*3 9.7 C 0 km/h
1845 07-04-2005 21:58:02 9.3 C 5.39 g/m*3 9.3 C 0 km/h
1846 07-04-2005 22:10:01 9.2 C 5.36 g/m*3 9.2 C 0 km/h
1847 07-04-2005 22:22:02 9 C 5.29 g/m*3 9 C 0 km/h
1848 07-04-2005 22:34:02 9 C 5.38 g/m*3 9 C 0 km/h
1849 07-04-2005 22:46:02 8.9 C 5.43 g/m*3 8.9 C 0 km/h
1850 07-04-2005 22:58:02 8.6 C 5.5 g/m*3 8.6 C 0 km/h
Sensor: Nr:Datum:Temp:Abs-Feuchte:Windchill:Wind:
Aussen-T/F 1851 07-04-2005 23:10:02 8.9 C 5.52 g/m*3 8.9 C 0 km/h
1852 07-04-2005 23:22:02 9 C 5.55 g/m*3 9 C 0 km/h
1853 07-04-2005 23:34:02 9.2 C 5.63 g/m*3 9.2 C 0 km/h
1854 07-04-2005 23:46:01 9.4 C 5.61 g/m*3 9.4 C 0 km/h
1855 07-04-2005 23:58:01 8.5 C 6.32 g/m*3 8.5 C 0 km/h
1856 08-04-2005 00:10:01 7.9 C 6.98 g/m*3 7.9 C 0 km/h
1857 08-04-2005 00:22:03 8 C 7.19 g/m*3 8 C 0 km/h
1858 08-04-2005 00:34:02 7.7 C 7.14 g/m*3 7.7 C 0 km/h
1859 08-04-2005 00:46:02 7.5 C 7.04 g/m*3 7.5 C 0 km/h
1860 08-04-2005 00:58:02 7.4 C 7.08 g/m*3 7.4 C 0 km/h
1861 08-04-2005 01:10:01 7.4 C 7 g/m*3 7.4 C 0 km/h
1862 08-04-2005 01:22:02 7.4 C 7 g/m*3 7.4 C 0 km/h
1863 08-04-2005 01:34:02 7.5 C 6.96 g/m*3 7.5 C 0 km/h
1864 08-04-2005 01:46:02 7.8 C 7.1 g/m*3 7.8 C 0 km/h
1865 08-04-2005 01:58:02 7.4 C 6.92 g/m*3 7.4 C 0 km/h
1866 08-04-2005 02:10:02 7.2 C 6.83 g/m*3 7.2 C 0 km/h
1867 08-04-2005 02:22:02 7.2 C 6.91 g/m*3 7.2 C 0 km/h
1868 08-04-2005 02:34:02 7.2 C 6.91 g/m*3 7.2 C 0 km/h
1869 08-04-2005 02:47:04 7.2 C 6.91 g/m*3 7.2 C 0 km/h
1870 08-04-2005 02:59:04 7.1 C 6.79 g/m*3 7.1 C 0 km/h
1871 08-04-2005 03:11:04 7.2 C 6.83 g/m*3 7.2 C 0 km/h
1872 08-04-2005 03:23:05 7.2 C 6.75 g/m*3 7.2 C 0 km/h
1873 08-04-2005 03:35:03 7.4 C 6.92 g/m*3 7.4 C 0 km/h
1874 08-04-2005 03:47:03 7.4 C 6.92 g/m*3 7.4 C 0 km/h
1875 08-04-2005 03:59:03 7.4 C 6.92 g/m*3 7.4 C 0 km/h
Sensor: Nr:Datum:Temp:Abs-Feuchte:Windchill:Wind:
Aussen-T/F 1876 08-04-2005 04:11:02 7.6 C 6.93 g/m*3 7.6 C 0 km/h
1877 08-04-2005 04:23:03 7.7 C 6.97 g/m*3 7.7 C 0 km/h
1878 08-04-2005 04:35:02 7.7 C 6.89 g/m*3 7.7 C 0 km/h
1879 08-04-2005 04:47:02 7.5 C 6.88 g/m*3 7.5 C 0 km/h
1880 08-04-2005 04:59:02 7.5 C 7.04 g/m*3 7.5 C 0 km/h
1881 08-04-2005 05:11:02 7.3 C 7.11 g/m*3 7.3 C 0 km/h
1882 08-04-2005 05:23:02 7.3 C 7.27 g/m*3 7.3 C 0 km/h
1883 08-04-2005 05:35:02 6.8 C 7.11 g/m*3 6.8 C 0 km/h
1884 08-04-2005 05:47:02 6.5 C 6.9 g/m*3 6.5 C 0 km/h
1885 08-04-2005 05:59:02 6.4 C 6.85 g/m*3 6.4 C 0 km/h
1886 08-04-2005 06:11:02 6.1 C 6.72 g/m*3 6.1 C 0 km/h
1887 08-04-2005 06:23:02 5.9 C 6.71 g/m*3 5.9 C 0 km/h
1888 08-04-2005 06:35:02 5.7 C 6.62 g/m*3 5.7 C 0 km/h
1889 08-04-2005 06:47:02 5.6 C 6.57 g/m*3 5.6 C 0 km/h
1890 08-04-2005 06:59:02 5.6 C 6.65 g/m*3 5.6 C 0 km/h
1891 08-04-2005 07:11:02 5.6 C 6.65 g/m*3 5.6 C 0 km/h
1892 08-04-2005 07:23:02 5.7 C 6.69 g/m*3 5.7 C 0 km/h
1893 08-04-2005 07:35:02 5.7 C 6.69 g/m*3 5.7 C 0 km/h
1894 08-04-2005 07:47:02 5.6 C 6.65 g/m*3 5.6 C 0 km/h
1895 08-04-2005 07:59:02 5.6 C 6.57 g/m*3 5.6 C 0 km/h
1896 08-04-2005 08:11:02 5.7 C 6.55 g/m*3 5.7 C 0 km/h
1897 08-04-2005 08:23:02 5.8 C 6.59 g/m*3 5.8 C 0 km/h
1898 08-04-2005 08:35:02 5.7 C 6.48 g/m*3 5.7 C 0 km/h
1899 08-04-2005 08:47:02 5.6 C 6.43 g/m*3 5.6 C 0 km/h
1900 08-04-2005 08:59:02 5.9 C 6.42 g/m*3 5.9 C 0 km/h
Sensor: Nr:Datum:Temp:Abs-Feuchte:Windchill:Wind:
Aussen-T/F 1901 08-04-2005 09:11:01 5.7 C 6.33 g/m*3 5.7 C 0 km/h
1902 08-04-2005 09:23:02 5.7 C 6.19 g/m*3 5.7 C 0 km/h
1903 08-04-2005 09:35:02 6 C 6.17 g/m*3 6 C 0 km/h
1904 08-04-2005 09:47:02 6.4 C 6.26 g/m*3 6.4 C 0 km/h
1905 08-04-2005 09:59:02 6.9 C 6.24 g/m*3 6.9 C 0 km/h
1906 08-04-2005 10:11:02 7.4 C 6.12 g/m*3 7.4 C 0 km/h
1907 08-04-2005 10:23:02 8.2 C 6.03 g/m*3 8.2 C 0 km/h
1908 08-04-2005 10:35:03 8.2 C 5.78 g/m*3 8.2 C 0 km/h
1909 08-04-2005 10:47:02 8.3 C 5.82 g/m*3 8.3 C 0 km/h
1910 08-04-2005 10:59:02 8.5 C 5.81 g/m*3 8.5 C 0 km/h
1911 08-04-2005 11:11:03 8.6 C 5.76 g/m*3 8.6 C 0 km/h
1912 08-04-2005 11:23:03 8.7 C 5.53 g/m*3 8.7 C 0 km/h
1913 08-04-2005 11:35:02 8.6 C 5.76 g/m*3 8.6 C 0 km/h
1914 08-04-2005 11:47:02 8.1 C 5.41 g/m*3 8.1 C 0 km/h
1915 08-04-2005 11:59:02 8.4 C 5.6 g/m*3 8.4 C 0 km/h
1916 08-04-2005 12:11:02 8.8 C 5.57 g/m*3 8.8 C 0 km/h
1917 08-04-2005 12:23:02 9.1 C 5.41 g/m*3 9.1 C 0 km/h
1918 08-04-2005 12:35:01 9 C 5.29 g/m*3 9 C 0 km/h
1919 08-04-2005 12:47:01 9.3 C 5.12 g/m*3 9.3 C 0 km/h
1920 08-04-2005 12:59:01 9.4 C 5.25 g/m*3 9.4 C 0 km/h
1921 08-04-2005 13:11:01 10.6 C 5.37 g/m*3 10.6 C 0 km/h
1922 08-04-2005 13:23:02 11.2 C 5.17 g/m*3 11.2 C 0 km/h
1923 08-04-2005 13:35:02 11 C 4.8 g/m*3 11 C 0 km/h
1924 08-04-2005 13:47:02 10.7 C 4.81 g/m*3 10.7 C 0 km/h
1925 08-04-2005 13:59:02 11.2 C 4.97 g/m*3 11.2 C 0 km/h
Sensor: Nr:Datum:Temp:Abs-Feuchte:Windchill:Wind:
Aussen-T/F 1926 08-04-2005 14:11:03 11.4 C 4.62 g/m*3 11.4 C 0 km/h
1927 08-04-2005 14:23:02 11.9 C 4.45 g/m*3 11.9 C 0 km/h
1928 08-04-2005 14:35:02 11.7 C 4.18 g/m*3 11.7 C 0 km/h
1929 08-04-2005 14:47:02 11.1 C 4.33 g/m*3 11.1 C 0 km/h
1930 08-04-2005 14:59:02 11.2 C 4.36 g/m*3 11.2 C 0 km/h
1931 08-04-2005 15:11:02 11.9 C 4.45 g/m*3 11.9 C 0 km/h
1932 08-04-2005 15:23:02 11.9 C 4.45 g/m*3 11.9 C 0 km/h
1933 08-04-2005 15:35:02 13.1 C 4.45 g/m*3 13.1 C 0 km/h
1934 08-04-2005 15:47:01 12.7 C 4.45 g/m*3 12.7 C 0 km/h
1935 08-04-2005 15:59:01 13 C 4.42 g/m*3 13 C 0 km/h
1936 08-04-2005 16:11:02 13.4 C 4.3 g/m*3 13.4 C 0 km/h
1937 08-04-2005 16:23:02 13.1 C 4.56 g/m*3 13.1 C 0 km/h
1938 08-04-2005 16:35:01 10.7 C 4.91 g/m*3 10.7 C 0 km/h
1939 08-04-2005 16:47:02 9.7 C 5.07 g/m*3 9.7 C 0 km/h
1940 08-04-2005 16:59:02 8.9 C 5.34 g/m*3 8.9 C 0 km/h
1941 08-04-2005 17:11:01 7.9 C 5.91 g/m*3 7.9 C 0 km/h
1942 08-04-2005 17:23:02 7.7 C 6.49 g/m*3 7.7 C 0 km/h
1943 08-04-2005 17:35:02 7.6 C 6.53 g/m*3 7.6 C 0 km/h
1944 08-04-2005 17:47:02 7.3 C 6.56 g/m*3 7.3 C 0 km/h
1945 08-04-2005 17:59:02 7 C 6.43 g/m*3 7 C 0 km/h
1946 08-04-2005 18:11:02 7.1 C 6.63 g/m*3 7.1 C 0 km/h
1947 08-04-2005 18:23:02 7.7 C 7.05 g/m*3 7.7 C 0 km/h
1948 08-04-2005 18:35:02 7.9 C 7.23 g/m*3 7.9 C 0 km/h
1949 08-04-2005 18:47:02 7.9 C 7.15 g/m*3 7.9 C 0 km/h
1950 08-04-2005 18:59:03 7.7 C 7.05 g/m*3 7.7 C 0 km/h
Sensor: Nr:Datum:Temp:Abs-Feuchte:Windchill:Wind:
Aussen-T/F 1951 08-04-2005 19:11:03 7.7 C 6.97 g/m*3 7.7 C 0 km/h
1952 08-04-2005 19:23:02 7.8 C 7.02 g/m*3 7.8 C 0 km/h
1953 08-04-2005 19:35:02 7.6 C 6.93 g/m*3 7.6 C 0 km/h
1954 08-04-2005 19:47:02 7.4 C 6.84 g/m*3 7.4 C 0 km/h
1955 08-04-2005 19:59:02 7.4 C 6.92 g/m*3 7.4 C 0 km/h
1956 08-04-2005 20:11:02 7.4 C 7 g/m*3 7.4 C 0 km/h
1957 08-04-2005 20:23:02 7.1 C 6.86 g/m*3 7.1 C 0 km/h
1958 08-04-2005 20:35:02 7 C 6.82 g/m*3 7 C 0 km/h
1959 08-04-2005 20:47:01 7 C 6.82 g/m*3 7 C 0 km/h
1960 08-04-2005 20:59:01 6.9 C 6.85 g/m*3 6.9 C 0 km/h
1961 08-04-2005 21:11:01 6.8 C 6.73 g/m*3 6.8 C 0 km/h
1962 08-04-2005 21:23:01 6.7 C 6.61 g/m*3 6.7 C 0 km/h
1963 08-04-2005 21:35:01 6.7 C 6.53 g/m*3 6.7 C 0 km/h
1964 08-04-2005 21:47:02 6.7 C 6.53 g/m*3 6.7 C 0 km/h
1965 08-04-2005 21:59:02 6.7 C 6.53 g/m*3 6.7 C 0 km/h
1966 08-04-2005 22:11:01 6.8 C 6.58 g/m*3 6.8 C 0 km/h
1967 08-04-2005 22:23:01 6.8 C 6.5 g/m*3 6.8 C 0 km/h
1968 08-04-2005 22:35:02 6.8 C 6.35 g/m*3 6.8 C 0 km/h
1969 08-04-2005 22:47:02 6.7 C 6.15 g/m*3 6.7 C 0 km/h
1970 08-04-2005 22:59:02 6.6 C 5.96 g/m*3 6.6 C 0 km/h
1971 08-04-2005 23:11:02 6.5 C 5.85 g/m*3 6.5 C 0 km/h
1972 08-04-2005 23:23:03 6.6 C 5.81 g/m*3 6.6 C 0 km/h
1973 08-04-2005 23:35:02 6.7 C 5.85 g/m*3 6.7 C 0 km/h
1974 08-04-2005 23:47:02 6.7 C 5.77 g/m*3 6.7 C 0 km/h
1975 08-04-2005 23:59:02 6.7 C 5.77 g/m*3 6.7 C 0 km/h
Sensor: Nr:Datum:Temp:Abs-Feuchte:Windchill:Wind:
Aussen-T/F 1976 09-04-2005 00:11:02 6.6 C 5.66 g/m*3 6.6 C 0 km/h
1977 09-04-2005 00:23:02 6.5 C 5.55 g/m*3 6.5 C 0 km/h
1978 09-04-2005 00:35:02 6.4 C 5.51 g/m*3 6.4 C 0 km/h
1979 09-04-2005 00:47:02 6.4 C 5.44 g/m*3 6.4 C 0 km/h
1980 09-04-2005 00:59:02 6.4 C 5.36 g/m*3 6.4 C 0 km/h
1981 09-04-2005 01:11:01 6.4 C 5.44 g/m*3 6.4 C 0 km/h
1982 09-04-2005 01:23:02 6.3 C 5.4 g/m*3 6.3 C 0 km/h
1983 09-04-2005 01:35:02 6.2 C 5.37 g/m*3 6.2 C 0 km/h
1984 09-04-2005 01:47:02 6.1 C 5.33 g/m*3 6.1 C 0 km/h
1985 09-04-2005 01:59:02 6 C 5.37 g/m*3 6 C 0 km/h
1986 09-04-2005 02:11:02 5.9 C 5.48 g/m*3 5.9 C 0 km/h
1987 09-04-2005 02:23:02 5.7 C 5.41 g/m*3 5.7 C 0 km/h
1988 09-04-2005 02:35:02 5.8 C 5.44 g/m*3 5.8 C 0 km/h
1989 09-04-2005 02:48:03 5.8 C 5.44 g/m*3 5.8 C 0 km/h
1990 09-04-2005 03:00:03 5.8 C 5.44 g/m*3 5.8 C 0 km/h
1991 09-04-2005 03:12:03 5.7 C 5.34 g/m*3 5.7 C 0 km/h
1992 09-04-2005 03:24:03 5.3 C 5.13 g/m*3 5.3 C 0 km/h
1993 09-04-2005 03:36:02 5.3 C 5.2 g/m*3 5.3 C 0 km/h
1994 09-04-2005 03:48:02 5.1 C 5.13 g/m*3 5.1 C 0 km/h
1995 09-04-2005 04:00:02 5.1 C 5.2 g/m*3 5.1 C 0 km/h
1996 09-04-2005 04:12:01 5 C 5.16 g/m*3 5 C 0 km/h
1997 09-04-2005 04:24:02 4.9 C 5.27 g/m*3 4.9 C 0 km/h
1998 09-04-2005 04:36:01 4.7 C 5.26 g/m*3 4.7 C 0 km/h
1999 09-04-2005 04:48:02 4.5 C 5.13 g/m*3 4.5 C 0 km/h
2000 09-04-2005 05:00:02 4.3 C 4.99 g/m*3 4.3 C 0 km/h
Sensor: Nr:Datum:Temp:Abs-Feuchte:Windchill:Wind:
Aussen-T/F 2001 09-04-2005 05:12:03 4.2 C 4.96 g/m*3 4.2 C 0 km/h
2002 09-04-2005 05:24:02 4 C 4.96 g/m*3 4 C 0 km/h
2003 09-04-2005 05:36:03 3.8 C 4.96 g/m*3 3.8 C 0 km/h
2004 09-04-2005 05:48:02 3.8 C 4.96 g/m*3 3.8 C 0 km/h
2005 09-04-2005 06:00:02 3.6 C 5.01 g/m*3 3.6 C 0 km/h
2006 09-04-2005 06:12:02 3.4 C 5.01 g/m*3 3.4 C 0 km/h
2007 09-04-2005 06:24:02 3.3 C 4.97 g/m*3 3.3 C 0 km/h
2008 09-04-2005 06:36:01 3.2 C 4.94 g/m*3 3.2 C 0 km/h
2009 09-04-2005 06:48:02 3.3 C 4.91 g/m*3 3.3 C 0 km/h
2010 09-04-2005 07:00:02 3.2 C 4.82 g/m*3 3.2 C 0 km/h
2011 09-04-2005 07:12:01 3.1 C 4.85 g/m*3 3.1 C 0 km/h
2012 09-04-2005 07:24:02 3 C 4.76 g/m*3 3 C 0 km/h
2013 09-04-2005 07:36:02 3 C 4.88 g/m*3 3 C 0 km/h
2014 09-04-2005 07:48:03 2.8 C 4.87 g/m*3 2.8 C 0 km/h
2015 09-04-2005 08:00:03 3.1 C 4.91 g/m*3 3.1 C 0 km/h
2016 09-04-2005 08:12:02 2.8 C 4.75 g/m*3 2.8 C 0 km/h
2017 09-04-2005 08:24:02 2.9 C 4.9 g/m*3 2.9 C 0 km/h
2018 09-04-2005 08:36:02 3.1 C 4.91 g/m*3 3.1 C 0 km/h
2019 09-04-2005 08:48:02 3 C 4.82 g/m*3 3 C 0 km/h
2020 09-04-2005 09:00:03 3.1 C 4.85 g/m*3 3.1 C 0 km/h
2021 09-04-2005 09:12:02 3.2 C 4.76 g/m*3 3.2 C 0 km/h
2022 09-04-2005 09:24:03 3.4 C 4.7 g/m*3 3.4 C 0 km/h
2023 09-04-2005 09:36:02 3.6 C 4.58 g/m*3 3.6 C 0 km/h
2024 09-04-2005 09:48:01 3.8 C 4.45 g/m*3 3.8 C 0 km/h
2025 09-04-2005 10:00:01 4 C 4.39 g/m*3 4 C 0 km/h
Sensor: Nr:Datum:Temp:Abs-Feuchte:Windchill:Wind:
Aussen-T/F 2026 09-04-2005 10:12:01 4.1 C 4.22 g/m*3 4.1 C 0 km/h
2027 09-04-2005 10:24:02 4.2 C 4.19 g/m*3 4.2 C 0 km/h
2028 09-04-2005 10:36:01 4.6 C 4.3 g/m*3 4.6 C 0 km/h
2029 09-04-2005 10:48:02 4.5 C 4.21 g/m*3 4.5 C 0 km/h
2030 09-04-2005 11:00:02 4.8 C 4.16 g/m*3 4.8 C 0 km/h
2031 09-04-2005 11:12:02 5 C 4.21 g/m*3 5 C 0 km/h
2032 09-04-2005 11:24:01 4.9 C 4.32 g/m*3 4.9 C 0 km/h
2033 09-04-2005 11:36:02 4.7 C 4.46 g/m*3 4.7 C 0 km/h
2034 09-04-2005 11:48:02 4.5 C 4.34 g/m*3 4.5 C 0 km/h
2035 09-04-2005 12:00:02 4.9 C 4.32 g/m*3 4.9 C 0 km/h
2036 09-04-2005 12:12:02 5.8 C 4.15 g/m*3 5.8 C 0 km/h
2037 09-04-2005 12:24:02 5.8 C 3.58 g/m*3 5.8 C 0 km/h
2038 09-04-2005 12:36:02 5.4 C 3.7 g/m*3 5.4 C 0 km/h
2039 09-04-2005 12:48:02 5.6 C 3.68 g/m*3 5.6 C 0 km/h
2040 09-04-2005 13:00:02 6.3 C 3.7 g/m*3 6.3 C 0 km/h
2041 09-04-2005 13:12:02 5.6 C 3.25 g/m*3 5.6 C 0 km/h
2042 09-04-2005 13:24:02 5.9 C 3.39 g/m*3 5.9 C 0 km/h
2043 09-04-2005 13:36:01 5.8 C 3.44 g/m*3 5.8 C 0 km/h
2044 09-04-2005 13:48:02 6.3 C 3.41 g/m*3 6.3 C 0 km/h
2045 09-04-2005 14:00:02 6.6 C 3.4 g/m*3 6.6 C 0 km/h
2046 09-04-2005 14:12:01 8.1 C 3.58 g/m*3 8.1 C 0 km/h
2047 09-04-2005 14:24:02 8.7 C 3.11 g/m*3 8.7 C 0 km/h
2048 09-04-2005 14:36:02 8.1 C 3.08 g/m*3 8.1 C 0 km/h
2049 09-04-2005 14:48:02 7.5 C 2.88 g/m*3 7.5 C 0 km/h
2050 09-04-2005 15:00:02 8.8 C 2.96 g/m*3 8.8 C 0 km/h
Sensor: Nr:Datum:Temp:Abs-Feuchte:Windchill:Wind:
Aussen-T/F 2051 09-04-2005 15:12:02 7.8 C 2.94 g/m*3 7.8 C 0 km/h
2052 09-04-2005 15:24:03 7.6 C 3.06 g/m*3 7.6 C 0 km/h
2053 09-04-2005 15:36:02 8.7 C 3.29 g/m*3 8.7 C 0 km/h
2054 09-04-2005 15:48:02 9.6 C 2.84 g/m*3 9.6 C 0 km/h
2055 09-04-2005 16:00:02 10.1 C 2.65 g/m*3 10.1 C 0 km/h
2056 09-04-2005 16:12:01 10.8 C 2.87 g/m*3 10.8 C 0 km/h
2057 09-04-2005 16:24:02 9.6 C 1.83 g/m*3 9.6 C 0 km/h
2058 09-04-2005 16:36:02 8.3 C 1.77 g/m*3 8.3 C 0 km/h
2059 09-04-2005 16:48:02 8.5 C 2.22 g/m*3 8.5 C 0 km/h
2060 09-04-2005 17:00:02 8.2 C 2.34 g/m*3 8.2 C 0 km/h
2061 09-04-2005 17:12:02 8.5 C 2.39 g/m*3 8.5 C 0 km/h
2062 09-04-2005 17:24:02 9.6 C 2.47 g/m*3 9.6 C 0 km/h
2063 09-04-2005 17:36:02 9.6 C 2.11 g/m*3 9.6 C 0 km/h
2064 09-04-2005 17:48:01 10.1 C 1.89 g/m*3 10.1 C 0 km/h
2065 09-04-2005 18:00:01 9.9 C 2.33 g/m*3 9.9 C 0 km/h
2066 09-04-2005 18:12:01 9.2 C 2.41 g/m*3 9.2 C 0 km/h
2067 09-04-2005 18:24:01 8.7 C 2.51 g/m*3 8.7 C 0 km/h
2068 09-04-2005 18:36:02 8.7 C 2.59 g/m*3 8.7 C 0 km/h
2069 09-04-2005 18:48:02 8.3 C 2.61 g/m*3 8.3 C 0 km/h
2070 09-04-2005 19:00:02 8 C 2.73 g/m*3 8 C 0 km/h
2071 09-04-2005 19:12:02 7.6 C 3.06 g/m*3 7.6 C 0 km/h
2072 09-04-2005 19:24:02 7.4 C 3.1 g/m*3 7.4 C 0 km/h
2073 09-04-2005 19:36:02 7.3 C 3.16 g/m*3 7.3 C 0 km/h
2074 09-04-2005 19:48:02 7.2 C 3.3 g/m*3 7.2 C 0 km/h
2075 09-04-2005 20:00:02 7 C 3.33 g/m*3 7 C 0 km/h
Sensor: Nr:Datum:Temp:Abs-Feuchte:Windchill:Wind:
Aussen-T/F 2076 09-04-2005 20:12:02 6.9 C 3.39 g/m*3 6.9 C 0 km/h
2077 09-04-2005 20:24:03 6.8 C 3.44 g/m*3 6.8 C 0 km/h
2078 09-04-2005 20:36:02 6.7 C 3.42 g/m*3 6.7 C 0 km/h
2079 09-04-2005 20:48:02 6.6 C 3.47 g/m*3 6.6 C 0 km/h
2080 09-04-2005 21:00:03 6.5 C 3.52 g/m*3 6.5 C 0 km/h
2081 09-04-2005 21:12:01 6.3 C 3.55 g/m*3 6.3 C 0 km/h
2082 09-04-2005 21:24:01 6.2 C 3.68 g/m*3 6.2 C 0 km/h
2083 09-04-2005 21:36:02 6.2 C 3.75 g/m*3 6.2 C 0 km/h
2084 09-04-2005 21:48:02 6.2 C 3.75 g/m*3 6.2 C 0 km/h
2085 09-04-2005 22:00:02 6.1 C 3.87 g/m*3 6.1 C 0 km/h
2086 09-04-2005 22:12:02 6 C 3.92 g/m*3 6 C 0 km/h
2087 09-04-2005 22:24:02 6 C 4.06 g/m*3 6 C 0 km/h
2088 09-04-2005 22:36:02 5.9 C 4.33 g/m*3 5.9 C 0 km/h
2089 09-04-2005 22:48:01 5.8 C 4.37 g/m*3 5.8 C 0 km/h
2090 09-04-2005 23:00:01 5.8 C 4.37 g/m*3 5.8 C 0 km/h
2091 09-04-2005 23:12:01 5.9 C 4.47 g/m*3 5.9 C 0 km/h
2092 09-04-2005 23:24:02 5.9 C 4.54 g/m*3 5.9 C 0 km/h
2093 09-04-2005 23:36:01 5.8 C 4.58 g/m*3 5.8 C 0 km/h
2094 09-04-2005 23:48:02 5.7 C 4.63 g/m*3 5.7 C 0 km/h
2095 10-04-2005 00:00:02 5.7 C 4.63 g/m*3 5.7 C 0 km/h
2096 10-04-2005 00:12:02 5.6 C 4.6 g/m*3 5.6 C 0 km/h
2097 10-04-2005 00:24:03 5.5 C 4.71 g/m*3 5.5 C 0 km/h
2098 10-04-2005 00:36:02 5.4 C 4.81 g/m*3 5.4 C 0 km/h
2099 10-04-2005 00:48:02 5.3 C 4.92 g/m*3 5.3 C 0 km/h
2100 10-04-2005 01:00:02 5.3 C 5.06 g/m*3 5.3 C 0 km/h
Sensor: Nr:Datum:Temp:Abs-Feuchte:Windchill:Wind:
Aussen-T/F 2101 10-04-2005 01:12:02 5.3 C 4.92 g/m*3 5.3 C 0 km/h
2102 10-04-2005 01:24:03 5.3 C 4.92 g/m*3 5.3 C 0 km/h
2103 10-04-2005 01:36:02 5.3 C 4.85 g/m*3 5.3 C 0 km/h
2104 10-04-2005 01:48:02 5.4 C 4.88 g/m*3 5.4 C 0 km/h
2105 10-04-2005 02:00:02 5.3 C 4.85 g/m*3 5.3 C 0 km/h
2106 10-04-2005 02:12:01 5.3 C 4.92 g/m*3 5.3 C 0 km/h
2107 10-04-2005 02:24:02 5.1 C 4.92 g/m*3 5.1 C 0 km/h
2108 10-04-2005 02:36:01 5 C 4.89 g/m*3 5 C 0 km/h
2109 10-04-2005 02:49:04 4.9 C 5 g/m*3 4.9 C 0 km/h
2110 10-04-2005 03:01:04 5 C 4.96 g/m*3 5 C 0 km/h
2111 10-04-2005 03:13:04 5.1 C 4.92 g/m*3 5.1 C 0 km/h
2112 10-04-2005 03:25:04 5.2 C 4.89 g/m*3 5.2 C 0 km/h
2113 10-04-2005 03:37:02 5.1 C 4.86 g/m*3 5.1 C 0 km/h
2114 10-04-2005 03:49:02 5.1 C 4.86 g/m*3 5.1 C 0 km/h
2115 10-04-2005 04:01:01 5.2 C 4.89 g/m*3 5.2 C 0 km/h
2116 10-04-2005 04:13:01 5.3 C 4.85 g/m*3 5.3 C 0 km/h
2117 10-04-2005 04:25:02 5.3 C 4.85 g/m*3 5.3 C 0 km/h
2118 10-04-2005 04:37:18 5.2 C 4.82 g/m*3 5.2 C 0 km/h
2119 10-04-2005 04:49:02 5.2 C 4.82 g/m*3 5.2 C 0 km/h
2120 10-04-2005 05:01:02 5.2 C 4.82 g/m*3 5.2 C 0 km/h
2121 10-04-2005 05:13:02 5.3 C 4.85 g/m*3 5.3 C 0 km/h
2122 10-04-2005 05:25:02 5.3 C 4.85 g/m*3 5.3 C 0 km/h
2123 10-04-2005 05:37:02 5.2 C 4.82 g/m*3 5.2 C 0 km/h
2124 10-04-2005 05:49:02 5.1 C 4.79 g/m*3 5.1 C 0 km/h
2125 10-04-2005 06:01:01 5.1 C 4.86 g/m*3 5.1 C 0 km/h
Sensor: Nr:Datum:Temp:Abs-Feuchte:Windchill:Wind:
Aussen-T/F 2126 10-04-2005 06:13:01 5.1 C 4.86 g/m*3 5.1 C 0 km/h
2127 10-04-2005 06:25:02 5.1 C 4.86 g/m*3 5.1 C 0 km/h
2128 10-04-2005 06:37:02 5.1 C 4.92 g/m*3 5.1 C 0 km/h
2129 10-04-2005 06:49:02 5.1 C 4.92 g/m*3 5.1 C 0 km/h
2130 10-04-2005 07:01:02 5.1 C 4.92 g/m*3 5.1 C 0 km/h
2131 10-04-2005 07:13:02 5.2 C 4.96 g/m*3 5.2 C 0 km/h
2132 10-04-2005 07:25:03 5.3 C 4.99 g/m*3 5.3 C 0 km/h
2133 10-04-2005 07:37:02 5.3 C 4.99 g/m*3 5.3 C 0 km/h
2134 10-04-2005 07:49:02 5.3 C 4.99 g/m*3 5.3 C 0 km/h
2135 10-04-2005 08:01:01 5.4 C 5.02 g/m*3 5.4 C 0 km/h
2136 10-04-2005 08:13:01 5.5 C 5.06 g/m*3 5.5 C 0 km/h
2137 10-04-2005 08:25:02 5.6 C 5.09 g/m*3 5.6 C 0 km/h
2138 10-04-2005 08:37:02 5.5 C 5.13 g/m*3 5.5 C 0 km/h
2139 10-04-2005 08:49:02 5.7 C 5.27 g/m*3 5.7 C 0 km/h
2140 10-04-2005 09:01:02 6 C 5.23 g/m*3 6 C 0 km/h
2141 10-04-2005 09:13:02 6.2 C 5.15 g/m*3 6.2 C 0 km/h
2142 10-04-2005 09:25:02 6.4 C 5.14 g/m*3 6.4 C 0 km/h
2143 10-04-2005 09:37:02 6.5 C 5.25 g/m*3 6.5 C 0 km/h
2144 10-04-2005 09:49:02 6.2 C 5.29 g/m*3 6.2 C 0 km/h
2145 10-04-2005 10:01:02 6.2 C 5.29 g/m*3 6.2 C 0 km/h
2146 10-04-2005 10:13:02 6.6 C 5.28 g/m*3 6.6 C 0 km/h
2147 10-04-2005 10:25:02 6.9 C 5.31 g/m*3 6.9 C 0 km/h
2148 10-04-2005 10:37:02 7.1 C 5.3 g/m*3 7.1 C 0 km/h
2149 10-04-2005 10:49:02 7.6 C 5.24 g/m*3 7.6 C 0 km/h
2150 10-04-2005 11:01:01 8 C 5.13 g/m*3 8 C 0 km/h
Sensor: Nr:Datum:Temp:Abs-Feuchte:Windchill:Wind:
Aussen-T/F 2151 10-04-2005 11:13:01 7.9 C 5.26 g/m*3 7.9 C 0 km/h
2152 10-04-2005 11:25:02 8 C 5.29 g/m*3 8 C 0 km/h
2153 10-04-2005 11:37:01 7.9 C 5.26 g/m*3 7.9 C 0 km/h
2154 10-04-2005 11:49:02 8.2 C 5.28 g/m*3 8.2 C 0 km/h
2155 10-04-2005 12:01:01 8.4 C 5.26 g/m*3 8.4 C 0 km/h
2156 10-04-2005 12:13:01 9.1 C 5.32 g/m*3 9.1 C 0 km/h
2157 10-04-2005 12:25:02 8.8 C 5.22 g/m*3 8.8 C 0 km/h
2158 10-04-2005 12:37:02 9.2 C 5.27 g/m*3 9.2 C 0 km/h
2159 10-04-2005 12:49:02 8.9 C 5.26 g/m*3 8.9 C 0 km/h
2160 10-04-2005 13:01:03 9.1 C 5.23 g/m*3 9.1 C 0 km/h
2161 10-04-2005 13:13:03 9.1 C 5.23 g/m*3 9.1 C 0 km/h
2162 10-04-2005 13:25:03 8.9 C 5.34 g/m*3 8.9 C 0 km/h
2163 10-04-2005 13:37:02 8.7 C 5.36 g/m*3 8.7 C 0 km/h
2164 10-04-2005 13:49:01 9.2 C 5.45 g/m*3 9.2 C 0 km/h
2165 10-04-2005 14:01:01 9.7 C 5.53 g/m*3 9.7 C 0 km/h
2166 10-04-2005 14:13:01 10.7 C 5.5 g/m*3 10.7 C 0 km/h
2167 10-04-2005 14:25:02 11 C 5.31 g/m*3 11 C 0 km/h
2168 10-04-2005 14:37:02 11.1 C 5.24 g/m*3 11.1 C 0 km/h
2169 10-04-2005 14:49:02 11.4 C 5.75 g/m*3 11.4 C 0 km/h
2170 10-04-2005 15:01:02 12 C 5.33 g/m*3 12 C 0 km/h
2171 10-04-2005 15:13:02 12.7 C 5.23 g/m*3 12.7 C 0 km/h
2172 10-04-2005 15:25:02 12.6 C 5.09 g/m*3 12.6 C 0 km/h
2173 10-04-2005 15:37:02 12.1 C 5.04 g/m*3 12.1 C 0 km/h
2174 10-04-2005 15:49:01 12.5 C 5.94 g/m*3 12.5 C 0 km/h
2175 10-04-2005 16:01:01 14.5 C 5.85 g/m*3 14.5 C 0 km/h
Sensor: Nr:Datum:Temp:Abs-Feuchte:Windchill:Wind:
Aussen-T/F 2176 10-04-2005 16:13:01 13.9 C 5.27 g/m*3 13.9 C 0 km/h
2177 10-04-2005 16:25:02 12.9 C 5.41 g/m*3 12.9 C 0 km/h
2178 10-04-2005 16:37:02 11.4 C 5.75 g/m*3 11.4 C 0 km/h
2179 10-04-2005 16:49:02 10.9 C 5.67 g/m*3 10.9 C 0 km/h
2180 10-04-2005 17:01:02 11.2 C 5.47 g/m*3 11.2 C 0 km/h
2181 10-04-2005 17:13:02 11.7 C 5.65 g/m*3 11.7 C 0 km/h
2182 10-04-2005 17:25:02 11.5 C 5.16 g/m*3 11.5 C 0 km/h
2183 10-04-2005 17:37:02 11.2 C 5.27 g/m*3 11.2 C 0 km/h
2184 10-04-2005 17:49:01 11 C 5.41 g/m*3 11 C 0 km/h
2185 10-04-2005 18:01:01 11.3 C 5.51 g/m*3 11.3 C 0 km/h
2186 10-04-2005 18:13:01 11.6 C 5.4 g/m*3 11.6 C 0 km/h
2187 10-04-2005 18:25:02 11.7 C 5.44 g/m*3 11.7 C 0 km/h
2188 10-04-2005 18:37:02 11.4 C 5.34 g/m*3 11.4 C 0 km/h
2189 10-04-2005 18:49:02 11.1 C 5.44 g/m*3 11.1 C 0 km/h
2190 10-04-2005 19:01:02 10.5 C 5.53 g/m*3 10.5 C 0 km/h
2191 10-04-2005 19:13:02 9.9 C 5.98 g/m*3 9.9 C 0 km/h
2192 10-04-2005 19:25:02 9.3 C 6.47 g/m*3 9.3 C 0 km/h
2193 10-04-2005 19:37:02 8.9 C 6.92 g/m*3 8.9 C 0 km/h
2194 10-04-2005 19:49:02 8.7 C 7.01 g/m*3 8.7 C 0 km/h
2195 10-04-2005 20:01:02 8.7 C 6.92 g/m*3 8.7 C 0 km/h
2196 10-04-2005 20:13:02 8.6 C 6.87 g/m*3 8.6 C 0 km/h
2197 10-04-2005 20:25:02 8.6 C 6.79 g/m*3 8.6 C 0 km/h
2198 10-04-2005 20:37:02 8.7 C 6.83 g/m*3 8.7 C 0 km/h
2199 10-04-2005 20:49:01 8.6 C 6.44 g/m*3 8.6 C 0 km/h
2200 10-04-2005 21:01:01 8.1 C 6.41 g/m*3 8.1 C 0 km/h
Sensor: Nr:Datum:Temp:Abs-Feuchte:Windchill:Wind:
Aussen-T/F 2201 10-04-2005 21:13:01 7.8 C 6.53 g/m*3 7.8 C 0 km/h
2202 10-04-2005 21:25:02 7.7 C 6.65 g/m*3 7.7 C 0 km/h
2203 10-04-2005 21:37:02 7.8 C 6.69 g/m*3 7.8 C 0 km/h
2204 10-04-2005 21:49:02 7.7 C 6.65 g/m*3 7.7 C 0 km/h
2205 10-04-2005 22:01:02 7.9 C 6.82 g/m*3 7.9 C 0 km/h
2206 10-04-2005 22:13:02 7.8 C 6.77 g/m*3 7.8 C 0 km/h
2207 10-04-2005 22:25:02 7.9 C 6.82 g/m*3 7.9 C 0 km/h
2208 10-04-2005 22:37:02 7.9 C 6.9 g/m*3 7.9 C 0 km/h
2209 10-04-2005 22:49:01 7.7 C 6.73 g/m*3 7.7 C 0 km/h
2210 10-04-2005 23:01:01 7.7 C 6.81 g/m*3 7.7 C 0 km/h
2211 10-04-2005 23:13:01 7.6 C 6.77 g/m*3 7.6 C 0 km/h
2212 10-04-2005 23:25:02 7.6 C 6.85 g/m*3 7.6 C 0 km/h
2213 10-04-2005 23:37:01 7.5 C 6.8 g/m*3 7.5 C 0 km/h
2214 10-04-2005 23:49:02 7.6 C 6.85 g/m*3 7.6 C 0 km/h
2215 11-04-2005 00:01:02 7.6 C 6.77 g/m*3 7.6 C 0 km/h
2216 11-04-2005 00:13:02 7.7 C 6.81 g/m*3 7.7 C 0 km/h
2217 11-04-2005 00:25:03 7.5 C 6.64 g/m*3 7.5 C 0 km/h
2218 11-04-2005 00:37:02 7.6 C 6.77 g/m*3 7.6 C 0 km/h
2219 11-04-2005 00:49:02 7.6 C 6.85 g/m*3 7.6 C 0 km/h
2220 11-04-2005 01:01:02 7.6 C 6.85 g/m*3 7.6 C 0 km/h
2221 11-04-2005 01:13:02 7.6 C 6.85 g/m*3 7.6 C 0 km/h
2222 11-04-2005 01:25:02 7.6 C 6.77 g/m*3 7.6 C 0 km/h
2223 11-04-2005 01:37:02 7.6 C 6.77 g/m*3 7.6 C 0 km/h
2224 11-04-2005 01:49:02 7.5 C 6.72 g/m*3 7.5 C 0 km/h
2225 11-04-2005 02:01:02 7.3 C 6.64 g/m*3 7.3 C 0 km/h
Sensor: Nr:Datum:Temp:Abs-Feuchte:Windchill:Wind:
Aussen-T/F 2226 11-04-2005 02:13:02 7 C 6.51 g/m*3 7 C 0 km/h
2227 11-04-2005 02:25:02 6.8 C 6.5 g/m*3 6.8 C 0 km/h
2228 11-04-2005 02:37:02 6.8 C 6.5 g/m*3 6.8 C 0 km/h
2229 11-04-2005 02:50:03 6.6 C 6.42 g/m*3 6.6 C 0 km/h
2230 11-04-2005 03:02:03 6.3 C 6.29 g/m*3 6.3 C 0 km/h
2231 11-04-2005 03:14:03 5.9 C 6.35 g/m*3 5.9 C 0 km/h
2232 11-04-2005 03:26:03 5.7 C 6.26 g/m*3 5.7 C 0 km/h
2233 11-04-2005 03:38:02 5.5 C 6.25 g/m*3 5.5 C 0 km/h
2234 11-04-2005 03:50:02 5.5 C 6.39 g/m*3 5.5 C 0 km/h
2235 11-04-2005 04:02:02 5.5 C 6.46 g/m*3 5.5 C 0 km/h
2236 11-04-2005 04:14:02 5.7 C 6.55 g/m*3 5.7 C 0 km/h
2237 11-04-2005 04:26:03 5.5 C 6.46 g/m*3 5.5 C 0 km/h
2238 11-04-2005 04:38:02 5.5 C 6.46 g/m*3 5.5 C 0 km/h
2239 11-04-2005 04:50:02 5.5 C 6.46 g/m*3 5.5 C 0 km/h
2240 11-04-2005 05:02:02 5.3 C 6.31 g/m*3 5.3 C 0 km/h
2241 11-04-2005 05:14:02 5.5 C 6.46 g/m*3 5.5 C 0 km/h
2242 11-04-2005 05:26:02 5.8 C 6.66 g/m*3 5.8 C 0 km/h
2243 11-04-2005 05:38:01 6 C 6.68 g/m*3 6 C 0 km/h
2244 11-04-2005 05:50:02 6 C 6.68 g/m*3 6 C 0 km/h
2245 11-04-2005 06:02:03 6.1 C 6.65 g/m*3 6.1 C 0 km/h
2246 11-04-2005 06:14:03 5.9 C 6.56 g/m*3 5.9 C 0 km/h
2247 11-04-2005 06:26:02 5.9 C 6.56 g/m*3 5.9 C 0 km/h
2248 11-04-2005 06:38:02 5.9 C 6.56 g/m*3 5.9 C 0 km/h
2249 11-04-2005 06:50:01 5.9 C 6.49 g/m*3 5.9 C 0 km/h
2250 11-04-2005 07:02:01 6 C 6.46 g/m*3 6 C 0 km/h
Sensor: Nr:Datum:Temp:Abs-Feuchte:Windchill:Wind:
Aussen-T/F 2251 11-04-2005 07:14:01 6.1 C 6.43 g/m*3 6.1 C 0 km/h
2252 11-04-2005 07:26:02 6.2 C 6.47 g/m*3 6.2 C 0 km/h
2253 11-04-2005 07:38:01 6.2 C 6.47 g/m*3 6.2 C 0 km/h
2254 11-04-2005 07:50:02 6.3 C 6.51 g/m*3 6.3 C 0 km/h
2255 11-04-2005 08:02:01 6.5 C 6.52 g/m*3 6.5 C 0 km/h
2256 11-04-2005 08:14:01 6.9 C 6.62 g/m*3 6.9 C 0 km/h
2257 11-04-2005 08:26:02 7.2 C 6.59 g/m*3 7.2 C 0 km/h
2258 11-04-2005 08:38:02 7.3 C 6.48 g/m*3 7.3 C 0 km/h
2259 11-04-2005 08:50:01 7.6 C 6.53 g/m*3 7.6 C 0 km/h
2260 11-04-2005 09:02:01 7.9 C 6.49 g/m*3 7.9 C 0 km/h
2261 11-04-2005 09:14:01 8.4 C 6.53 g/m*3 8.4 C 0 km/h
2262 11-04-2005 09:26:01 8.6 C 6.44 g/m*3 8.6 C 0 km/h
2263 11-04-2005 09:38:02 9.2 C 6.52 g/m*3 9.2 C 0 km/h
2264 11-04-2005 09:50:02 9.2 C 6.25 g/m*3 9.2 C 0 km/h
2265 11-04-2005 10:02:02 9.2 C 6.34 g/m*3 9.2 C 0 km/h
2266 11-04-2005 10:14:02 9.9 C 6.54 g/m*3 9.9 C 0 km/h
2267 11-04-2005 10:26:03 9.9 C 6.26 g/m*3 9.9 C 0 km/h
2268 11-04-2005 10:38:02 10.8 C 6.52 g/m*3 10.8 C 0 km/h
2269 11-04-2005 10:50:02 10.7 C 6.29 g/m*3 10.7 C 0 km/h
2270 11-04-2005 11:02:02 11.3 C 6.43 g/m*3 11.3 C 0 km/h
2271 11-04-2005 11:14:02 12 C 6.39 g/m*3 12 C 0 km/h
2272 11-04-2005 11:26:02 12.7 C 6.35 g/m*3 12.7 C 0 km/h
2273 11-04-2005 11:38:02 12.5 C 6.16 g/m*3 12.5 C 0 km/h
2274 11-04-2005 11:50:03 13.2 C 6.09 g/m*3 13.2 C 0 km/h
2275 11-04-2005 12:02:02 12.5 C 5.83 g/m*3 12.5 C 0 km/h
Sensor: Nr:Datum:Temp:Abs-Feuchte:Windchill:Wind:
Aussen-T/F 2276 11-04-2005 12:14:02 13.3 C 5.66 g/m*3 13.3 C 0 km/h
2277 11-04-2005 12:26:02 13.9 C 5.75 g/m*3 13.9 C 0 km/h
2278 11-04-2005 12:38:02 13.4 C 5.46 g/m*3 13.4 C 0 km/h
2279 11-04-2005 12:50:01 13.5 C 5.61 g/m*3 13.5 C 0 km/h
2280 11-04-2005 13:02:01 13.3 C 5.66 g/m*3 13.3 C 0 km/h
2281 11-04-2005 13:14:01 13.7 C 5.57 g/m*3 13.7 C 0 km/h
2282 11-04-2005 13:26:02 14.1 C 5.7 g/m*3 14.1 C 0 km/h
2283 11-04-2005 13:38:01 14 C 5.19 g/m*3 14 C 0 km/h
2284 11-04-2005 13:50:02 14.1 C 4.98 g/m*3 14.1 C 0 km/h
2285 11-04-2005 14:02:02 13.9 C 5.04 g/m*3 13.9 C 0 km/h
2286 11-04-2005 14:14:02 13.7 C 5.21 g/m*3 13.7 C 0 km/h
2287 11-04-2005 14:26:02 13.9 C 5.15 g/m*3 13.9 C 0 km/h
2288 11-04-2005 14:38:01 13.8 C 5.36 g/m*3 13.8 C 0 km/h
2289 11-04-2005 14:50:02 14.1 C 5.46 g/m*3 14.1 C 0 km/h
2290 11-04-2005 15:02:01 14.7 C 5.54 g/m*3 14.7 C 0 km/h
2291 11-04-2005 15:14:01 15.1 C 5.29 g/m*3 15.1 C 0 km/h
2292 11-04-2005 15:26:02 14.6 C 5.13 g/m*3 14.6 C 0 km/h
2293 11-04-2005 15:38:02 14.8 C 5.19 g/m*3 14.8 C 0 km/h
2294 11-04-2005 15:50:02 14.5 C 5.22 g/m*3 14.5 C 0 km/h
2295 11-04-2005 16:02:02 15.7 C 5.49 g/m*3 15.7 C 0 km/h
2296 11-04-2005 16:14:02 16.8 C 5.43 g/m*3 16.8 C 0 km/h
2297 11-04-2005 16:26:02 16.6 C 5.23 g/m*3 16.6 C 0 km/h
2298 11-04-2005 16:38:02 16.2 C 5.24 g/m*3 16.2 C 0 km/h
2299 11-04-2005 16:50:01 16.5 C 5.62 g/m*3 16.5 C 0 km/h
2300 11-04-2005 17:02:01 16.8 C 5.72 g/m*3 16.8 C 0 km/h
Sensor: Nr:Datum:Temp:Abs-Feuchte:Windchill:Wind:
Aussen-T/F 2301 11-04-2005 17:14:01 16.2 C 5.79 g/m*3 16.2 C 0 km/h
2302 11-04-2005 17:26:02 16.6 C 5.93 g/m*3 16.6 C 0 km/h
2303 11-04-2005 17:38:02 17.5 C 5.96 g/m*3 17.5 C 0 km/h
2304 11-04-2005 17:50:02 17.2 C 5.86 g/m*3 17.2 C 0 km/h
2305 11-04-2005 18:02:02 18.1 C 6.03 g/m*3 18.1 C 0 km/h
2306 11-04-2005 18:14:02 18.3 C 5.94 g/m*3 18.3 C 0 km/h
2307 11-04-2005 18:26:02 17.2 C 6 g/m*3 17.2 C 0 km/h
2308 11-04-2005 18:38:02 17.3 C 5.89 g/m*3 17.3 C 0 km/h
2309 11-04-2005 18:50:01 17.4 C 5.93 g/m*3 17.4 C 0 km/h
2310 11-04-2005 19:02:01 17.3 C 5.89 g/m*3 17.3 C 0 km/h
2311 11-04-2005 19:14:01 16.8 C 6 g/m*3 16.8 C 0 km/h
2312 11-04-2005 19:26:02 16.3 C 5.97 g/m*3 16.3 C 0 km/h
2313 11-04-2005 19:38:02 15.8 C 6.06 g/m*3 15.8 C 0 km/h
2314 11-04-2005 19:50:02 15.2 C 6.1 g/m*3 15.2 C 0 km/h
2315 11-04-2005 20:02:02 14.3 C 6.14 g/m*3 14.3 C 0 km/h
2316 11-04-2005 20:14:02 13.7 C 6.39 g/m*3 13.7 C 0 km/h
2317 11-04-2005 20:26:02 13 C 6.35 g/m*3 13 C 0 km/h
2318 11-04-2005 20:38:02 12.5 C 6.49 g/m*3 12.5 C 0 km/h
2319 11-04-2005 20:50:02 12 C 6.39 g/m*3 12 C 0 km/h
2320 11-04-2005 21:02:01 11.9 C 6.57 g/m*3 11.9 C 0 km/h
2321 11-04-2005 21:14:01 11.8 C 6.63 g/m*3 11.8 C 0 km/h
2322 11-04-2005 21:26:02 11.8 C 6.53 g/m*3 11.8 C 0 km/h
2323 11-04-2005 21:38:02 11.5 C 6.51 g/m*3 11.5 C 0 km/h
2324 11-04-2005 21:50:02 11.1 C 6.45 g/m*3 11.1 C 0 km/h
2325 11-04-2005 22:02:02 10.8 C 6.52 g/m*3 10.8 C 0 km/h
Sensor: Nr:Datum:Temp:Abs-Feuchte:Windchill:Wind:
Aussen-T/F 2326 11-04-2005 22:14:02 10.4 C 6.46 g/m*3 10.4 C 0 km/h
2327 11-04-2005 22:26:02 10.1 C 6.34 g/m*3 10.1 C 0 km/h
2328 11-04-2005 22:38:02 9.8 C 6.4 g/m*3 9.8 C 0 km/h
2329 11-04-2005 22:50:01 9.7 C 6.55 g/m*3 9.7 C 0 km/h
2330 11-04-2005 23:02:01 9.5 C 6.55 g/m*3 9.5 C 0 km/h
2331 11-04-2005 23:14:01 9.3 C 6.47 g/m*3 9.3 C 0 km/h
2332 11-04-2005 23:26:02 9.1 C 6.48 g/m*3 9.1 C 0 km/h
2333 11-04-2005 23:38:02 9 C 6.44 g/m*3 9 C 0 km/h
2334 11-04-2005 23:50:02 8.8 C 6.53 g/m*3 8.8 C 0 km/h
2335 12-04-2005 00:02:02 8.6 C 6.44 g/m*3 8.6 C 0 km/h
2336 12-04-2005 00:14:02 8.4 C 6.45 g/m*3 8.4 C 0 km/h
2337 12-04-2005 00:26:03 8.1 C 6.41 g/m*3 8.1 C 0 km/h
2338 12-04-2005 00:38:02 8 C 6.45 g/m*3 8 C 0 km/h
2339 12-04-2005 00:50:03 7.9 C 6.49 g/m*3 7.9 C 0 km/h
2340 12-04-2005 01:02:02 7.8 C 6.45 g/m*3 7.8 C 0 km/h
2341 12-04-2005 01:14:02 7.5 C 6.4 g/m*3 7.5 C 0 km/h
2342 12-04-2005 01:26:03 7.3 C 6.32 g/m*3 7.3 C 0 km/h
2343 12-04-2005 01:38:02 7.1 C 6.32 g/m*3 7.1 C 0 km/h
2344 12-04-2005 01:50:02 7 C 6.28 g/m*3 7 C 0 km/h
2345 12-04-2005 02:02:01 6.8 C 6.35 g/m*3 6.8 C 0 km/h
2346 12-04-2005 02:14:01 6.7 C 6.38 g/m*3 6.7 C 0 km/h
2347 12-04-2005 02:26:01 6.6 C 6.34 g/m*3 6.6 C 0 km/h
2348 12-04-2005 02:38:01 6.7 C 6.38 g/m*3 6.7 C 0 km/h
2349 12-04-2005 02:51:03 6.7 C 6.38 g/m*3 6.7 C 0 km/h
2350 12-04-2005 03:03:04 6.6 C 6.34 g/m*3 6.6 C 0 km/h
Sensor: Nr:Datum:Temp:Abs-Feuchte:Windchill:Wind:
Aussen-T/F 2351 12-04-2005 03:15:04 6.4 C 6.18 g/m*3 6.4 C 0 km/h
2352 12-04-2005 03:27:04 6.3 C 6.29 g/m*3 6.3 C 0 km/h
2353 12-04-2005 03:39:02 6.1 C 6.21 g/m*3 6.1 C 0 km/h
2354 12-04-2005 03:51:02 5.9 C 6.2 g/m*3 5.9 C 0 km/h
2355 12-04-2005 04:03:02 5.8 C 6.23 g/m*3 5.8 C 0 km/h
2356 12-04-2005 04:15:02 5.5 C 6.11 g/m*3 5.5 C 0 km/h
2357 12-04-2005 04:27:02 5.4 C 6.14 g/m*3 5.4 C 0 km/h
2358 12-04-2005 04:39:01 5.3 C 6.1 g/m*3 5.3 C 0 km/h
2359 12-04-2005 04:51:02 5.2 C 6.06 g/m*3 5.2 C 0 km/h
2360 12-04-2005 05:03:02 5.3 C 6.17 g/m*3 5.3 C 0 km/h
2361 12-04-2005 05:15:03 5.6 C 6.29 g/m*3 5.6 C 0 km/h
2362 12-04-2005 05:27:03 5.7 C 6.33 g/m*3 5.7 C 0 km/h
2363 12-04-2005 05:39:02 5.8 C 6.3 g/m*3 5.8 C 0 km/h
2364 12-04-2005 05:51:02 5.8 C 6.23 g/m*3 5.8 C 0 km/h
2365 12-04-2005 06:03:02 5.8 C 6.16 g/m*3 5.8 C 0 km/h
2366 12-04-2005 06:15:01 5.6 C 6.08 g/m*3 5.6 C 0 km/h
2367 12-04-2005 06:27:01 5.4 C 6 g/m*3 5.4 C 0 km/h
2368 12-04-2005 06:39:02 5.2 C 5.99 g/m*3 5.2 C 0 km/h
2369 12-04-2005 06:51:02 5 C 5.98 g/m*3 5 C 0 km/h
2370 12-04-2005 07:03:02 5.1 C 6.02 g/m*3 5.1 C 0 km/h
2371 12-04-2005 07:15:02 5 C 6.05 g/m*3 5 C 0 km/h
2372 12-04-2005 07:27:02 5.3 C 6.17 g/m*3 5.3 C 0 km/h
2373 12-04-2005 07:39:02 5.6 C 6.22 g/m*3 5.6 C 0 km/h
2374 12-04-2005 07:51:02 5.9 C 6.35 g/m*3 5.9 C 0 km/h
2375 12-04-2005 08:03:02 5.9 C 6.27 g/m*3 5.9 C 0 km/h
Sensor: Nr:Datum:Temp:Abs-Feuchte:Windchill:Wind:
Aussen-T/F 2376 12-04-2005 08:15:02 5.9 C 6.27 g/m*3 5.9 C 0 km/h
2377 12-04-2005 08:27:02 6.1 C 6.28 g/m*3 6.1 C 0 km/h
2378 12-04-2005 08:39:02 6.4 C 6.33 g/m*3 6.4 C 0 km/h
2379 12-04-2005 08:51:02 6.6 C 6.42 g/m*3 6.6 C 0 km/h
2380 12-04-2005 09:03:02 6.9 C 6.47 g/m*3 6.9 C 0 km/h
2381 12-04-2005 09:15:02 6.8 C 6.27 g/m*3 6.8 C 0 km/h
2382 12-04-2005 09:27:02 7.1 C 6.32 g/m*3 7.1 C 0 km/h
2383 12-04-2005 09:39:02 7.3 C 6.32 g/m*3 7.3 C 0 km/h
2384 12-04-2005 09:51:02 7.7 C 6.41 g/m*3 7.7 C 0 km/h
2385 12-04-2005 10:03:02 8.1 C 6.41 g/m*3 8.1 C 0 km/h
2386 12-04-2005 10:15:02 8.7 C 6.49 g/m*3 8.7 C 0 km/h
2387 12-04-2005 10:27:02 9.3 C 6.56 g/m*3 9.3 C 0 km/h
2388 12-04-2005 10:39:02 9.5 C 6.55 g/m*3 9.5 C 0 km/h
2389 12-04-2005 10:51:02 10.1 C 6.62 g/m*3 10.1 C 0 km/h
2390 12-04-2005 11:03:01 10.4 C 6.65 g/m*3 10.4 C 0 km/h
2391 12-04-2005 11:15:02 11.3 C 6.73 g/m*3 11.3 C 0 km/h
2392 12-04-2005 11:27:02 11.3 C 6.63 g/m*3 11.3 C 0 km/h
2393 12-04-2005 11:39:02 11.7 C 6.59 g/m*3 11.7 C 0 km/h
2394 12-04-2005 11:51:02 12.5 C 6.6 g/m*3 12.5 C 0 km/h
2395 12-04-2005 12:03:02 12.9 C 6.65 g/m*3 12.9 C 0 km/h
2396 12-04-2005 12:15:03 13.3 C 6.59 g/m*3 13.3 C 0 km/h
2397 12-04-2005 12:27:03 14.6 C 6.63 g/m*3 14.6 C 0 km/h
2398 12-04-2005 12:39:02 15.4 C 6.18 g/m*3 15.4 C 0 km/h
2399 12-04-2005 12:51:02 16 C 6.27 g/m*3 16 C 0 km/h
2400 12-04-2005 13:03:01 17.2 C 6.44 g/m*3 17.2 C 0 km/h
Sensor: Nr:Datum:Temp:Abs-Feuchte:Windchill:Wind:
Aussen-T/F 2401 12-04-2005 13:15:01 17.4 C 5.93 g/m*3 17.4 C 0 km/h
2402 12-04-2005 13:27:01 16.7 C 5.68 g/m*3 16.7 C 0 km/h
2403 12-04-2005 13:39:02 17.2 C 5.56 g/m*3 17.2 C 0 km/h
2404 12-04-2005 13:51:02 16.6 C 5.65 g/m*3 16.6 C 0 km/h
2405 12-04-2005 14:03:03 16.3 C 5.69 g/m*3 16.3 C 0 km/h
2406 12-04-2005 14:15:02 18.4 C 6.29 g/m*3 18.4 C 0 km/h
2407 12-04-2005 14:27:02 18.6 C 5.89 g/m*3 18.6 C 0 km/h
2408 12-04-2005 14:39:02 18.2 C 6.22 g/m*3 18.2 C 0 km/h
2409 12-04-2005 14:51:02 18.7 C 6.08 g/m*3 18.7 C 0 km/h
2410 12-04-2005 15:03:02 18.7 C 5.92 g/m*3 18.7 C 0 km/h
2411 12-04-2005 15:15:02 18.4 C 6.13 g/m*3 18.4 C 0 km/h
2412 12-04-2005 15:27:02 18.8 C 6.6 g/m*3 18.8 C 0 km/h
2413 12-04-2005 15:39:03 18.3 C 6.1 g/m*3 18.3 C 0 km/h
2414 12-04-2005 15:51:02 18.9 C 6.48 g/m*3 18.9 C 0 km/h
2415 12-04-2005 16:03:02 20.4 C 6.37 g/m*3 20.4 C 0 km/h
2416 12-04-2005 16:15:02 20.1 C 6.08 g/m*3 20.1 C 0 km/h
2417 12-04-2005 16:27:02 19.5 C 6.21 g/m*3 19.5 C 0 km/h
2418 12-04-2005 16:39:02 20.4 C 6.19 g/m*3 20.4 C 0 km/h
2419 12-04-2005 16:51:02 19.9 C 6.01 g/m*3 19.9 C 0 km/h
2420 12-04-2005 17:03:02 18.4 C 5.98 g/m*3 18.4 C 0 km/h
2421 12-04-2005 17:15:02 18.3 C 6.41 g/m*3 18.3 C 0 km/h
2422 12-04-2005 17:27:02 18.6 C 6.53 g/m*3 18.6 C 0 km/h
2423 12-04-2005 17:39:02 18.5 C 6.33 g/m*3 18.5 C 0 km/h
2424 12-04-2005 17:51:01 18.3 C 6.57 g/m*3 18.3 C 0 km/h
2425 12-04-2005 18:03:01 17.9 C 6.57 g/m*3 17.9 C 0 km/h
Sensor: Nr:Datum:Temp:Abs-Feuchte:Windchill:Wind:
Aussen-T/F 2426 12-04-2005 18:15:02 17.7 C 6.64 g/m*3 17.7 C 0 km/h
2427 12-04-2005 18:27:02 17.7 C 6.79 g/m*3 17.7 C 0 km/h
2428 12-04-2005 18:39:02 17.2 C 6.74 g/m*3 17.2 C 0 km/h
2429 12-04-2005 18:51:02 17 C 6.66 g/m*3 17 C 0 km/h
2430 12-04-2005 19:03:02 16.4 C 6.7 g/m*3 16.4 C 0 km/h
2431 12-04-2005 19:15:03 16.7 C 6.68 g/m*3 16.7 C 0 km/h
2432 12-04-2005 19:27:03 15.6 C 6.65 g/m*3 15.6 C 0 km/h
2433 12-04-2005 19:39:02 14.9 C 6.75 g/m*3 14.9 C 0 km/h
2434 12-04-2005 19:51:02 14.5 C 6.84 g/m*3 14.5 C 0 km/h
2435 12-04-2005 20:03:01 14.2 C 6.84 g/m*3 14.2 C 0 km/h
2436 12-04-2005 20:15:02 13.8 C 7.03 g/m*3 13.8 C 0 km/h
2437 12-04-2005 20:27:02 13.5 C 7.02 g/m*3 13.5 C 0 km/h
2438 12-04-2005 20:39:02 13.2 C 7.12 g/m*3 13.2 C 0 km/h
2439 12-04-2005 20:51:01 12.9 C 7.21 g/m*3 12.9 C 0 km/h
2440 12-04-2005 21:03:01 12.6 C 7.08 g/m*3 12.6 C 0 km/h
2441 12-04-2005 21:15:02 12.4 C 7.1 g/m*3 12.4 C 0 km/h
2442 12-04-2005 21:27:02 12.1 C 7.08 g/m*3 12.1 C 0 km/h
2443 12-04-2005 21:39:01 12.1 C 7.18 g/m*3 12.1 C 0 km/h
2444 12-04-2005 21:51:02 12.2 C 7.23 g/m*3 12.2 C 0 km/h
2445 12-04-2005 22:03:02 12.2 C 7.12 g/m*3 12.2 C 0 km/h
2446 12-04-2005 22:15:02 12.1 C 7.18 g/m*3 12.1 C 0 km/h
2447 12-04-2005 22:27:02 11.6 C 7.07 g/m*3 11.6 C 0 km/h
2448 12-04-2005 22:39:02 11.3 C 7.14 g/m*3 11.3 C 0 km/h
2449 12-04-2005 22:51:02 11.1 C 7.15 g/m*3 11.1 C 0 km/h
2450 12-04-2005 23:03:02 11 C 7.21 g/m*3 11 C 0 km/h
Sensor: Nr:Datum:Temp:Abs-Feuchte:Windchill:Wind:
Aussen-T/F 2451 12-04-2005 23:15:02 10.9 C 7.26 g/m*3 10.9 C 0 km/h
2452 12-04-2005 23:27:02 10.7 C 7.17 g/m*3 10.7 C 0 km/h
2453 12-04-2005 23:39:02 10.7 C 7.17 g/m*3 10.7 C 0 km/h
2454 12-04-2005 23:51:01 10.6 C 7.12 g/m*3 10.6 C 0 km/h
2455 13-04-2005 00:03:02 10.5 C 7.08 g/m*3 10.5 C 0 km/h
2456 13-04-2005 00:15:02 10.5 C 7.18 g/m*3 10.5 C 0 km/h
2457 13-04-2005 00:27:02 10.6 C 7.22 g/m*3 10.6 C 0 km/h
2458 13-04-2005 00:39:01 10.5 C 7.18 g/m*3 10.5 C 0 km/h
2459 13-04-2005 00:51:02 10.2 C 7.04 g/m*3 10.2 C 0 km/h
2460 13-04-2005 01:03:01 10.1 C 7.09 g/m*3 10.1 C 0 km/h
2461 13-04-2005 01:15:02 10.2 C 7.14 g/m*3 10.2 C 0 km/h
2462 13-04-2005 01:27:02 10 C 7.05 g/m*3 10 C 0 km/h
2463 13-04-2005 01:39:02 10 C 7.14 g/m*3 10 C 0 km/h
2464 13-04-2005 01:51:02 10 C 7.14 g/m*3 10 C 0 km/h
2465 13-04-2005 02:03:01 9.8 C 7.24 g/m*3 9.8 C 0 km/h
2466 13-04-2005 02:15:01 9.6 C 7.24 g/m*3 9.6 C 0 km/h
2467 13-04-2005 02:27:01 9.6 C 7.24 g/m*3 9.6 C 0 km/h
2468 13-04-2005 02:39:01 9.7 C 7.19 g/m*3 9.7 C 0 km/h
2469 13-04-2005 02:52:04 9.6 C 7.15 g/m*3 9.6 C 0 km/h
2470 13-04-2005 03:04:04 9.5 C 7.19 g/m*3 9.5 C 0 km/h
2471 13-04-2005 03:16:04 9.2 C 7.05 g/m*3 9.2 C 0 km/h
2472 13-04-2005 03:28:04 9.2 C 7.14 g/m*3 9.2 C 0 km/h
2473 13-04-2005 03:40:03 9.3 C 7.19 g/m*3 9.3 C 0 km/h
2474 13-04-2005 03:52:03 9.2 C 7.05 g/m*3 9.2 C 0 km/h
2475 13-04-2005 04:04:02 9.3 C 7.1 g/m*3 9.3 C 0 km/h
Sensor: Nr:Datum:Temp:Abs-Feuchte:Windchill:Wind:
Aussen-T/F 2476 13-04-2005 04:16:02 9.1 C 7.01 g/m*3 9.1 C 0 km/h
2477 13-04-2005 04:28:02 8.8 C 7.14 g/m*3 8.8 C 0 km/h
2478 13-04-2005 04:40:02 8.8 C 7.14 g/m*3 8.8 C 0 km/h
2479 13-04-2005 04:52:03 8.9 C 7.18 g/m*3 8.9 C 0 km/h
2480 13-04-2005 05:04:03 8.9 C 7.1 g/m*3 8.9 C 0 km/h
2481 13-04-2005 05:16:03 8.5 C 7 g/m*3 8.5 C 0 km/h
2482 13-04-2005 05:28:03 8.2 C 6.95 g/m*3 8.2 C 0 km/h
2483 13-04-2005 05:40:03 8 C 6.86 g/m*3 8 C 0 km/h
2484 13-04-2005 05:52:02 7.9 C 6.98 g/m*3 7.9 C 0 km/h
2485 13-04-2005 06:04:02 7.7 C 6.89 g/m*3 7.7 C 0 km/h
2486 13-04-2005 06:16:02 7.6 C 6.85 g/m*3 7.6 C 0 km/h
2487 13-04-2005 06:28:02 7.5 C 6.8 g/m*3 7.5 C 0 km/h
2488 13-04-2005 06:40:02 7.1 C 6.71 g/m*3 7.1 C 0 km/h
2489 13-04-2005 06:52:02 6.8 C 6.73 g/m*3 6.8 C 0 km/h
2490 13-04-2005 07:04:02 6.8 C 6.73 g/m*3 6.8 C 0 km/h
2491 13-04-2005 07:16:03 6.9 C 6.85 g/m*3 6.9 C 0 km/h
2492 13-04-2005 07:28:03 7.1 C 6.79 g/m*3 7.1 C 0 km/h
2493 13-04-2005 07:40:02 7.4 C 6.84 g/m*3 7.4 C 0 km/h
2494 13-04-2005 07:52:01 7.6 C 6.85 g/m*3 7.6 C 0 km/h
2495 13-04-2005 08:04:01 7.9 C 6.9 g/m*3 7.9 C 0 km/h
2496 13-04-2005 08:16:01 8.4 C 7.04 g/m*3 8.4 C 0 km/h
2497 13-04-2005 08:28:01 8.4 C 6.87 g/m*3 8.4 C 0 km/h
2498 13-04-2005 08:40:01 8.5 C 6.83 g/m*3 8.5 C 0 km/h
2499 13-04-2005 08:52:02 8.5 C 6.83 g/m*3 8.5 C 0 km/h
2500 13-04-2005 09:04:01 8.8 C 6.96 g/m*3 8.8 C 0 km/h
Sensor: Nr:Datum:Temp:Abs-Feuchte:Windchill:Wind:
Aussen-T/F 2501 13-04-2005 09:16:01 9.2 C 6.88 g/m*3 9.2 C 0 km/h
2502 13-04-2005 09:28:01 9.4 C 6.96 g/m*3 9.4 C 0 km/h
2503 13-04-2005 09:40:02 9.7 C 6.91 g/m*3 9.7 C 0 km/h
2504 13-04-2005 09:52:02 9.7 C 6.91 g/m*3 9.7 C 0 km/h
2505 13-04-2005 10:04:02 10.1 C 7 g/m*3 10.1 C 0 km/h
2506 13-04-2005 10:16:02 10.7 C 7.17 g/m*3 10.7 C 0 km/h
2507 13-04-2005 10:28:02 11.3 C 7.14 g/m*3 11.3 C 0 km/h
2508 13-04-2005 10:40:03 11.8 C 7.26 g/m*3 11.8 C 0 km/h
2509 13-04-2005 10:52:02 12.4 C 7.32 g/m*3 12.4 C 0 km/h
2510 13-04-2005 11:04:02 13 C 7.26 g/m*3 13 C 0 km/h
2511 13-04-2005 11:16:03 13.5 C 7.37 g/m*3 13.5 C 0 km/h
2512 13-04-2005 11:28:03 13.8 C 7.15 g/m*3 13.8 C 0 km/h
2513 13-04-2005 11:40:02 14.2 C 7.08 g/m*3 14.2 C 0 km/h
2514 13-04-2005 11:52:02 14.7 C 7.18 g/m*3 14.7 C 0 km/h
2515 13-04-2005 12:04:01 15.2 C 6.75 g/m*3 15.2 C 0 km/h
2516 13-04-2005 12:16:02 15.8 C 6.46 g/m*3 15.8 C 0 km/h
2517 13-04-2005 12:28:02 16.4 C 6.14 g/m*3 16.4 C 0 km/h
2518 13-04-2005 12:40:01 16.8 C 6 g/m*3 16.8 C 0 km/h
2519 13-04-2005 12:52:02 16.7 C 5.97 g/m*3 16.7 C 0 km/h
2520 13-04-2005 13:04:02 17 C 5.93 g/m*3 17 C 0 km/h
2521 13-04-2005 13:16:02 17.1 C 5.68 g/m*3 17.1 C 0 km/h
2522 13-04-2005 13:28:02 17.6 C 5.85 g/m*3 17.6 C 0 km/h
2523 13-04-2005 13:40:02 18.2 C 5.91 g/m*3 18.2 C 0 km/h
2524 13-04-2005 13:52:02 17.6 C 6 g/m*3 17.6 C 0 km/h
2525 13-04-2005 14:04:01 18.1 C 6.18 g/m*3 18.1 C 0 km/h
Sensor: Nr:Datum:Temp:Abs-Feuchte:Windchill:Wind:
Aussen-T/F 2526 13-04-2005 14:16:02 18.5 C 6.01 g/m*3 18.5 C 0 km/h
2527 13-04-2005 14:28:02 18.3 C 5.47 g/m*3 18.3 C 0 km/h
2528 13-04-2005 14:40:02 19 C 5.38 g/m*3 19 C 0 km/h
2529 13-04-2005 14:52:02 19.1 C 5.08 g/m*3 19.1 C 0 km/h
2530 13-04-2005 15:04:02 18.9 C 5.35 g/m*3 18.9 C 0 km/h
2531 13-04-2005 15:16:02 18.5 C 5.06 g/m*3 18.5 C 0 km/h
2532 13-04-2005 15:28:02 18.9 C 5.18 g/m*3 18.9 C 0 km/h
2533 13-04-2005 15:40:02 18.9 C 5.35 g/m*3 18.9 C 0 km/h
2534 13-04-2005 15:52:01 19.9 C 5.5 g/m*3 19.9 C 0 km/h
2535 13-04-2005 16:04:01 19.1 C 5.25 g/m*3 19.1 C 0 km/h
2536 13-04-2005 16:16:02 18.9 C 5.18 g/m*3 18.9 C 0 km/h
2537 13-04-2005 16:28:02 18.9 C 5.35 g/m*3 18.9 C 0 km/h
2538 13-04-2005 16:40:02 18.9 C 5.18 g/m*3 18.9 C 0 km/h
2539 13-04-2005 16:52:02 18.5 C 5.06 g/m*3 18.5 C 0 km/h
2540 13-04-2005 17:04:02 18.5 C 5.38 g/m*3 18.5 C 0 km/h
2541 13-04-2005 17:16:03 18.4 C 5.35 g/m*3 18.4 C 0 km/h
2542 13-04-2005 17:28:03 18.3 C 5 g/m*3 18.3 C 0 km/h
2543 13-04-2005 17:40:02 18.2 C 4.97 g/m*3 18.2 C 0 km/h
2544 13-04-2005 17:52:02 18.1 C 5.41 g/m*3 18.1 C 0 km/h
2545 13-04-2005 18:04:01 17.9 C 5.34 g/m*3 17.9 C 0 km/h
2546 13-04-2005 18:16:01 17.7 C 5.43 g/m*3 17.7 C 0 km/h
2547 13-04-2005 18:28:01 17.3 C 5.45 g/m*3 17.3 C 0 km/h
2548 13-04-2005 18:40:02 17 C 5.5 g/m*3 17 C 0 km/h
2549 13-04-2005 18:52:02 16.8 C 5.72 g/m*3 16.8 C 0 km/h
2550 13-04-2005 19:04:02 16.7 C 5.83 g/m*3 16.7 C 0 km/h
Sensor: Nr:Datum:Temp:Abs-Feuchte:Windchill:Wind:
Aussen-T/F 2551 13-04-2005 19:16:02 16.5 C 5.76 g/m*3 16.5 C 0 km/h
2552 13-04-2005 19:28:02 16.3 C 5.83 g/m*3 16.3 C 0 km/h
2553 13-04-2005 19:40:03 15.9 C 5.96 g/m*3 15.9 C 0 km/h
2554 13-04-2005 19:52:02 15.6 C 5.72 g/m*3 15.6 C 0 km/h
2555 13-04-2005 20:04:02 15.4 C 5.91 g/m*3 15.4 C 0 km/h
2556 13-04-2005 20:16:02 15 C 6.03 g/m*3 15 C 0 km/h
2557 13-04-2005 20:28:02 14.8 C 6.08 g/m*3 14.8 C 0 km/h
2558 13-04-2005 20:40:02 14.4 C 5.81 g/m*3 14.4 C 0 km/h
2559 13-04-2005 20:52:02 14 C 6.03 g/m*3 14 C 0 km/h
2560 13-04-2005 21:04:03 13.7 C 6.28 g/m*3 13.7 C 0 km/h
2561 13-04-2005 21:16:03 13.4 C 6.16 g/m*3 13.4 C 0 km/h
2562 13-04-2005 21:28:03 13.4 C 6.16 g/m*3 13.4 C 0 km/h
2563 13-04-2005 21:40:02 13.1 C 6.05 g/m*3 13.1 C 0 km/h
2564 13-04-2005 21:52:02 13 C 6.01 g/m*3 13 C 0 km/h
2565 13-04-2005 22:04:01 12.7 C 6.35 g/m*3 12.7 C 0 km/h
2566 13-04-2005 22:16:02 12.4 C 6.45 g/m*3 12.4 C 0 km/h
2567 13-04-2005 22:28:02 12.1 C 6.22 g/m*3 12.1 C 0 km/h
2568 13-04-2005 22:40:02 11.9 C 6.46 g/m*3 11.9 C 0 km/h
2569 13-04-2005 22:52:02 11.6 C 6.34 g/m*3 11.6 C 0 km/h
2570 13-04-2005 23:04:03 11.5 C 6.3 g/m*3 11.5 C 0 km/h
2571 13-04-2005 23:16:02 11.1 C 6.35 g/m*3 11.1 C 0 km/h
2572 13-04-2005 23:28:02 10.8 C 6.42 g/m*3 10.8 C 0 km/h
2573 13-04-2005 23:40:02 10.7 C 6.38 g/m*3 10.7 C 0 km/h
2574 13-04-2005 23:52:01 10.6 C 6.44 g/m*3 10.6 C 0 km/h
2575 14-04-2005 00:04:01 10.4 C 6.46 g/m*3 10.4 C 0 km/h
Sensor: Nr:Datum:Temp:Abs-Feuchte:Windchill:Wind:
Aussen-T/F 2576 14-04-2005 00:16:02 10.1 C 6.34 g/m*3 10.1 C 0 km/h
2577 14-04-2005 00:28:02 10.1 C 6.34 g/m*3 10.1 C 0 km/h
2578 14-04-2005 00:40:01 10 C 6.39 g/m*3 10 C 0 km/h
2579 14-04-2005 00:52:02 10 C 6.39 g/m*3 10 C 0 km/h
2580 14-04-2005 01:04:02 9.9 C 6.44 g/m*3 9.9 C 0 km/h
2581 14-04-2005 01:16:03 10 C 6.48 g/m*3 10 C 0 km/h
2582 14-04-2005 01:28:03 9.5 C 6.46 g/m*3 9.5 C 0 km/h
2583 14-04-2005 01:40:03 9.4 C 6.51 g/m*3 9.4 C 0 km/h
2584 14-04-2005 01:52:02 9 C 6.44 g/m*3 9 C 0 km/h
2585 14-04-2005 02:04:01 8.8 C 6.53 g/m*3 8.8 C 0 km/h
2586 14-04-2005 02:16:02 8.5 C 6.49 g/m*3 8.5 C 0 km/h
2587 14-04-2005 02:28:02 8.3 C 6.41 g/m*3 8.3 C 0 km/h
2588 14-04-2005 02:40:01 8.2 C 6.45 g/m*3 8.2 C 0 km/h
2589 14-04-2005 02:53:04 8.1 C 6.49 g/m*3 8.1 C 0 km/h
2590 14-04-2005 03:05:04 8 C 6.53 g/m*3 8 C 0 km/h
2591 14-04-2005 03:17:04 7.9 C 6.57 g/m*3 7.9 C 0 km/h
2592 14-04-2005 03:29:04 7.8 C 6.61 g/m*3 7.8 C 0 km/h
2593 14-04-2005 03:41:01 7.9 C 6.65 g/m*3 7.9 C 0 km/h
2594 14-04-2005 03:53:01 7.8 C 6.61 g/m*3 7.8 C 0 km/h
2595 14-04-2005 04:05:02 7.8 C 6.61 g/m*3 7.8 C 0 km/h
2596 14-04-2005 04:17:02 8 C 6.61 g/m*3 8 C 0 km/h
2597 14-04-2005 04:29:02 8.2 C 6.7 g/m*3 8.2 C 0 km/h
2598 14-04-2005 04:41:02 8.3 C 6.74 g/m*3 8.3 C 0 km/h
2599 14-04-2005 04:53:02 8.5 C 6.83 g/m*3 8.5 C 0 km/h
2600 14-04-2005 05:05:01 8.6 C 6.79 g/m*3 8.6 C 0 km/h
Sensor: Nr:Datum:Temp:Abs-Feuchte:Windchill:Wind:
Aussen-T/F 2601 14-04-2005 05:17:02 8.6 C 6.79 g/m*3 8.6 C 0 km/h
2602 14-04-2005 05:29:02 8.6 C 6.79 g/m*3 8.6 C 0 km/h
2603 14-04-2005 05:41:02 8.6 C 6.7 g/m*3 8.6 C 0 km/h
2604 14-04-2005 05:53:03 8.5 C 6.74 g/m*3 8.5 C 0 km/h
2605 14-04-2005 06:05:02 8.3 C 6.66 g/m*3 8.3 C 0 km/h
2606 14-04-2005 06:17:02 8.3 C 6.66 g/m*3 8.3 C 0 km/h
2607 14-04-2005 06:29:02 8.4 C 6.7 g/m*3 8.4 C 0 km/h
2608 14-04-2005 06:41:02 8.4 C 6.7 g/m*3 8.4 C 0 km/h
2609 14-04-2005 06:53:02 8.4 C 6.7 g/m*3 8.4 C 0 km/h
2610 14-04-2005 07:05:01 8.5 C 6.74 g/m*3 8.5 C 0 km/h
2611 14-04-2005 07:17:02 8.4 C 6.7 g/m*3 8.4 C 0 km/h
2612 14-04-2005 07:29:02 8.5 C 6.74 g/m*3 8.5 C 0 km/h
2613 14-04-2005 07:41:02 8.6 C 6.79 g/m*3 8.6 C 0 km/h
2614 14-04-2005 07:53:02 8.6 C 6.79 g/m*3 8.6 C 0 km/h
2615 14-04-2005 08:05:02 8.8 C 6.79 g/m*3 8.8 C 0 km/h
2616 14-04-2005 08:17:02 9 C 6.79 g/m*3 9 C 0 km/h
2617 14-04-2005 08:29:02 9.3 C 6.83 g/m*3 9.3 C 0 km/h
2618 14-04-2005 08:41:02 9.6 C 6.87 g/m*3 9.6 C 0 km/h
2619 14-04-2005 08:53:02 9.6 C 6.78 g/m*3 9.6 C 0 km/h
2620 14-04-2005 09:05:02 9.7 C 6.82 g/m*3 9.7 C 0 km/h
2621 14-04-2005 09:17:02 10 C 6.77 g/m*3 10 C 0 km/h
2622 14-04-2005 09:29:02 10.2 C 6.76 g/m*3 10.2 C 0 km/h
2623 14-04-2005 09:41:02 10.4 C 6.84 g/m*3 10.4 C 0 km/h
2624 14-04-2005 09:53:02 10.8 C 7.02 g/m*3 10.8 C 0 km/h
2625 14-04-2005 10:05:01 11.3 C 7.04 g/m*3 11.3 C 0 km/h
Sensor: Nr:Datum:Temp:Abs-Feuchte:Windchill:Wind:
Aussen-T/F 2626 14-04-2005 10:17:02 11.9 C 7.1 g/m*3 11.9 C 0 km/h
2627 14-04-2005 10:29:02 12.5 C 7.15 g/m*3 12.5 C 0 km/h
2628 14-04-2005 10:41:02 13.2 C 7.23 g/m*3 13.2 C 0 km/h
2629 14-04-2005 10:53:02 13.8 C 7.27 g/m*3 13.8 C 0 km/h
2630 14-04-2005 11:05:02 14.6 C 7.38 g/m*3 14.6 C 0 km/h
2631 14-04-2005 11:17:02 15.3 C 7.31 g/m*3 15.3 C 0 km/h
2632 14-04-2005 11:29:02 16.1 C 7.26 g/m*3 16.1 C 0 km/h
2633 14-04-2005 11:41:02 16 C 6.68 g/m*3 16 C 0 km/h
2634 14-04-2005 11:53:01 16.4 C 6.84 g/m*3 16.4 C 0 km/h
2635 14-04-2005 12:05:01 17.4 C 6.97 g/m*3 17.4 C 0 km/h
2636 14-04-2005 12:17:02 17.5 C 6.86 g/m*3 17.5 C 0 km/h
2637 14-04-2005 12:29:02 16.8 C 6.72 g/m*3 16.8 C 0 km/h
2638 14-04-2005 12:41:01 16.7 C 6.54 g/m*3 16.7 C 0 km/h
2639 14-04-2005 12:53:02 16.9 C 6.47 g/m*3 16.9 C 0 km/h
2640 14-04-2005 13:05:03 16.9 C 6.33 g/m*3 16.9 C 0 km/h
2641 14-04-2005 13:17:02 17.3 C 6.19 g/m*3 17.3 C 0 km/h
2642 14-04-2005 13:29:02 17.8 C 6.37 g/m*3 17.8 C 0 km/h
2643 14-04-2005 13:41:02 17.9 C 6.11 g/m*3 17.9 C 0 km/h
2644 14-04-2005 13:53:01 18.5 C 5.85 g/m*3 18.5 C 0 km/h
2645 14-04-2005 14:05:02 17.9 C 5.65 g/m*3 17.9 C 0 km/h
2646 14-04-2005 14:17:01 18.2 C 5.6 g/m*3 18.2 C 0 km/h
2647 14-04-2005 14:29:01 18.3 C 5.63 g/m*3 18.3 C 0 km/h
2648 14-04-2005 14:41:02 18.5 C 5.38 g/m*3 18.5 C 0 km/h
2649 14-04-2005 14:53:02 18.6 C 5.57 g/m*3 18.6 C 0 km/h
2650 14-04-2005 15:05:02 19.3 C 5.64 g/m*3 19.3 C 0 km/h
Sensor: Nr:Datum:Temp:Abs-Feuchte:Windchill:Wind:
Aussen-T/F 2651 14-04-2005 15:17:03 19.5 C 5.71 g/m*3 19.5 C 0 km/h
2652 14-04-2005 15:29:03 18.6 C 5.41 g/m*3 18.6 C 0 km/h
2653 14-04-2005 15:41:02 19.2 C 5.44 g/m*3 19.2 C 0 km/h
2654 14-04-2005 15:53:02 19.4 C 5.17 g/m*3 19.4 C 0 km/h
2655 14-04-2005 16:05:01 19.4 C 5.17 g/m*3 19.4 C 0 km/h
2656 14-04-2005 16:17:02 19.5 C 5.2 g/m*3 19.5 C 0 km/h
2657 14-04-2005 16:29:02 19.5 C 5.2 g/m*3 19.5 C 0 km/h
2658 14-04-2005 16:41:02 19.8 C 5.12 g/m*3 19.8 C 0 km/h
2659 14-04-2005 16:53:02 19.4 C 5.01 g/m*3 19.4 C 0 km/h
2660 14-04-2005 17:05:01 19.2 C 4.95 g/m*3 19.2 C 0 km/h
2661 14-04-2005 17:17:02 18.9 C 5.02 g/m*3 18.9 C 0 km/h
2662 14-04-2005 17:29:02 18.7 C 5.12 g/m*3 18.7 C 0 km/h
2663 14-04-2005 17:41:02 18.9 C 5.18 g/m*3 18.9 C 0 km/h
2664 14-04-2005 17:53:02 19.6 C 5.23 g/m*3 19.6 C 0 km/h
2665 14-04-2005 18:05:02 19.7 C 5.26 g/m*3 19.7 C 0 km/h
2666 14-04-2005 18:17:02 20.2 C 5.6 g/m*3 20.2 C 0 km/h
2667 14-04-2005 18:29:02 19.9 C 6.01 g/m*3 19.9 C 0 km/h
2668 14-04-2005 18:41:03 19.4 C 5.84 g/m*3 19.4 C 0 km/h
2669 14-04-2005 18:53:02 19.2 C 5.94 g/m*3 19.2 C 0 km/h
2670 14-04-2005 19:05:02 19 C 5.87 g/m*3 19 C 0 km/h
2671 14-04-2005 19:17:02 18.9 C 6.16 g/m*3 18.9 C 0 km/h
2672 14-04-2005 19:29:02 18.6 C 6.05 g/m*3 18.6 C 0 km/h
2673 14-04-2005 19:41:02 18.1 C 6.18 g/m*3 18.1 C 0 km/h
2674 14-04-2005 19:53:02 17.5 C 6.11 g/m*3 17.5 C 0 km/h
2675 14-04-2005 20:05:02 16.8 C 6.58 g/m*3 16.8 C 0 km/h
Sensor: Nr:Datum:Temp:Abs-Feuchte:Windchill:Wind:
Aussen-T/F 2676 14-04-2005 20:17:02 15.9 C 6.64 g/m*3 15.9 C 0 km/h
2677 14-04-2005 20:29:02 15.3 C 6.66 g/m*3 15.3 C 0 km/h
2678 14-04-2005 20:41:02 14.7 C 6.42 g/m*3 14.7 C 0 km/h
2679 14-04-2005 20:53:02 14.2 C 6.35 g/m*3 14.2 C 0 km/h
2680 14-04-2005 21:05:02 14 C 6.27 g/m*3 14 C 0 km/h
2681 14-04-2005 21:17:02 13.6 C 6.36 g/m*3 13.6 C 0 km/h
2682 14-04-2005 21:29:02 13.4 C 6.51 g/m*3 13.4 C 0 km/h
2683 14-04-2005 21:41:02 13.1 C 6.73 g/m*3 13.1 C 0 km/h
2684 14-04-2005 21:53:02 12.9 C 6.88 g/m*3 12.9 C 0 km/h
2685 14-04-2005 22:05:02 12.7 C 6.68 g/m*3 12.7 C 0 km/h
2686 14-04-2005 22:17:02 12.5 C 6.82 g/m*3 12.5 C 0 km/h
2687 14-04-2005 22:29:02 12.4 C 6.77 g/m*3 12.4 C 0 km/h
2688 14-04-2005 22:41:02 12.1 C 6.65 g/m*3 12.1 C 0 km/h
2689 14-04-2005 22:53:02 11.8 C 6.74 g/m*3 11.8 C 0 km/h
2690 14-04-2005 23:05:01 11.6 C 6.76 g/m*3 11.6 C 0 km/h
2691 14-04-2005 23:17:02 11.2 C 6.69 g/m*3 11.2 C 0 km/h
2692 14-04-2005 23:29:02 11 C 6.71 g/m*3 11 C 0 km/h
2693 14-04-2005 23:41:02 10.7 C 6.68 g/m*3 10.7 C 0 km/h
2694 14-04-2005 23:53:02 10.4 C 6.55 g/m*3 10.4 C 0 km/h
2695 15-04-2005 00:05:02 10.2 C 6.57 g/m*3 10.2 C 0 km/h
2696 15-04-2005 00:17:03 10.1 C 6.52 g/m*3 10.1 C 0 km/h
2697 15-04-2005 00:29:03 10 C 6.48 g/m*3 10 C 0 km/h
2698 15-04-2005 00:41:02 9.7 C 6.55 g/m*3 9.7 C 0 km/h
2699 15-04-2005 00:53:02 9.5 C 6.55 g/m*3 9.5 C 0 km/h
2700 15-04-2005 01:05:02 9.4 C 6.6 g/m*3 9.4 C 0 km/h
Sensor: Nr:Datum:Temp:Abs-Feuchte:Windchill:Wind:
Aussen-T/F 2701 15-04-2005 01:17:03 9.2 C 6.7 g/m*3 9.2 C 0 km/h
2702 15-04-2005 01:29:03 9 C 6.61 g/m*3 9 C 0 km/h
2703 15-04-2005 01:41:02 9 C 6.7 g/m*3 9 C 0 km/h
2704 15-04-2005 01:53:02 8.9 C 6.75 g/m*3 8.9 C 0 km/h
2705 15-04-2005 02:05:02 8.7 C 6.66 g/m*3 8.7 C 0 km/h
2706 15-04-2005 02:17:02 8.5 C 6.57 g/m*3 8.5 C 0 km/h
2707 15-04-2005 02:29:02 8.5 C 6.66 g/m*3 8.5 C 0 km/h
2708 15-04-2005 02:41:02 8.4 C 6.7 g/m*3 8.4 C 0 km/h
2709 15-04-2005 02:54:04 8.2 C 6.7 g/m*3 8.2 C 0 km/h
2710 15-04-2005 03:06:05 8.1 C 6.57 g/m*3 8.1 C 0 km/h
2711 15-04-2005 03:18:04 8 C 6.61 g/m*3 8 C 0 km/h
2712 15-04-2005 03:30:04 7.9 C 6.65 g/m*3 7.9 C 0 km/h
2713 15-04-2005 03:42:02 7.9 C 6.65 g/m*3 7.9 C 0 km/h
2714 15-04-2005 03:54:02 7.9 C 6.65 g/m*3 7.9 C 0 km/h
2715 15-04-2005 04:06:02 7.8 C 6.61 g/m*3 7.8 C 0 km/h
2716 15-04-2005 04:18:02 7.6 C 6.61 g/m*3 7.6 C 0 km/h
2717 15-04-2005 04:30:02 7.6 C 6.61 g/m*3 7.6 C 0 km/h
2718 15-04-2005 04:42:01 7.7 C 6.65 g/m*3 7.7 C 0 km/h
2719 15-04-2005 04:54:01 7.3 C 6.48 g/m*3 7.3 C 0 km/h
2720 15-04-2005 05:06:02 7.2 C 6.52 g/m*3 7.2 C 0 km/h
2721 15-04-2005 05:18:01 7.3 C 6.64 g/m*3 7.3 C 0 km/h
2722 15-04-2005 05:30:02 7.1 C 6.55 g/m*3 7.1 C 0 km/h
2723 15-04-2005 05:42:01 7 C 6.43 g/m*3 7 C 0 km/h
2724 15-04-2005 05:54:02 6.9 C 6.47 g/m*3 6.9 C 0 km/h
2725 15-04-2005 06:06:02 6.8 C 6.5 g/m*3 6.8 C 0 km/h
Sensor: Nr:Datum:Temp:Abs-Feuchte:Windchill:Wind:
Aussen-T/F 2726 15-04-2005 06:18:02 6.7 C 6.46 g/m*3 6.7 C 0 km/h
2727 15-04-2005 06:30:02 6.7 C 6.53 g/m*3 6.7 C 0 km/h
2728 15-04-2005 06:42:02 6.7 C 6.61 g/m*3 6.7 C 0 km/h
2729 15-04-2005 06:54:02 6.7 C 6.61 g/m*3 6.7 C 0 km/h
2730 15-04-2005 07:06:02 6.9 C 6.62 g/m*3 6.9 C 0 km/h
2731 15-04-2005 07:18:03 6.9 C 6.62 g/m*3 6.9 C 0 km/h
2732 15-04-2005 07:30:03 7 C 6.59 g/m*3 7 C 0 km/h
2733 15-04-2005 07:42:02 6.9 C 6.54 g/m*3 6.9 C 0 km/h
2734 15-04-2005 07:54:02 7 C 6.59 g/m*3 7 C 0 km/h
2735 15-04-2005 08:06:02 7 C 6.59 g/m*3 7 C 0 km/h
2736 15-04-2005 08:18:02 7.3 C 6.72 g/m*3 7.3 C 0 km/h
2737 15-04-2005 08:30:02 7.7 C 6.89 g/m*3 7.7 C 0 km/h
2738 15-04-2005 08:42:02 8 C 6.78 g/m*3 8 C 0 km/h
2739 15-04-2005 08:54:02 8.4 C 6.87 g/m*3 8.4 C 0 km/h
2740 15-04-2005 09:06:02 8.8 C 7.05 g/m*3 8.8 C 0 km/h
2741 15-04-2005 09:18:02 9.1 C 6.83 g/m*3 9.1 C 0 km/h
2742 15-04-2005 09:30:02 9.5 C 6.92 g/m*3 9.5 C 0 km/h
2743 15-04-2005 09:42:02 10.1 C 6.9 g/m*3 10.1 C 0 km/h
2744 15-04-2005 09:54:02 10.4 C 7.04 g/m*3 10.4 C 0 km/h
2745 15-04-2005 10:06:02 11.3 C 7.24 g/m*3 11.3 C 0 km/h
2746 15-04-2005 10:18:02 12.2 C 7.34 g/m*3 12.2 C 0 km/h
2747 15-04-2005 10:30:02 12.8 C 7.39 g/m*3 12.8 C 0 km/h
2748 15-04-2005 10:42:03 13.7 C 7.46 g/m*3 13.7 C 0 km/h
2749 15-04-2005 10:54:02 14.6 C 7.26 g/m*3 14.6 C 0 km/h
2750 15-04-2005 11:06:02 15.6 C 7.31 g/m*3 15.6 C 0 km/h
Sensor: Nr:Datum:Temp:Abs-Feuchte:Windchill:Wind:
Aussen-T/F 2751 15-04-2005 11:18:02 16.2 C 7.03 g/m*3 16.2 C 0 km/h
2752 15-04-2005 11:30:02 16.7 C 6.96 g/m*3 16.7 C 0 km/h
2753 15-04-2005 11:42:02 17.3 C 6.78 g/m*3 17.3 C 0 km/h
2754 15-04-2005 11:54:01 17.8 C 6.53 g/m*3 17.8 C 0 km/h
2755 15-04-2005 12:06:01 18.1 C 5.72 g/m*3 18.1 C 0 km/h
2756 15-04-2005 12:18:02 18.2 C 5.75 g/m*3 18.2 C 0 km/h
2757 15-04-2005 12:30:02 17.9 C 6.11 g/m*3 17.9 C 0 km/h
2758 15-04-2005 12:42:02 18.2 C 5.91 g/m*3 18.2 C 0 km/h
2759 15-04-2005 12:54:02 17.9 C 5.8 g/m*3 17.9 C 0 km/h
2760 15-04-2005 13:06:02 18.3 C 5.94 g/m*3 18.3 C 0 km/h
2761 15-04-2005 13:18:02 18.2 C 5.91 g/m*3 18.2 C 0 km/h
2762 15-04-2005 13:30:02 18.6 C 5.89 g/m*3 18.6 C 0 km/h
2763 15-04-2005 13:42:02 18.5 C 5.85 g/m*3 18.5 C 0 km/h
2764 15-04-2005 13:54:01 18.9 C 6.16 g/m*3 18.9 C 0 km/h
2765 15-04-2005 14:06:01 19.6 C 5.91 g/m*3 19.6 C 0 km/h
2766 15-04-2005 14:18:02 19.7 C 5.94 g/m*3 19.7 C 0 km/h
2767 15-04-2005 14:30:02 19.9 C 6.19 g/m*3 19.9 C 0 km/h
2768 15-04-2005 14:42:02 20 C 6.05 g/m*3 20 C 0 km/h
2769 15-04-2005 14:54:02 20.4 C 6.19 g/m*3 20.4 C 0 km/h
2770 15-04-2005 15:06:03 20.6 C 6.09 g/m*3 20.6 C 0 km/h
2771 15-04-2005 15:18:02 20.8 C 6.34 g/m*3 20.8 C 0 km/h
2772 15-04-2005 15:30:02 20 C 6.39 g/m*3 20 C 0 km/h
2773 15-04-2005 15:42:02 17.5 C 6.86 g/m*3 17.5 C 0 km/h
2774 15-04-2005 15:54:02 17.2 C 7.32 g/m*3 17.2 C 0 km/h
2775 15-04-2005 16:06:02 16.4 C 7.26 g/m*3 16.4 C 0 km/h
Sensor: Nr:Datum:Temp:Abs-Feuchte:Windchill:Wind:
Aussen-T/F 2776 15-04-2005 16:18:02 16.6 C 7.35 g/m*3 16.6 C 0 km/h
2777 15-04-2005 16:30:02 17.3 C 7.22 g/m*3 17.3 C 0 km/h
2778 15-04-2005 16:42:02 16.9 C 6.9 g/m*3 16.9 C 0 km/h
2779 15-04-2005 16:54:02 17.4 C 6.82 g/m*3 17.4 C 0 km/h
2780 15-04-2005 17:06:03 17.5 C 6.86 g/m*3 17.5 C 0 km/h
2781 15-04-2005 17:18:02 17.6 C 6.9 g/m*3 17.6 C 0 km/h
2782 15-04-2005 17:30:02 17.3 C 6.63 g/m*3 17.3 C 0 km/h
2783 15-04-2005 17:42:04 17 C 6.51 g/m*3 17 C 0 km/h
2784 15-04-2005 17:54:02 16.8 C 6.58 g/m*3 16.8 C 0 km/h
2785 15-04-2005 18:06:02 16.5 C 6.32 g/m*3 16.5 C 0 km/h
2786 15-04-2005 18:18:01 16.1 C 6.31 g/m*3 16.1 C 0 km/h
2787 15-04-2005 18:30:01 16.1 C 6.31 g/m*3 16.1 C 0 km/h
2788 15-04-2005 18:42:02 15.9 C 6.37 g/m*3 15.9 C 0 km/h
2789 15-04-2005 18:54:02 15.8 C 6.19 g/m*3 15.8 C 0 km/h
2790 15-04-2005 19:06:03 15.6 C 6.12 g/m*3 15.6 C 0 km/h
2791 15-04-2005 19:18:02 15.5 C 6.34 g/m*3 15.5 C 0 km/h
2792 15-04-2005 19:30:02 15.2 C 6.49 g/m*3 15.2 C 0 km/h
2793 15-04-2005 19:42:02 14.9 C 6.5 g/m*3 14.9 C 0 km/h
2794 15-04-2005 19:54:02 14.1 C 7.16 g/m*3 14.1 C 0 km/h
2795 15-04-2005 20:06:02 13.8 C 6.67 g/m*3 13.8 C 0 km/h
2796 15-04-2005 20:18:02 13.8 C 6.43 g/m*3 13.8 C 0 km/h
2797 15-04-2005 20:30:02 13.7 C 6.39 g/m*3 13.7 C 0 km/h
2798 15-04-2005 20:42:02 12.9 C 7.1 g/m*3 12.9 C 0 km/h
2799 15-04-2005 20:54:02 11.8 C 7.89 g/m*3 11.8 C 0 km/h
2800 15-04-2005 21:06:01 11.2 C 8.11 g/m*3 11.2 C 0 km/h
Sensor: Nr:Datum:Temp:Abs-Feuchte:Windchill:Wind:
Aussen-T/F 2801 15-04-2005 21:18:02 10.9 C 8.26 g/m*3 10.9 C 0 km/h
2802 15-04-2005 21:30:02 10.9 C 8.16 g/m*3 10.9 C 0 km/h
2803 15-04-2005 21:42:02 11.2 C 8.01 g/m*3 11.2 C 0 km/h
2804 15-04-2005 21:54:02 11.2 C 8.21 g/m*3 11.2 C 0 km/h
2805 15-04-2005 22:06:02 11.2 C 8.01 g/m*3 11.2 C 0 km/h
2806 15-04-2005 22:18:02 11.4 C 8.11 g/m*3 11.4 C 0 km/h
2807 15-04-2005 22:30:02 11.3 C 8.06 g/m*3 11.3 C 0 km/h
2808 15-04-2005 22:42:02 11.4 C 8.01 g/m*3 11.4 C 0 km/h
2809 15-04-2005 22:54:01 11.2 C 8.01 g/m*3 11.2 C 0 km/h
2810 15-04-2005 23:06:02 11.1 C 7.76 g/m*3 11.1 C 0 km/h
2811 15-04-2005 23:18:01 11.1 C 7.66 g/m*3 11.1 C 0 km/h
2812 15-04-2005 23:30:01 11 C 7.31 g/m*3 11 C 0 km/h
2813 15-04-2005 23:42:02 10.8 C 7.02 g/m*3 10.8 C 0 km/h
2814 15-04-2005 23:54:02 10.8 C 6.92 g/m*3 10.8 C 0 km/h
2815 16-04-2005 00:06:02 10.8 C 6.92 g/m*3 10.8 C 0 km/h
2816 16-04-2005 00:18:03 10.7 C 7.07 g/m*3 10.7 C 0 km/h
2817 16-04-2005 00:30:03 10.2 C 7.14 g/m*3 10.2 C 0 km/h
2818 16-04-2005 00:42:02 10.1 C 7.09 g/m*3 10.1 C 0 km/h
2819 16-04-2005 00:54:03 10.1 C 7 g/m*3 10.1 C 0 km/h
2820 16-04-2005 01:06:02 10.1 C 6.9 g/m*3 10.1 C 0 km/h
2821 16-04-2005 01:18:03 10.1 C 7 g/m*3 10.1 C 0 km/h
2822 16-04-2005 01:30:03 10.2 C 6.95 g/m*3 10.2 C 0 km/h
2823 16-04-2005 01:42:02 10.2 C 6.95 g/m*3 10.2 C 0 km/h
2824 16-04-2005 01:54:02 9.3 C 7.37 g/m*3 9.3 C 0 km/h
2825 16-04-2005 02:06:01 9.1 C 7.63 g/m*3 9.1 C 0 km/h
Sensor: Nr:Datum:Temp:Abs-Feuchte:Windchill:Wind:
Aussen-T/F 2826 16-04-2005 02:18:01 9.2 C 7.86 g/m*3 9.2 C 0 km/h
2827 16-04-2005 02:30:01 9.1 C 7.9 g/m*3 9.1 C 0 km/h
2828 16-04-2005 02:42:02 9.1 C 7.9 g/m*3 9.1 C 0 km/h
2829 16-04-2005 02:55:03 9 C 7.93 g/m*3 9 C 0 km/h
2830 16-04-2005 03:07:03 8.7 C 7.96 g/m*3 8.7 C 0 km/h
2831 16-04-2005 03:19:03 8.5 C 7.85 g/m*3 8.5 C 0 km/h
2832 16-04-2005 03:31:02 8.5 C 7.85 g/m*3 8.5 C 0 km/h
2833 16-04-2005 03:43:02 8.2 C 7.79 g/m*3 8.2 C 0 km/h
2834 16-04-2005 03:55:02 8.4 C 7.89 g/m*3 8.4 C 0 km/h
2835 16-04-2005 04:07:01 8.6 C 7.99 g/m*3 8.6 C 0 km/h
2836 16-04-2005 04:19:02 8.7 C 8.13 g/m*3 8.7 C 0 km/h
2837 16-04-2005 04:31:01 8.8 C 8.09 g/m*3 8.8 C 0 km/h
2838 16-04-2005 04:43:01 8.7 C 8.04 g/m*3 8.7 C 0 km/h
2839 16-04-2005 04:55:03 8.9 C 8.06 g/m*3 8.9 C 0 km/h
2840 16-04-2005 05:07:02 8.9 C 8.06 g/m*3 8.9 C 0 km/h
2841 16-04-2005 05:19:03 8.9 C 8.06 g/m*3 8.9 C 0 km/h
2842 16-04-2005 05:31:02 8.9 C 7.97 g/m*3 8.9 C 0 km/h
2843 16-04-2005 05:43:02 8.9 C 7.8 g/m*3 8.9 C 0 km/h
2844 16-04-2005 05:55:02 8.9 C 7.71 g/m*3 8.9 C 0 km/h
2845 16-04-2005 06:07:02 9 C 7.67 g/m*3 9 C 0 km/h
2846 16-04-2005 06:19:01 9 C 7.67 g/m*3 9 C 0 km/h
2847 16-04-2005 06:31:01 9 C 7.58 g/m*3 9 C 0 km/h
2848 16-04-2005 06:43:01 9 C 7.58 g/m*3 9 C 0 km/h
2849 16-04-2005 06:55:01 9.1 C 7.63 g/m*3 9.1 C 0 km/h
2850 16-04-2005 07:07:01 9.1 C 7.63 g/m*3 9.1 C 0 km/h
Sensor: Nr:Datum:Temp:Abs-Feuchte:Windchill:Wind:
Aussen-T/F 2851 16-04-2005 07:19:02 9.1 C 7.54 g/m*3 9.1 C 0 km/h
2852 16-04-2005 07:31:01 9.2 C 7.5 g/m*3 9.2 C 0 km/h
2853 16-04-2005 07:43:01 9.2 C 7.59 g/m*3 9.2 C 0 km/h
2854 16-04-2005 07:55:02 9.2 C 7.5 g/m*3 9.2 C 0 km/h
2855 16-04-2005 08:07:02 9.2 C 7.41 g/m*3 9.2 C 0 km/h
2856 16-04-2005 08:19:01 9.3 C 7.46 g/m*3 9.3 C 0 km/h
2857 16-04-2005 08:31:02 9.3 C 7.37 g/m*3 9.3 C 0 km/h
2858 16-04-2005 08:43:02 9.3 C 7.46 g/m*3 9.3 C 0 km/h
2859 16-04-2005 08:55:01 9.4 C 7.42 g/m*3 9.4 C 0 km/h
2860 16-04-2005 09:07:01 9.5 C 7.37 g/m*3 9.5 C 0 km/h
2861 16-04-2005 09:19:02 9.4 C 7.33 g/m*3 9.4 C 0 km/h
2862 16-04-2005 09:31:01 9.3 C 7.28 g/m*3 9.3 C 0 km/h
2863 16-04-2005 09:43:01 9.3 C 7.37 g/m*3 9.3 C 0 km/h
2864 16-04-2005 09:55:02 9.1 C 7.45 g/m*3 9.1 C 0 km/h
2865 16-04-2005 10:07:02 9.2 C 7.5 g/m*3 9.2 C 0 km/h
2866 16-04-2005 10:19:02 9.1 C 7.45 g/m*3 9.1 C 0 km/h
2867 16-04-2005 10:31:03 9.2 C 7.5 g/m*3 9.2 C 0 km/h
2868 16-04-2005 10:43:03 9.2 C 7.5 g/m*3 9.2 C 0 km/h
2869 16-04-2005 10:55:02 9.2 C 7.41 g/m*3 9.2 C 0 km/h
2870 16-04-2005 11:07:02 9.4 C 7.6 g/m*3 9.4 C 0 km/h
2871 16-04-2005 11:19:02 9.5 C 7.46 g/m*3 9.5 C 0 km/h
2872 16-04-2005 11:31:02 9.7 C 7.56 g/m*3 9.7 C 0 km/h
2873 16-04-2005 11:43:02 10 C 7.52 g/m*3 10 C 0 km/h
2874 16-04-2005 11:55:03 10.2 C 7.42 g/m*3 10.2 C 0 km/h
2875 16-04-2005 12:07:03 10.1 C 7.38 g/m*3 10.1 C 0 km/h
Sensor: Nr:Datum:Temp:Abs-Feuchte:Windchill:Wind:
Aussen-T/F 2876 16-04-2005 12:19:02 10.2 C 7.42 g/m*3 10.2 C 0 km/h
2877 16-04-2005 12:31:02 10.3 C 7.57 g/m*3 10.3 C 0 km/h
2878 16-04-2005 12:43:02 10.5 C 7.47 g/m*3 10.5 C 0 km/h
2879 16-04-2005 12:55:02 10.6 C 7.52 g/m*3 10.6 C 0 km/h
2880 16-04-2005 13:07:01 11.1 C 7.66 g/m*3 11.1 C 0 km/h
2881 16-04-2005 13:19:01 10.8 C 7.41 g/m*3 10.8 C 0 km/h
2882 16-04-2005 13:31:02 10.6 C 7.32 g/m*3 10.6 C 0 km/h
2883 16-04-2005 13:43:02 11.1 C 7.45 g/m*3 11.1 C 0 km/h
2884 16-04-2005 13:55:02 10.9 C 7.46 g/m*3 10.9 C 0 km/h
2885 16-04-2005 14:07:02 10.9 C 7.36 g/m*3 10.9 C 0 km/h
2886 16-04-2005 14:19:03 11.2 C 7.4 g/m*3 11.2 C 0 km/h
2887 16-04-2005 14:31:02 11.4 C 7.39 g/m*3 11.4 C 0 km/h
2888 16-04-2005 14:43:02 11.6 C 7.38 g/m*3 11.6 C 0 km/h
2889 16-04-2005 14:55:02 11.8 C 7.47 g/m*3 11.8 C 0 km/h
2890 16-04-2005 15:07:03 12 C 7.25 g/m*3 12 C 0 km/h
2891 16-04-2005 15:19:02 11.9 C 7.41 g/m*3 11.9 C 0 km/h
2892 16-04-2005 15:31:02 11.6 C 7.38 g/m*3 11.6 C 0 km/h
2893 16-04-2005 15:43:02 11.5 C 7.44 g/m*3 11.5 C 0 km/h
2894 16-04-2005 15:55:02 11.6 C 7.48 g/m*3 11.6 C 0 km/h
2895 16-04-2005 16:07:02 11.8 C 7.47 g/m*3 11.8 C 0 km/h
2896 16-04-2005 16:19:01 11.6 C 7.48 g/m*3 11.6 C 0 km/h
2897 16-04-2005 16:31:01 11.1 C 7.45 g/m*3 11.1 C 0 km/h
2898 16-04-2005 16:43:01 11.3 C 7.55 g/m*3 11.3 C 0 km/h
2899 16-04-2005 16:55:02 10.9 C 7.76 g/m*3 10.9 C 0 km/h
2900 16-04-2005 17:07:03 10.5 C 7.86 g/m*3 10.5 C 0 km/h
Sensor: Nr:Datum:Temp:Abs-Feuchte:Windchill:Wind:
Aussen-T/F 2901 16-04-2005 17:19:02 10.7 C 7.96 g/m*3 10.7 C 0 km/h
2902 16-04-2005 17:31:02 10.6 C 7.91 g/m*3 10.6 C 0 km/h
2903 16-04-2005 17:43:02 10.4 C 8 g/m*3 10.4 C 0 km/h
2904 16-04-2005 17:55:02 10.7 C 8.05 g/m*3 10.7 C 0 km/h
2905 16-04-2005 18:07:03 10.7 C 7.86 g/m*3 10.7 C 0 km/h
2906 16-04-2005 18:19:02 10.5 C 7.86 g/m*3 10.5 C 0 km/h
2907 16-04-2005 18:31:02 10.4 C 7.81 g/m*3 10.4 C 0 km/h
2908 16-04-2005 18:43:02 10.4 C 7.9 g/m*3 10.4 C 0 km/h
2909 16-04-2005 18:55:02 10.5 C 7.95 g/m*3 10.5 C 0 km/h
2910 16-04-2005 19:07:02 10.6 C 7.91 g/m*3 10.6 C 0 km/h
2911 16-04-2005 19:19:03 10.6 C 7.91 g/m*3 10.6 C 0 km/h
2912 16-04-2005 19:31:03 10.7 C 7.96 g/m*3 10.7 C 0 km/h
2913 16-04-2005 19:43:03 10.7 C 7.96 g/m*3 10.7 C 0 km/h
2914 16-04-2005 19:55:02 10.7 C 8.05 g/m*3 10.7 C 0 km/h
2915 16-04-2005 20:07:02 10.7 C 8.05 g/m*3 10.7 C 0 km/h
2916 16-04-2005 20:19:03 10.7 C 8.05 g/m*3 10.7 C 0 km/h
2917 16-04-2005 20:31:03 10.6 C 8 g/m*3 10.6 C 0 km/h
2918 16-04-2005 20:43:03 10.6 C 8.1 g/m*3 10.6 C 0 km/h
2919 16-04-2005 20:55:02 10.6 C 8.1 g/m*3 10.6 C 0 km/h
2920 16-04-2005 21:07:02 10.7 C 8.15 g/m*3 10.7 C 0 km/h
2921 16-04-2005 21:19:02 10.7 C 8.15 g/m*3 10.7 C 0 km/h
2922 16-04-2005 21:31:03 10.8 C 8.2 g/m*3 10.8 C 0 km/h
2923 16-04-2005 21:43:03 10.7 C 8.25 g/m*3 10.7 C 0 km/h
2924 16-04-2005 21:55:02 10.7 C 8.25 g/m*3 10.7 C 0 km/h
2925 16-04-2005 22:07:03 10.7 C 8.25 g/m*3 10.7 C 0 km/h
Sensor: Nr:Datum:Temp:Abs-Feuchte:Windchill:Wind:
Aussen-T/F 2926 16-04-2005 22:19:03 10.7 C 8.25 g/m*3 10.7 C 0 km/h
2927 16-04-2005 22:31:05 10.7 C 8.25 g/m*3 10.7 C 0 km/h
2928 16-04-2005 22:43:05 10.7 C 8.25 g/m*3 10.7 C 0 km/h
2929 16-04-2005 22:55:03 10.6 C 8.3 g/m*3 10.6 C 0 km/h
2930 16-04-2005 23:07:04 10.5 C 8.24 g/m*3 10.5 C 0 km/h
2931 16-04-2005 23:19:03 10.5 C 8.24 g/m*3 10.5 C 0 km/h
2932 16-04-2005 23:31:03 10.5 C 8.24 g/m*3 10.5 C 0 km/h
2933 16-04-2005 23:43:04 10.5 C 8.24 g/m*3 10.5 C 0 km/h
2934 16-04-2005 23:55:02 10.4 C 8.29 g/m*3 10.4 C 0 km/h
2935 17-04-2005 00:07:02 10.4 C 8.29 g/m*3 10.4 C 0 km/h
2936 17-04-2005 00:19:02 10.3 C 8.33 g/m*3 10.3 C 0 km/h
2937 17-04-2005 00:31:02 10.3 C 8.24 g/m*3 10.3 C 0 km/h
2938 17-04-2005 00:43:02 10.2 C 8.28 g/m*3 10.2 C 0 km/h
2939 17-04-2005 00:55:02 10.2 C 8.28 g/m*3 10.2 C 0 km/h
2940 17-04-2005 01:07:01 10.1 C 8.23 g/m*3 10.1 C 0 km/h
2941 17-04-2005 01:19:02 10.1 C 8.23 g/m*3 10.1 C 0 km/h
2942 17-04-2005 01:31:02 10.1 C 8.23 g/m*3 10.1 C 0 km/h
2943 17-04-2005 01:43:02 10.1 C 8.23 g/m*3 10.1 C 0 km/h
2944 17-04-2005 01:55:03 10.1 C 8.23 g/m*3 10.1 C 0 km/h
2945 17-04-2005 02:07:03 10.1 C 8.23 g/m*3 10.1 C 0 km/h
2946 17-04-2005 02:19:02 10.1 C 8.23 g/m*3 10.1 C 0 km/h
2947 17-04-2005 02:31:02 10 C 8.17 g/m*3 10 C 0 km/h
2948 17-04-2005 02:43:02 10 C 8.17 g/m*3 10 C 0 km/h
2949 17-04-2005 02:56:04 10 C 8.17 g/m*3 10 C 0 km/h
2950 17-04-2005 03:08:04 10 C 8.17 g/m*3 10 C 0 km/h
Sensor: Nr:Datum:Temp:Abs-Feuchte:Windchill:Wind:
Aussen-T/F 2951 17-04-2005 03:20:04 10 C 8.17 g/m*3 10 C 0 km/h
2952 17-04-2005 03:32:02 10 C 8.17 g/m*3 10 C 0 km/h
2953 17-04-2005 03:44:02 10 C 8.17 g/m*3 10 C 0 km/h
2954 17-04-2005 03:56:02 9.8 C 8.16 g/m*3 9.8 C 0 km/h
2955 17-04-2005 04:08:01 9.8 C 8.16 g/m*3 9.8 C 0 km/h
2956 17-04-2005 04:20:02 9.8 C 8.26 g/m*3 9.8 C 0 km/h
2957 17-04-2005 04:32:02 9.8 C 8.26 g/m*3 9.8 C 0 km/h
2958 17-04-2005 04:44:02 10 C 8.17 g/m*3 10 C 0 km/h
2959 17-04-2005 04:56:02 10 C 8.17 g/m*3 10 C 0 km/h
2960 17-04-2005 05:08:01 10 C 8.17 g/m*3 10 C 0 km/h
2961 17-04-2005 05:20:02 10 C 8.17 g/m*3 10 C 0 km/h
2962 17-04-2005 05:32:02 10 C 8.17 g/m*3 10 C 0 km/h
2963 17-04-2005 05:44:02 10 C 8.17 g/m*3 10 C 0 km/h
2964 17-04-2005 05:56:02 10 C 8.17 g/m*3 10 C 0 km/h
2965 17-04-2005 06:08:02 10 C 8.17 g/m*3 10 C 0 km/h
2966 17-04-2005 06:20:01 10 C 8.17 g/m*3 10 C 0 km/h
2967 17-04-2005 06:32:02 10 C 8.17 g/m*3 10 C 0 km/h
2968 17-04-2005 06:44:02 9.8 C 8.16 g/m*3 9.8 C 0 km/h
2969 17-04-2005 06:56:02 10 C 8.17 g/m*3 10 C 0 km/h
2970 17-04-2005 07:08:02 10 C 8.17 g/m*3 10 C 0 km/h
2971 17-04-2005 07:20:02 10 C 8.17 g/m*3 10 C 0 km/h
2972 17-04-2005 07:32:02 10 C 8.17 g/m*3 10 C 0 km/h
2973 17-04-2005 07:44:02 10 C 8.17 g/m*3 10 C 0 km/h
2974 17-04-2005 07:56:02 10 C 8.08 g/m*3 10 C 0 km/h
2975 17-04-2005 08:08:01 10 C 8.08 g/m*3 10 C 0 km/h
Sensor: Nr:Datum:Temp:Abs-Feuchte:Windchill:Wind:
Aussen-T/F 2976 17-04-2005 08:20:01 10 C 8.08 g/m*3 10 C 0 km/h
2977 17-04-2005 08:32:01 10 C 8.08 g/m*3 10 C 0 km/h
2978 17-04-2005 08:44:01 10 C 8.08 g/m*3 10 C 0 km/h
2979 17-04-2005 08:56:02 10 C 8.08 g/m*3 10 C 0 km/h
2980 17-04-2005 09:08:03 10 C 8.08 g/m*3 10 C 0 km/h
2981 17-04-2005 09:20:02 10.1 C 8.13 g/m*3 10.1 C 0 km/h
2982 17-04-2005 09:32:03 9.9 C 8.12 g/m*3 9.9 C 0 km/h
2983 17-04-2005 09:44:03 9.7 C 8.2 g/m*3 9.7 C 0 km/h
2984 17-04-2005 09:56:02 9.7 C 8.3 g/m*3 9.7 C 0 km/h
2985 17-04-2005 10:08:02 9.8 C 8.35 g/m*3 9.8 C 0 km/h
2986 17-04-2005 10:20:02 10 C 8.27 g/m*3 10 C 0 km/h
2987 17-04-2005 10:32:02 10.1 C 8.32 g/m*3 10.1 C 0 km/h
2988 17-04-2005 10:44:02 10.1 C 8.23 g/m*3 10.1 C 0 km/h
2989 17-04-2005 10:56:02 10.2 C 8.28 g/m*3 10.2 C 0 km/h
2990 17-04-2005 11:08:02 10.2 C 8.28 g/m*3 10.2 C 0 km/h
2991 17-04-2005 11:20:03 10.3 C 8.24 g/m*3 10.3 C 0 km/h
2992 17-04-2005 11:32:03 10.4 C 8.29 g/m*3 10.4 C 0 km/h
2993 17-04-2005 11:44:03 10.4 C 8.29 g/m*3 10.4 C 0 km/h
2994 17-04-2005 11:56:03 10.4 C 8.29 g/m*3 10.4 C 0 km/h
2995 17-04-2005 12:08:02 10.2 C 8.28 g/m*3 10.2 C 0 km/h
2996 17-04-2005 12:20:01 10.5 C 8.44 g/m*3 10.5 C 0 km/h
2997 17-04-2005 12:32:03 10.7 C 8.45 g/m*3 10.7 C 0 km/h
2998 17-04-2005 12:44:03 10.8 C 8.4 g/m*3 10.8 C 0 km/h
2999 17-04-2005 12:56:04 10.8 C 8.4 g/m*3 10.8 C 0 km/h
3000 17-04-2005 13:08:04 10.9 C 8.45 g/m*3 10.9 C 0 km/h
Sensor: Nr:Datum:Temp:Abs-Feuchte:Windchill:Wind:
Aussen-T/F 3001 17-04-2005 13:20:04 11.1 C 8.46 g/m*3 11.1 C 0 km/h
3002 17-04-2005 13:32:05 11 C 8.41 g/m*3 11 C 0 km/h
3003 17-04-2005 13:44:05 11.1 C 8.46 g/m*3 11.1 C 0 km/h
3004 17-04-2005 13:56:02 11.5 C 8.57 g/m*3 11.5 C 0 km/h
3005 17-04-2005 14:08:02 11.8 C 8.63 g/m*3 11.8 C 0 km/h
3006 17-04-2005 14:20:02 12.1 C 8.58 g/m*3 12.1 C 0 km/h
3007 17-04-2005 14:32:02 12.5 C 8.58 g/m*3 12.5 C 0 km/h
3008 17-04-2005 14:44:02 12.8 C 8.74 g/m*3 12.8 C 0 km/h
3009 17-04-2005 14:56:01 13.1 C 8.56 g/m*3 13.1 C 0 km/h
3010 17-04-2005 15:08:01 13 C 8.39 g/m*3 13 C 0 km/h
3011 17-04-2005 15:20:02 13.2 C 8.5 g/m*3 13.2 C 0 km/h
3012 17-04-2005 15:32:02 13.5 C 8.42 g/m*3 13.5 C 0 km/h
3013 17-04-2005 15:44:02 13.8 C 8.58 g/m*3 13.8 C 0 km/h
3014 17-04-2005 15:56:02 13.9 C 8.39 g/m*3 13.9 C 0 km/h
3015 17-04-2005 16:08:02 14.2 C 8.55 g/m*3 14.2 C 0 km/h
3016 17-04-2005 16:20:02 14.6 C 8.63 g/m*3 14.6 C 0 km/h
3017 17-04-2005 16:32:02 15.1 C 8.39 g/m*3 15.1 C 0 km/h
3018 17-04-2005 16:44:03 14.4 C 8.41 g/m*3 14.4 C 0 km/h
3019 17-04-2005 16:56:02 14.6 C 8.51 g/m*3 14.6 C 0 km/h
3020 17-04-2005 17:08:02 14.3 C 8.35 g/m*3 14.3 C 0 km/h
3021 17-04-2005 17:20:02 13.8 C 8.34 g/m*3 13.8 C 0 km/h
3022 17-04-2005 17:32:02 13.9 C 8.51 g/m*3 13.9 C 0 km/h
3023 17-04-2005 17:44:02 13.6 C 8.47 g/m*3 13.6 C 0 km/h
3024 17-04-2005 17:56:02 13.7 C 8.53 g/m*3 13.7 C 0 km/h
3025 17-04-2005 18:08:03 13.7 C 8.53 g/m*3 13.7 C 0 km/h
Sensor: Nr:Datum:Temp:Abs-Feuchte:Windchill:Wind:
Aussen-T/F 3026 17-04-2005 18:20:02 13.6 C 8.47 g/m*3 13.6 C 0 km/h
3027 17-04-2005 18:32:02 13.5 C 8.42 g/m*3 13.5 C 0 km/h
3028 17-04-2005 18:44:02 13.4 C 8.37 g/m*3 13.4 C 0 km/h
3029 17-04-2005 18:56:02 13.1 C 8.33 g/m*3 13.1 C 0 km/h
3030 17-04-2005 19:08:02 13.1 C 8.33 g/m*3 13.1 C 0 km/h
3031 17-04-2005 19:20:03 13 C 8.39 g/m*3 13 C 0 km/h
3032 17-04-2005 19:32:02 12.9 C 8.45 g/m*3 12.9 C 0 km/h
3033 17-04-2005 19:44:02 12.9 C 8.45 g/m*3 12.9 C 0 km/h
3034 17-04-2005 19:56:02 12.9 C 8.45 g/m*3 12.9 C 0 km/h
3035 17-04-2005 20:08:01 12.7 C 8.46 g/m*3 12.7 C 0 km/h
3036 17-04-2005 20:20:01 12.6 C 8.41 g/m*3 12.6 C 0 km/h
3037 17-04-2005 20:32:04 12.6 C 8.52 g/m*3 12.6 C 0 km/h
3038 17-04-2005 20:44:05 12.6 C 8.52 g/m*3 12.6 C 0 km/h
3039 17-04-2005 20:56:05 12.6 C 8.52 g/m*3 12.6 C 0 km/h
3040 17-04-2005 21:08:04 12.5 C 8.47 g/m*3 12.5 C 0 km/h
3041 17-04-2005 21:20:06 12.5 C 8.47 g/m*3 12.5 C 0 km/h
3042 17-04-2005 21:32:05 12.4 C 8.41 g/m*3 12.4 C 0 km/h
3043 17-04-2005 21:44:05 12.4 C 8.41 g/m*3 12.4 C 0 km/h
3044 17-04-2005 21:56:04 12.4 C 8.41 g/m*3 12.4 C 0 km/h
3045 17-04-2005 22:08:03 12.4 C 8.41 g/m*3 12.4 C 0 km/h
3046 17-04-2005 22:20:02 12.4 C 8.41 g/m*3 12.4 C 0 km/h
3047 17-04-2005 22:32:02 12.5 C 8.58 g/m*3 12.5 C 0 km/h
3048 17-04-2005 22:44:02 12.2 C 8.42 g/m*3 12.2 C 0 km/h
3049 17-04-2005 22:56:02 12.2 C 8.52 g/m*3 12.2 C 0 km/h
3050 17-04-2005 23:08:01 12.1 C 8.47 g/m*3 12.1 C 0 km/h
Sensor: Nr:Datum:Temp:Abs-Feuchte:Windchill:Wind:
Aussen-T/F 3051 17-04-2005 23:20:02 12.2 C 8.52 g/m*3 12.2 C 0 km/h
3052 17-04-2005 23:32:01 12.2 C 8.52 g/m*3 12.2 C 0 km/h
3053 17-04-2005 23:44:01 12.1 C 8.58 g/m*3 12.1 C 0 km/h
3054 17-04-2005 23:56:02 12.1 C 8.58 g/m*3 12.1 C 0 km/h
3055 18-04-2005 00:08:02 12.1 C 8.58 g/m*3 12.1 C 0 km/h
3056 18-04-2005 00:20:02 12.1 C 8.58 g/m*3 12.1 C 0 km/h
3057 18-04-2005 00:32:02 12.1 C 8.58 g/m*3 12.1 C 0 km/h
3058 18-04-2005 00:44:02 12 C 8.53 g/m*3 12 C 0 km/h
3059 18-04-2005 00:56:02 12 C 8.53 g/m*3 12 C 0 km/h
3060 18-04-2005 01:08:02 11.9 C 8.58 g/m*3 11.9 C 0 km/h
3061 18-04-2005 01:20:02 11.8 C 8.63 g/m*3 11.8 C 0 km/h
3062 18-04-2005 01:32:03 11.8 C 8.63 g/m*3 11.8 C 0 km/h
3063 18-04-2005 01:44:03 11.9 C 8.68 g/m*3 11.9 C 0 km/h
3064 18-04-2005 01:56:02 11.9 C 8.68 g/m*3 11.9 C 0 km/h
3065 18-04-2005 02:08:02 11.8 C 8.63 g/m*3 11.8 C 0 km/h
3066 18-04-2005 02:20:02 11.8 C 8.63 g/m*3 11.8 C 0 km/h
3067 18-04-2005 02:32:03 11.8 C 8.63 g/m*3 11.8 C 0 km/h
3068 18-04-2005 02:44:03 11.8 C 8.63 g/m*3 11.8 C 0 km/h
3069 18-04-2005 02:57:04 11.7 C 8.58 g/m*3 11.7 C 0 km/h
3070 18-04-2005 03:09:04 11.8 C 8.63 g/m*3 11.8 C 0 km/h
3071 18-04-2005 03:21:04 11.7 C 8.58 g/m*3 11.7 C 0 km/h
3072 18-04-2005 03:33:02 11.6 C 8.52 g/m*3 11.6 C 0 km/h
3073 18-04-2005 03:45:02 11.6 C 8.52 g/m*3 11.6 C 0 km/h
3074 18-04-2005 03:57:02 11.7 C 8.58 g/m*3 11.7 C 0 km/h
3075 18-04-2005 04:09:02 11.7 C 8.58 g/m*3 11.7 C 0 km/h
Sensor: Nr:Datum:Temp:Abs-Feuchte:Windchill:Wind:
Aussen-T/F 3076 18-04-2005 04:21:02 11.6 C 8.52 g/m*3 11.6 C 0 km/h
3077 18-04-2005 04:33:02 11.6 C 8.63 g/m*3 11.6 C 0 km/h
3078 18-04-2005 04:45:03 11.5 C 8.57 g/m*3 11.5 C 0 km/h
3079 18-04-2005 04:57:03 11.5 C 8.57 g/m*3 11.5 C 0 km/h
3080 18-04-2005 05:09:02 11.5 C 8.57 g/m*3 11.5 C 0 km/h
3081 18-04-2005 05:21:02 11.5 C 8.57 g/m*3 11.5 C 0 km/h
3082 18-04-2005 05:33:02 11.5 C 8.57 g/m*3 11.5 C 0 km/h
3083 18-04-2005 05:45:02 11.5 C 8.57 g/m*3 11.5 C 0 km/h
3084 18-04-2005 05:57:02 11.5 C 8.57 g/m*3 11.5 C 0 km/h
3085 18-04-2005 06:09:01 11.5 C 8.57 g/m*3 11.5 C 0 km/h
3086 18-04-2005 06:21:01 11.5 C 8.57 g/m*3 11.5 C 0 km/h
3087 18-04-2005 06:33:01 11.5 C 8.57 g/m*3 11.5 C 0 km/h
3088 18-04-2005 06:45:02 11.5 C 8.57 g/m*3 11.5 C 0 km/h
3089 18-04-2005 06:57:02 11.5 C 8.57 g/m*3 11.5 C 0 km/h
3090 18-04-2005 07:09:01 11.5 C 8.57 g/m*3 11.5 C 0 km/h
3091 18-04-2005 07:21:02 11.5 C 8.57 g/m*3 11.5 C 0 km/h
3092 18-04-2005 07:33:01 11.6 C 8.73 g/m*3 11.6 C 0 km/h
3093 18-04-2005 07:45:02 11.7 C 8.79 g/m*3 11.7 C 0 km/h
3094 18-04-2005 07:57:02 11.9 C 8.9 g/m*3 11.9 C 0 km/h
3095 18-04-2005 08:09:01 11.9 C 8.79 g/m*3 11.9 C 0 km/h
3096 18-04-2005 08:21:02 11.9 C 8.79 g/m*3 11.9 C 0 km/h
3097 18-04-2005 08:33:02 11.7 C 8.89 g/m*3 11.7 C 0 km/h
3098 18-04-2005 08:45:02 11.8 C 9.05 g/m*3 11.8 C 0 km/h
3099 18-04-2005 08:57:02 12.4 C 8.85 g/m*3 12.4 C 0 km/h
3100 18-04-2005 09:09:01 12.6 C 8.74 g/m*3 12.6 C 0 km/h
Sensor: Nr:Datum:Temp:Abs-Feuchte:Windchill:Wind:
Aussen-T/F 3101 18-04-2005 09:21:02 12.5 C 8.47 g/m*3 12.5 C 0 km/h
3102 18-04-2005 09:33:01 12.7 C 8.24 g/m*3 12.7 C 0 km/h
3103 18-04-2005 09:45:02 12.7 C 8.13 g/m*3 12.7 C 0 km/h
3104 18-04-2005 09:57:02 13.4 C 8.14 g/m*3 13.4 C 0 km/h
3105 18-04-2005 10:09:03 13.7 C 8.17 g/m*3 13.7 C 0 km/h
3106 18-04-2005 10:21:02 13.7 C 8.17 g/m*3 13.7 C 0 km/h
3107 18-04-2005 10:33:05 13.2 C 8.04 g/m*3 13.2 C 0 km/h
3108 18-04-2005 10:45:10 13.1 C 7.99 g/m*3 13.1 C 0 km/h
3109 18-04-2005 10:57:10 12.9 C 8 g/m*3 12.9 C 0 km/h
3110 18-04-2005 11:09:10 12.6 C 8.08 g/m*3 12.6 C 0 km/h
3111 18-04-2005 11:21:11 12.5 C 8.03 g/m*3 12.5 C 0 km/h
3112 18-04-2005 11:33:09 12.7 C 7.9 g/m*3 12.7 C 0 km/h
3113 18-04-2005 11:45:02 13.6 C 7.65 g/m*3 13.6 C 0 km/h
3114 18-04-2005 11:57:02 14 C 7.24 g/m*3 14 C 0 km/h
3115 18-04-2005 12:09:03 14.7 C 7.18 g/m*3 14.7 C 0 km/h
3116 18-04-2005 12:21:02 15.2 C 7.27 g/m*3 15.2 C 0 km/h
3117 18-04-2005 12:33:02 15.7 C 6.96 g/m*3 15.7 C 0 km/h
3118 18-04-2005 12:45:02 15.5 C 6.61 g/m*3 15.5 C 0 km/h
3119 18-04-2005 12:57:02 16.1 C 6.58 g/m*3 16.1 C 0 km/h
3120 18-04-2005 13:09:02 16.4 C 6.42 g/m*3 16.4 C 0 km/h
3121 18-04-2005 13:21:02 16.7 C 6.25 g/m*3 16.7 C 0 km/h
3122 18-04-2005 13:33:01 17 C 6.08 g/m*3 17 C 0 km/h
3123 18-04-2005 13:45:02 17.5 C 6.26 g/m*3 17.5 C 0 km/h
3124 18-04-2005 13:57:02 17.7 C 5.58 g/m*3 17.7 C 0 km/h
3125 18-04-2005 14:09:02 18.2 C 5.91 g/m*3 18.2 C 0 km/h
Sensor: Nr:Datum:Temp:Abs-Feuchte:Windchill:Wind:
Aussen-T/F 3126 18-04-2005 14:21:03 18.5 C 5.85 g/m*3 18.5 C 0 km/h
3127 18-04-2005 14:33:08 19 C 5.54 g/m*3 19 C 0 km/h
3128 18-04-2005 14:45:03 19.4 C 5.84 g/m*3 19.4 C 0 km/h
3129 18-04-2005 14:57:03 19.4 C 5.84 g/m*3 19.4 C 0 km/h
3130 18-04-2005 15:09:04 19.9 C 5.84 g/m*3 19.9 C 0 km/h
3131 18-04-2005 15:21:03 20.4 C 5.31 g/m*3 20.4 C 0 km/h
3132 18-04-2005 15:33:03 20 C 5.36 g/m*3 20 C 0 km/h
3133 18-04-2005 15:45:02 20.2 C 5.42 g/m*3 20.2 C 0 km/h
3134 18-04-2005 15:57:02 20.4 C 5.66 g/m*3 20.4 C 0 km/h
3135 18-04-2005 16:09:01 20.5 C 5.69 g/m*3 20.5 C 0 km/h
3136 18-04-2005 16:21:02 21 C 5.86 g/m*3 21 C 0 km/h
3137 18-04-2005 16:33:30 21.2 C 5.74 g/m*3 21.2 C 0 km/h
3138 18-04-2005 16:45:30 21 C 5.86 g/m*3 21 C 0 km/h
3139 18-04-2005 16:57:31 21.7 C 5.91 g/m*3 21.7 C 0 km/h
3140 18-04-2005 17:09:31 21.8 C 5.76 g/m*3 21.8 C 0 km/h
3141 18-04-2005 17:21:31 21.3 C 5.59 g/m*3 21.3 C 0 km/h
3142 18-04-2005 17:33:31 21.6 C 5.88 g/m*3 21.6 C 0 km/h
3143 18-04-2005 17:45:31 20.8 C 5.79 g/m*3 20.8 C 0 km/h
3144 18-04-2005 17:57:31 20.3 C 5.8 g/m*3 20.3 C 0 km/h
3145 18-04-2005 18:09:31 20.1 C 5.91 g/m*3 20.1 C 0 km/h
3146 18-04-2005 18:21:31 19.5 C 6.04 g/m*3 19.5 C 0 km/h
3147 18-04-2005 18:33:31 18.9 C 6.16 g/m*3 18.9 C 0 km/h
3148 18-04-2005 18:45:31 18.9 C 6.16 g/m*3 18.9 C 0 km/h
3149 18-04-2005 18:57:31 18.4 C 6.29 g/m*3 18.4 C 0 km/h
3150 18-04-2005 19:09:31 17.9 C 6.57 g/m*3 17.9 C 0 km/h
Sensor: Nr:Datum:Temp:Abs-Feuchte:Windchill:Wind:
Aussen-T/F 3151 18-04-2005 19:21:31 17.5 C 6.56 g/m*3 17.5 C 0 km/h
3152 18-04-2005 19:33:31 17.5 C 6.86 g/m*3 17.5 C 0 km/h
3153 18-04-2005 19:45:31 17.4 C 7.11 g/m*3 17.4 C 0 km/h
3154 18-04-2005 19:57:31 16.8 C 7.15 g/m*3 16.8 C 0 km/h
3155 18-04-2005 20:09:31 16.3 C 7.08 g/m*3 16.3 C 0 km/h
3156 18-04-2005 20:21:31 16.3 C 7.08 g/m*3 16.3 C 0 km/h
3157 18-04-2005 20:33:03 16.4 C 7.4 g/m*3 16.4 C 0 km/h
3158 18-04-2005 20:45:02 16.4 C 7.4 g/m*3 16.4 C 0 km/h
3159 18-04-2005 20:57:02 16.2 C 7.31 g/m*3 16.2 C 0 km/h
3160 18-04-2005 21:09:03 16.1 C 7.26 g/m*3 16.1 C 0 km/h
3161 18-04-2005 21:21:03 16.2 C 7.58 g/m*3 16.2 C 0 km/h
3162 18-04-2005 21:33:04 16 C 7.49 g/m*3 16 C 0 km/h
3163 18-04-2005 21:45:03 15.9 C 7.45 g/m*3 15.9 C 0 km/h
3164 18-04-2005 21:57:03 15.8 C 7.67 g/m*3 15.8 C 0 km/h
3165 18-04-2005 22:09:05 15.6 C 7.58 g/m*3 15.6 C 0 km/h
3166 18-04-2005 22:21:04 15.2 C 7.53 g/m*3 15.2 C 0 km/h
3167 18-04-2005 22:33:04 15 C 7.69 g/m*3 15 C 0 km/h
3168 18-04-2005 22:45:05 14.9 C 7.9 g/m*3 14.9 C 0 km/h
3169 18-04-2005 22:57:05 14.8 C 7.98 g/m*3 14.8 C 0 km/h
3170 18-04-2005 23:09:06 14.7 C 7.93 g/m*3 14.7 C 0 km/h
3171 18-04-2005 23:21:05 14.5 C 7.71 g/m*3 14.5 C 0 km/h
3172 18-04-2005 23:33:04 14.3 C 7.49 g/m*3 14.3 C 0 km/h
3173 18-04-2005 23:45:02 14.2 C 7.57 g/m*3 14.2 C 0 km/h
3174 18-04-2005 23:57:02 14.1 C 7.52 g/m*3 14.1 C 0 km/h
3175 19-04-2005 00:09:02 14 C 7.6 g/m*3 14 C 0 km/h
Sensor: Nr:Datum:Temp:Abs-Feuchte:Windchill:Wind:
Aussen-T/F 3176 19-04-2005 00:21:02 14 C 7.6 g/m*3 14 C 0 km/h
3177 19-04-2005 00:33:03 14 C 7.72 g/m*3 14 C 0 km/h
3178 19-04-2005 00:45:02 13.8 C 7.86 g/m*3 13.8 C 0 km/h
3179 19-04-2005 00:57:02 13.7 C 7.82 g/m*3 13.7 C 0 km/h
3180 19-04-2005 01:09:02 13.4 C 7.79 g/m*3 13.4 C 0 km/h
3181 19-04-2005 01:21:02 13.4 C 7.9 g/m*3 13.4 C 0 km/h
3182 19-04-2005 01:33:02 13.4 C 8.02 g/m*3 13.4 C 0 km/h
3183 19-04-2005 01:45:02 12.9 C 8.34 g/m*3 12.9 C 0 km/h
3184 19-04-2005 01:57:02 12.6 C 8.63 g/m*3 12.6 C 0 km/h
3185 19-04-2005 02:09:02 12.2 C 8.63 g/m*3 12.2 C 0 km/h
3186 19-04-2005 02:21:02 12.1 C 8.69 g/m*3 12.1 C 0 km/h
3187 19-04-2005 02:33:02 12 C 8.74 g/m*3 12 C 0 km/h
3188 19-04-2005 02:46:03 11.8 C 8.84 g/m*3 11.8 C 0 km/h
3189 19-04-2005 02:58:03 11.4 C 8.52 g/m*3 11.4 C 0 km/h
3190 19-04-2005 03:10:03 11.1 C 8.46 g/m*3 11.1 C 0 km/h
3191 19-04-2005 03:22:03 10.8 C 8.3 g/m*3 10.8 C 0 km/h
3192 19-04-2005 03:34:05 10.7 C 8.25 g/m*3 10.7 C 0 km/h
3193 19-04-2005 03:46:05 10.7 C 8.35 g/m*3 10.7 C 0 km/h
3194 19-04-2005 03:58:05 10.7 C 8.45 g/m*3 10.7 C 0 km/h
3195 19-04-2005 04:10:07 10.8 C 8.6 g/m*3 10.8 C 0 km/h
3196 19-04-2005 04:22:05 10.7 C 8.64 g/m*3 10.7 C 0 km/h
3197 19-04-2005 04:34:04 10.5 C 8.53 g/m*3 10.5 C 0 km/h
3198 19-04-2005 04:46:03 10.4 C 8.67 g/m*3 10.4 C 0 km/h
3199 19-04-2005 04:58:03 10.4 C 8.67 g/m*3 10.4 C 0 km/h
3200 19-04-2005 05:10:02 10.4 C 8.77 g/m*3 10.4 C 0 km/h
Sensor: Nr:Datum:Temp:Abs-Feuchte:Windchill:Wind:
Aussen-T/F 3201 19-04-2005 05:22:02 10.2 C 8.66 g/m*3 10.2 C 0 km/h
3202 19-04-2005 05:34:02 10.2 C 8.66 g/m*3 10.2 C 0 km/h
3203 19-04-2005 05:46:02 10.3 C 8.81 g/m*3 10.3 C 0 km/h
3204 19-04-2005 05:58:02 10.2 C 8.76 g/m*3 10.2 C 0 km/h
3205 19-04-2005 06:10:03 10.2 C 8.76 g/m*3 10.2 C 0 km/h
3206 19-04-2005 06:22:03 10.2 C 8.85 g/m*3 10.2 C 0 km/h
3207 19-04-2005 06:34:02 10.1 C 8.79 g/m*3 10.1 C 0 km/h
3208 19-04-2005 06:46:02 10.2 C 8.85 g/m*3 10.2 C 0 km/h
3209 19-04-2005 06:58:02 10.1 C 8.79 g/m*3 10.1 C 0 km/h
3210 19-04-2005 07:10:06 10 C 8.74 g/m*3 10 C 0 km/h
3211 19-04-2005 07:22:34 10 C 8.83 g/m*3 10 C 0 km/h
3212 19-04-2005 07:34:01 10 C 8.83 g/m*3 10 C 0 km/h
3213 19-04-2005 07:46:02 9.8 C 8.81 g/m*3 9.8 C 0 km/h
3214 19-04-2005 07:58:02 10.1 C 8.89 g/m*3 10.1 C 0 km/h
3215 19-04-2005 08:10:01 9.8 C 8.81 g/m*3 9.8 C 0 km/h
3216 19-04-2005 08:22:01 9.8 C 8.81 g/m*3 9.8 C 0 km/h
3217 19-04-2005 08:34:02 9.8 C 8.81 g/m*3 9.8 C 0 km/h
3218 19-04-2005 08:46:02 9.7 C 8.76 g/m*3 9.7 C 0 km/h
3219 19-04-2005 08:58:02 9.6 C 8.7 g/m*3 9.6 C 0 km/h
3220 19-04-2005 09:10:02 9.5 C 8.65 g/m*3 9.5 C 0 km/h
3221 19-04-2005 09:22:02 9.4 C 8.59 g/m*3 9.4 C 0 km/h
3222 19-04-2005 09:34:02 9.3 C 8.45 g/m*3 9.3 C 0 km/h
3223 19-04-2005 09:46:02 9.2 C 8.39 g/m*3 9.2 C 0 km/h
3224 19-04-2005 09:58:02 9.2 C 8.39 g/m*3 9.2 C 0 km/h
3225 19-04-2005 10:10:01 9.2 C 8.3 g/m*3 9.2 C 0 km/h
Sensor: Nr:Datum:Temp:Abs-Feuchte:Windchill:Wind:
Aussen-T/F 3226 19-04-2005 10:22:02 9.3 C 8.45 g/m*3 9.3 C 0 km/h
3227 19-04-2005 10:34:02 9.6 C 8.61 g/m*3 9.6 C 0 km/h
3228 19-04-2005 10:46:02 9.3 C 8.45 g/m*3 9.3 C 0 km/h
3229 19-04-2005 10:58:02 9.5 C 8.56 g/m*3 9.5 C 0 km/h
3230 19-04-2005 11:10:02 9.5 C 8.56 g/m*3 9.5 C 0 km/h
3231 19-04-2005 11:22:03 9.5 C 8.56 g/m*3 9.5 C 0 km/h
3232 19-04-2005 11:34:02 9.4 C 8.5 g/m*3 9.4 C 0 km/h
3233 19-04-2005 11:46:02 9.1 C 8.25 g/m*3 9.1 C 0 km/h
3234 19-04-2005 11:58:02 9.3 C 8.36 g/m*3 9.3 C 0 km/h
3235 19-04-2005 12:10:02 9.4 C 8.41 g/m*3 9.4 C 0 km/h
3236 19-04-2005 12:22:02 9.2 C 8.3 g/m*3 9.2 C 0 km/h
3237 19-04-2005 12:34:01 9.2 C 8.39 g/m*3 9.2 C 0 km/h
3238 19-04-2005 12:46:02 9.3 C 8.45 g/m*3 9.3 C 0 km/h
3239 19-04-2005 12:58:02 9.2 C 8.3 g/m*3